logo
Games tagged Text-Based
# Game Release date
Price
Score rank
(Userscore / Metascore)
Owners
Players
Playtime (Median)
Developer(s)
Publisher(s)
1 Lacuna – A Sci-Fi Noir Adventure May 20, 2021 $15.99N/A (N/A/86%)500,000 .. 1,000,0000%00:00 (00:00)DigiTales InteractiveAssemble Entertainment, WhisperGames, Mayflower Entertainment
2 Football Manager 2022 Nov 9, 2021 N/AN/A (N/A/85%)2,000,000 .. 5,000,0002.5%09:07 (03:02)Sports InteractiveSEGA
3 The Darkside Detective: A Fumble in the Dark Apr 15, 2021 $8.24N/A (N/A/84%)50,000 .. 100,0000%00:00 (00:00)Spooky DoorwayAkupara Games
4 Roadwarden Sep 12, 2022 $10.99N/A (N/A/83%)100,000 .. 200,0000%00:00 (00:00)Moral Anxiety StudioAssemble Entertainment
5 Digimon Survive Jul 28, 2022 $59.99N/A (N/A/83%)100,000 .. 200,0000%00:00 (00:00)HYDE, Inc.Bandai Namco Entertainment Inc.
6 The Great Ace Attorney Chronicles Jul 26, 2021 $15.99N/A (N/A/83%)100,000 .. 200,0000%00:00 (00:00)CAPCOM Co., Ltd.CAPCOM Co., Ltd.
7 Citizen Sleeper May 5, 2022 $19.99N/A (N/A/82%)200,000 .. 500,0000%00:00 (00:00)Jump Over The AgeFellow Traveller
8 The Life and Suffering of Sir Brante Mar 4, 2021 $7.99N/A (N/A/82%)200,000 .. 500,0000%00:00 (00:00)Sever101XP
9 Doki Doki Literature Club Plus! Jun 30, 2021 $14.99N/A (N/A/81%)500,000 .. 1,000,0002.38%04:25 (01:28)Team SalvatoSerenity Forge
10 Overboard! Jun 2, 2021 $14.99N/A (N/A/81%)50,000 .. 100,0000%00:00 (00:00)inkle Ltdinkle Ltd
11 Doctor Who: The Lonely Assassins Mar 18, 2021 $5.99N/A (N/A/81%)100,000 .. 200,0000%00:00 (00:00)Kaigan Games OÜMaze Theory, Another Indie
12 Suzerain Dec 4, 2020 $19.99N/A (N/A/81%)1,000,000 .. 2,000,0003.33%00:01 (00:00)Torpor GamesFellow Traveller, Torpor Games
13 Wanderlust: Travel Stories Sep 26, 2019 $14.99N/A (N/A/79%)0 .. 20,000100%06:59 (06:59)Different TalesDifferent Tales
14 Sarawak Jan 27, 2021 $4.99N/A (N/A/78%)20,000 .. 50,0000%00:00 (00:00)Cowleyfornia StudiosCowleyfornia Studios
15 Werewolf: The Apocalypse — Heart of the Forest Oct 13, 2020 $14.99N/A (N/A/78%)100,000 .. 200,0000%00:00 (00:00)Different TalesDifferent Tales
16 Signs of the Sojourner May 14, 2020 $19.99N/A (N/A/77%)0 .. 20,0000%00:00 (00:00)Echodog GamesEchodog Games
17 Trolley Problem, Inc. Apr 21, 2022 $10.99N/A (N/A/76%)20,000 .. 50,0000%00:00 (00:00)Read GravesYogscast Games
18 Arcadia Fallen Nov 17, 2021 $11.24N/A (N/A/76%)0 .. 20,0000%00:00 (00:00)Galdra StudiosGaldra Studios
19 Apollo Justice: Ace Attorney Trilogy Jan 24, 2024 $49.99N/A (N/A/75%)20,000 .. 50,00033.33%17:47 (05:55)CAPCOM Co., Ltd.CAPCOM Co., Ltd.
20 Insurmountable Apr 29, 2021 $24.99N/A (N/A/74%)50,000 .. 100,0000%00:00 (00:00)ByteRockers' GamesDaedalic Entertainment
21 The Innsmouth Case Jun 23, 2020 $12.49N/A (N/A/73%)20,000 .. 50,0000%00:00 (00:00)RobotPumpkin GamesAssemble Entertainment
22 Gamedec - Definitive Edition Sep 16, 2021 $29.99N/A (N/A/72%)100,000 .. 200,0000%00:00 (00:00)Anshar StudiosAnshar Publishing
23 Vampire: The Masquerade - Coteries of New York Dec 11, 2019 $19.99N/A (N/A/70%)50,000 .. 100,0000%00:00 (00:00)Draw DistancePlug In Digital
24 SIMULACRA 2 Jan 30, 2020 $7.99N/A (N/A/69%)100,000 .. 200,0000%00:00 (00:00)Kaigan GamesNeon Doctrine
25 The Wanderer: Frankenstein’s Creature Oct 30, 2019 $15.99N/A (N/A/69%)0 .. 20,0000%00:00 (00:00)La Belle Games, ARTE FranceARTE France
26 Keylogger: A Sci-Fi Visual Novel Oct 26, 2023 N/AN/A (N/A)20,000 .. 50,0000%00:00 (00:00)Isaac BirchmierIf the clouds are full of rain, they empty themselves upon the earth, LLC
27 Idle Research Jul 31, 2022 FreeN/A (N/A)100,000 .. 200,0000%00:00 (00:00)Considera Games LLCConsidera Core LLC
28 Stay Safe 2020 Dec 7, 2021 FreeN/A (N/A)0 .. 20,0000%00:00 (00:00)Mohamed ShiyamMohamed Shiyam
29 圣歌德嘉的晚钟 Dec 4, 2021 FreeN/A (N/A)100,000 .. 200,0000%00:00 (00:00)二律背反旅人计划
30 Blood of Titans Oct 11, 2021 FreeN/A (N/A)20,000 .. 50,0000%00:00 (00:00)Sugar GamesSugar Games
31 Aspiring Light Aug 5, 2021 FreeN/A (N/A)0 .. 20,0000%00:00 (00:00)DeveloperJyDeveloperJy
32 副作用之瞳-Tlicolity Eyes- Jun 29, 2021 FreeN/A (N/A)50,000 .. 100,0000%00:00 (00:00)IDEA FACTORY, Frontier Works, JoyMoe Interactive Entertainment LimitedJoyMoe Interactive Entertainment Limited
33 Last Message Jun 24, 2021 FreeN/A (N/A)50,000 .. 100,0000%00:00 (00:00)JamesGamesNZJamesGamesNZ
34 幽灵高校(Ghost College) May 28, 2021 FreeN/A (N/A)100,000 .. 200,0000%00:00 (00:00)血色双眸血色双眸
35 cyberpunkdreams May 14, 2021 FreeN/A (N/A)100,000 .. 200,0000%00:00 (00:00)Late Night GamesLate Night Games
36 Pandemic Love Apr 27, 2021 FreeN/A (N/A)20,000 .. 50,0000%00:00 (00:00)Red SkaldRed Skald
37 Your Chronicle Apr 4, 2021 FreeN/A (N/A)200,000 .. 500,0004.76%15:23 (05:07)Samurai GamesSamurai Games
38 Incremental Epic Breakers Mar 17, 2021 FreeN/A (N/A)20,000 .. 50,0000%00:00 (00:00)HapiwakuIdle System, Inc.
39 Silent Earth Mar 5, 2021 FreeN/A (N/A)0 .. 20,0000%00:00 (00:00)Fring Frang GamesFring Frang Games
40 Oakrot - it's literally a book Mar 5, 2021 FreeN/A (N/A)0 .. 20,0000%00:00 (00:00)louis morellouis morel
41 RPG IDLE Mar 3, 2021 N/AN/A (N/A)0 .. 20,0000%00:00 (00:00)KadragonKadragon
42 揭谛/GATE Mar 3, 2021 FreeN/A (N/A)0 .. 20,0000%00:00 (00:00)团购规划局团购规划局
43 修真之路 Feb 6, 2021 FreeN/A (N/A)0 .. 20,0000%00:00 (00:00)游韵游戏网络公司游韵游戏网络公司
44 Hachi Hachi Mystery Jan 19, 2021 FreeN/A (N/A)0 .. 20,0000%00:00 (00:00)Ondori GamesOndori Games
45 Fujiwara Bittersweet Jan 16, 2021 FreeN/A (N/A)50,000 .. 100,0000%00:00 (00:00)MagicBenchVNMagicBenchVN
46 Empire IDLE Jan 16, 2021 N/AN/A (N/A)20,000 .. 50,0000%00:00 (00:00)KadragonKadragon
47 Acolyte: Prologue Jan 10, 2021 FreeN/A (N/A)50,000 .. 100,0000%00:00 (00:00)SuperstringSuperstring
48 Horus IDLE Jan 6, 2021 N/AN/A (N/A)0 .. 20,0000%00:00 (00:00)KadragonKadragon
49 Tales From Yeoldeburg Jan 5, 2021 N/AN/A (N/A)0 .. 20,0000%00:00 (00:00)Magic Dog StudiosMagic Dog Studios
50 Durka Simulator Jan 1, 2021 FreeN/A (N/A)200,000 .. 500,0000%00:00 (00:00)Crucial ExperimentKochurov-Tools
51 Mission IDLE Dec 31, 2020 N/AN/A (N/A)20,000 .. 50,0000%00:00 (00:00)Kadragonkadragon
52 I Want to Fly Dec 24, 2020 FreeN/A (N/A)0 .. 20,0000%00:00 (00:00)RaharabinRaharabin Games
53 Spooky Speakeasy Dec 21, 2020 FreeN/A (N/A)0 .. 20,0000%00:00 (00:00)Open AlphaOpen Alpha
54 Gladiators IDLE Dec 17, 2020 N/AN/A (N/A)0 .. 20,0000%00:00 (00:00)KadragonKadragon
55 Soccer Manager 2021 Dec 16, 2020 FreeN/A (N/A)500,000 .. 1,000,0000%00:00 (00:00)Invincibles Studio LtdInvincibles Studio Ltd
56 These Nights Alone Dec 5, 2020 FreeN/A (N/A)50,000 .. 100,0000%00:00 (00:00)ryArtryArt
57 Interactive Empathy Dec 4, 2020 FreeN/A (N/A)0 .. 20,0000%00:00 (00:00)Animafest Workshop 2019Goethe Institute in Croatia and French Institute in Croatia and Gamechuck
58 The Life and Suffering of Sir Brante — Chapter 1&2 Dec 1, 2020 FreeN/A (N/A)200,000 .. 500,0000%00:00 (00:00)Sever101XP
59 Nevermore - Documentary Kinetic Novel Nov 30, 2020 N/AN/A (N/A)50,000 .. 100,0000%00:00 (00:00)Nikita Kaf Jam ProductionsNikita Kaf Jam Publishing
60 英雄坛说X·归来 Nov 27, 2020 FreeN/A (N/A)20,000 .. 50,0000%00:00 (00:00)成都盟布克科技有限公司成都盟布克科技有限公司
61 Sakura Dimensions Nov 26, 2020 N/AN/A (N/A)0 .. 20,0000%00:00 (00:00)NoneNone
62 Tribal Wars Nov 12, 2020 FreeN/A (N/A)100,000 .. 200,0000%00:00 (00:00)InnoGamesInnoGames
63 BO020880 Nov 4, 2020 FreeN/A (N/A)20,000 .. 50,0000%00:00 (00:00)Italian Party of Indie DeveloperIV Productions
64 Keywords of A Life Nov 2, 2020 N/AN/A (N/A)20,000 .. 50,0000%00:00 (00:00)Fatih MertFatih Mert
65 LA Monsters Oct 31, 2020 FreeN/A (N/A)20,000 .. 50,0000%00:00 (00:00)ben lunatoben lunato
66 Witches x Warlocks Oct 31, 2020 FreeN/A (N/A)50,000 .. 100,0000%00:00 (00:00)Nifty VisualsNifty Productions
67 MVorpheus "Content Organizer" Oct 22, 2020 N/AN/A (N/A)0 .. 20,0000%00:00 (00:00)MVGamesMVStudios
68 PP Puncher Oct 7, 2020 N/AN/A (N/A)50,000 .. 100,0000%00:00 (00:00)brennfeubrennfeu
69 Cooking Companions: Appetizer Edition Oct 6, 2020 FreeN/A (N/A)20,000 .. 50,0000%00:00 (00:00)Deer Dream StudiosDeer Dream Studios
70 Guilt Free Oct 2, 2020 FreeN/A (N/A)20,000 .. 50,0000%00:00 (00:00)Lateral GamesLateral Games
71 安堂的心理咨询室:杯中之心〈ANDOU:Pulse of cup〉 Oct 1, 2020 FreeN/A (N/A)20,000 .. 50,0000%00:00 (00:00)机械神狐教制作组机械神狐教制作组
72 POWER Sep 3, 2020 FreeN/A (N/A)50,000 .. 100,0000%00:00 (00:00)Oppressive GamesOppressive Games
73 Corona Sector Sep 1, 2020 N/AN/A (N/A)20,000 .. 50,0000%00:00 (00:00)iBlackpeniBlackpen
74 Without Romance Aug 31, 2020 FreeN/A (N/A)20,000 .. 50,0000%00:00 (00:00)Moonlit WorksMoonlit Works
75 Incremental Adventures Aug 11, 2020 FreeN/A (N/A)100,000 .. 200,0000%00:00 (00:00)GnillerGniller
76 Obreno: Chapter One Aug 3, 2020 FreeN/A (N/A)100,000 .. 200,0000%00:00 (00:00)Out Of Time InteractiveOut Of Time Interactive
77 曙光之诗 Jul 30, 2020 FreeN/A (N/A)20,000 .. 50,0000%00:00 (00:00)729白起生贺组729白起生贺组
78 ARISEN: Prologue Jul 18, 2020 N/AN/A (N/A)50,000 .. 100,0000%00:00 (00:00)MaratusMaratus
79 be you 2 Jul 18, 2020 FreeN/A (N/A)0 .. 20,0000%00:00 (00:00)louis morellouis morel
80 Jiangshi x Daoshi Jul 16, 2020 FreeN/A (N/A)50,000 .. 100,0000%00:00 (00:00)Dendo DenkidoFruitbat Factory
81 Linda & Joan Prologue: “Four Months Earlier” Jul 14, 2020 FreeN/A (N/A)0 .. 20,0000%00:00 (00:00)False Vacuum GamesFalse Vacuum Games
82 The Horrors at Castle Wülhein Jul 13, 2020 N/AN/A (N/A)50,000 .. 100,0000%00:00 (00:00)Alex RyanAlex Ryan
83 The Peresmeshnik Jul 7, 2020 FreeN/A (N/A)20,000 .. 50,0000%00:00 (00:00)Sean ArnoldSean Arnold
84 The Night Fisherman Jun 29, 2020 FreeN/A (N/A)100,000 .. 200,0000%00:00 (00:00)de Fault, Chard, Richard CampbellFar Few Giants
85 Escape Initiative Jun 12, 2020 FreeN/A (N/A)0 .. 20,0000%00:00 (00:00)Jim BameJim Bame
86 AKER FERN May 31, 2020 FreeN/A (N/A)50,000 .. 100,0000%00:00 (00:00)Chaos Group GamesChaos Group Games
87 Wanderlust: Bangkok Prelude May 28, 2020 FreeN/A (N/A)0 .. 20,0000%00:00 (00:00)Different TalesDifferent Tales
88 Tyrania - A Kinetic Visual Novel May 27, 2020 FreeN/A (N/A)20,000 .. 50,0000%00:00 (00:00)LeviathanimationLeviathanimation
89 Meditation 3 ~ Sophia Code May 27, 2020 N/AN/A (N/A)0 .. 20,0000%00:00 (00:00)Kooly From ParisKooly From Paris
90 Meditation 2 ~ Wisdom and Christian Art May 24, 2020 N/AN/A (N/A)0 .. 20,0000%00:00 (00:00)Kooly From ParisKooly From Paris
91 잭과 콩나무: 숨겨진 이야기 Apr 22, 2020 FreeN/A (N/A)50,000 .. 100,0000%00:00 (00:00)JAB teamJAB team
92 Genius! Mar 18, 2020 FreeN/A (N/A)0 .. 20,0000%00:00 (00:00)Hypoxanthine, ZelHypoxanthine
93 Iveri: The 1.000 Story Mar 14, 2020 N/AN/A (N/A)0 .. 20,0000%00:00 (00:00)Blender Games
94 HumanBloodSandwich Mar 6, 2020 N/AN/A (N/A)20,000 .. 50,0000%00:00 (00:00)AmyBerylAmyBeryl
95 Space Bear Mar 5, 2020 FreeN/A (N/A)20,000 .. 50,0000%00:00 (00:00)Damon SmithSpace Bear Games
96 Mar 3, 2020 N/AN/A (N/A)0 .. 20,0000%00:00 (00:00)orange
97 The Crimson Diamond: Chapter 1 Feb 5, 2020 FreeN/A (N/A)0 .. 20,0000%00:00 (00:00)Julia MinamataJulia Minamata
98 Feb 4, 2020 N/AN/A (N/A)0 .. 20,0000%00:00 (00:00)Extreme Games
99 Log 141 Jan 31, 2020 FreeN/A (N/A)0 .. 20,0000%00:00 (00:00)AwesomeLeakAwesomeLeak
100 PRISON OF SON Jan 30, 2020 FreeN/A (N/A)0 .. 20,0000%00:00 (00:00)Limperopoulos AlfeiosLimperopoulos Alfeios
101 Two Love Jan 25, 2020 FreeN/A (N/A)20,000 .. 50,0000%00:00 (00:00)Reporter ZeroReporter Zero
102 AVROD Jan 5, 2020 FreeN/A (N/A)0 .. 20,0000%00:00 (00:00)AVROD Technologies Inc.AVROD Technologies Inc.
103 Adventure or Normality? Oct 29, 2019 N/AN/A (N/A)0 .. 20,0000%00:00 (00:00)My Way Games
104 Interactive Horror Stories Oct 25, 2019 FreeN/A (N/A)50,000 .. 100,0000%00:00 (00:00)Aslan Game StudioAslan Game Studio
105 The Idle Feb 29, 2024 $11.24N/A (N/A)0 .. 20,0000%00:00 (00:00)iclick gamesiclick games
106 Sakura Isekai Adventure Feb 26, 2024 $7.99N/A (N/A)0 .. 20,0000%00:00 (00:00)Winged CloudWinged Cloud
107 Dark Elf Historia Feb 26, 2024 $7.99N/A (N/A)20,000 .. 50,0000%00:00 (00:00)ONEONE1Shiravune
108 WITHOUT YOU Feb 24, 2024 $4.85N/A (N/A)0 .. 20,0000%00:00 (00:00)Aleksey IzimovVN Devs
109 The 257th Element Feb 23, 2024 $11.19N/A (N/A)0 .. 20,0000%00:00 (00:00)REAL co.LtdREAL co.Ltd
110 The Lands of Hyberian Feb 23, 2024 $0.99N/A (N/A)0 .. 20,0000%00:00 (00:00)SkyWeb Technologies LLCSkyWeb Technologies LLC
111 彼岸之旅 Feb 22, 2024 $3.99N/A (N/A)0 .. 20,0000%00:00 (00:00)EyesEyes
112 アキゾラのメモリーズ─運命の地平線─ Feb 22, 2024 $15.99N/A (N/A)0 .. 20,0000%00:00 (00:00)GALEX SOFTGALEX SOFT
113 Epigraph Feb 19, 2024 $2.99N/A (N/A)0 .. 20,0000%00:00 (00:00)Matthew BrownMatthew Brown
114 Pricolage -IDOLIZED- Feb 19, 2024 $7.99N/A (N/A)20,000 .. 50,0000%00:00 (00:00)HIJIKIAnnulus
115 Hakan's War Manager Feb 17, 2024 $5.99N/A (N/A)0 .. 20,0000%00:00 (00:00)Oba GamesOba Games
116 Sifting Thyme Feb 15, 2024 $9.99N/A (N/A)0 .. 20,0000%00:00 (00:00)Nochi StudiosNochi Studios
117 Telvoikai Feb 14, 2024 $1.99N/A (N/A)0 .. 20,0000%00:00 (00:00)Corvaena Games LLCCorvaena Games LLC
118 I Wani Hug that Gator! Feb 14, 2024 $14.99N/A (N/A)50,000 .. 100,0000%00:00 (00:00)CavemanonCavemanon
119 Uncanny Valley: Machine Feb 13, 2024 $2.99N/A (N/A)0 .. 20,0000%00:00 (00:00)Outcast DevelopersOutcast Developers
120 Quizz Feb 13, 2024 $0.99N/A (N/A)0 .. 20,0000%00:00 (00:00)DreamDeveloper-StudioDreamDeveloper-Studio
121 Alice49 EP.0『ダイヤモンドとシュークリーム』 Feb 12, 2024 $3.99N/A (N/A)0 .. 20,0000%00:00 (00:00)Include0Include0
122 Freak House Feb 10, 2024 $5.99N/A (N/A)0 .. 20,0000%00:00 (00:00)M0R STUDIOM0R STUDIO
123 Star Shift Rebellion Feb 9, 2024 $7.99N/A (N/A)20,000 .. 50,0000%00:00 (00:00)Psychronic Game StudiosPsychronic Games
124 仿 Imitate Feb 7, 2024 $0.99N/A (N/A)0 .. 20,0000%00:00 (00:00)灵虚之幽灵虚之幽
125 Shanghai Summer Feb 7, 2024 $12.99N/A (N/A)20,000 .. 50,0000%00:00 (00:00)FUTU StudioAstrolabe Games
126 对我好点!异世界HelloNewWorld Feb 6, 2024 $4.99N/A (N/A)0 .. 20,0000%00:00 (00:00)EnchanterEnchanter
127 Exotica: Petshop Simulator Feb 6, 2024 $12.99N/A (N/A)0 .. 20,0000%00:00 (00:00)Konrul GameKonrul Game
128 IDLE Animal Anatomy Feb 5, 2024 $13.99N/A (N/A)0 .. 20,0000%00:00 (00:00)AA2G1AA2G1
129 相声模拟器 Feb 4, 2024 $2.99N/A (N/A)20,000 .. 50,0000%00:00 (00:00)Wave EcstacyWave Ecstacy
130 Don't Wake Me Up Feb 1, 2024 $7.99N/A (N/A)0 .. 20,0000%00:00 (00:00)Hosted GamesHosted Games
131 Tidal Therapy Jan 30, 2024 $8.99N/A (N/A)20,000 .. 50,0000%00:00 (00:00)veryOKveryOK
132 Murders on the Yangtze River Jan 30, 2024 $14.99N/A (N/A)100,000 .. 200,00050%05:59 (03:15)OMEGAMES STUDIOOMEGAMES STUDIO
133 Incremental Factory Jan 29, 2024 $8.99N/A (N/A)0 .. 20,0000%00:00 (00:00)Significant SteakSignificant Steak
134 小坂さん。 - Remaster Jan 28, 2024 $1.99N/A (N/A)0 .. 20,0000%00:00 (00:00)斜塔ソンブレロ斜塔ソンブレロ
135 Idle Trillionaire Jan 28, 2024 $4.99N/A (N/A)0 .. 20,0000%00:00 (00:00)The Slanted RoomThe Slanted Room
136 放學後(After school) Jan 27, 2024 $0.99N/A (N/A)20,000 .. 50,0000%00:00 (00:00)DioDio Studio
137 新星辰变 Jan 27, 2024 $7.99N/A (N/A)0 .. 20,0000%00:00 (00:00)三冬游戏工作室三冬游戏工作室
138 The Mask behind the Dream - Kapitel 1 Jan 27, 2024 $8.24N/A (N/A)20,000 .. 50,0000%00:00 (00:00)IdyllsEnd StudiosIdyllsEnd Studios
139 Lagoon Lounge 2 : The Secret Roommate Jan 26, 2024 $13.99N/A (N/A)0 .. 20,0000%00:00 (00:00)KAIJYU-09KAIJYU-09
140 Kagura Genesis: Kuon's Story Jan 25, 2024 $14.99N/A (N/A)0 .. 20,0000%00:00 (00:00)Debonosu WorksShiravune
141 One Fine Tourney Jan 25, 2024 $19.99N/A (N/A)0 .. 20,0000%00:00 (00:00)NvrSkipGameDayNvrSkipGameDay
142 N+1:New life for unemployed youth! Jan 25, 2024 $4.99N/A (N/A)0 .. 20,0000%00:00 (00:00)lijiankunlijiankun
143 隔壁老王的退休生活 Jan 23, 2024 $0.99N/A (N/A)20,000 .. 50,0000%00:00 (00:00)鸡毛社鸡毛社
144 Writer's Rush Jan 22, 2024 $5.99N/A (N/A)0 .. 20,0000%00:00 (00:00)FrogstormFrogstorm
145 TASOKARE HOTEL Re:newal Jan 22, 2024 $35.99N/A (N/A)50,000 .. 100,0000%00:00 (00:00)SEEC Inc.SEEC Inc.
146 Petit Game Collection vol.1 Jan 19, 2024 $7.99N/A (N/A)0 .. 20,0000%00:00 (00:00)WSS playgroundWSS playground
147 Capital Dilemma Jan 19, 2024 $1.99N/A (N/A)0 .. 20,0000%00:00 (00:00)obeceobece
148 锦鱼图 Jan 18, 2024 $9.99N/A (N/A)0 .. 20,0000%00:00 (00:00)GameAHailiyou
149 You Draw, I Guess Jan 18, 2024 $1.99N/A (N/A)0 .. 20,0000%00:00 (00:00)501JOYCapPlay
150 말리온 Jan 18, 2024 $11N/A (N/A)0 .. 20,0000%00:00 (00:00)BepavedARTAME
151 ChildStory Jan 18, 2024 $8N/A (N/A)0 .. 20,0000%00:00 (00:00)Oliver OrangersOliver Orangers
152 No Case Should Remain Unsolved Jan 17, 2024 $6.99N/A (N/A)100,000 .. 200,0000%00:00 (00:00)SomiSomi
153 里山のおと 夏草こみち Jan 17, 2024 $2.99N/A (N/A)0 .. 20,0000%00:00 (00:00)里山のおと里山のおと
154 Home Safety Hotline Jan 16, 2024 $14.99N/A (N/A)200,000 .. 500,00050%00:27 (00:13)Night Signal EntertainmentNight Signal Entertainment
155 New ZhaoYun Jan 15, 2024 $29.99N/A (N/A)20,000 .. 50,0000%00:00 (00:00)xbzyzxbzyz
156 Master Manager Jan 15, 2024 $4.99N/A (N/A)0 .. 20,0000%00:00 (00:00)Hasbeen GamesHasbeen Games
157 MechaJourney Jan 15, 2024 $3.99N/A (N/A)0 .. 20,0000%00:00 (00:00)缓慢的蜗牛缓慢的蜗牛
158 洪荒:我挂机成圣 Jan 14, 2024 $6.99N/A (N/A)20,000 .. 50,0000%00:00 (00:00)老乌贼工作室老乌贼工作室
159 I Think I'm in Love with a Demon Prince Jan 12, 2024 $4.99N/A (N/A)0 .. 20,0000%00:00 (00:00)Jagged Realmslil' baker films
160 united city Jan 12, 2024 $1.99N/A (N/A)0 .. 20,0000%00:00 (00:00)lijiruilijirui
161 Medieval Revenge Jan 11, 2024 $1.49N/A (N/A)0 .. 20,0000%00:00 (00:00)CastleForge GamesCastleForge Games
162 戲假成真 Jan 11, 2024 $1.99N/A (N/A)0 .. 20,0000%00:00 (00:00)菠蘿orange pineapple tea
163 Chat Guess Games Jan 8, 2024 $3.99N/A (N/A)0 .. 20,0000%00:00 (00:00)Lynch Makes GamesLynch Makes Games
164 Real Jan 7, 2024 $3.99N/A (N/A)0 .. 20,0000%00:00 (00:00)Psychodia StudiosPsychodia Studios
165 For the GHOSTs Jan 7, 2024 $7.99N/A (N/A)0 .. 20,0000%00:00 (00:00)GenSanKokuGenSanKoku
166 Sunflower Pie Jan 6, 2024 FreeN/A (N/A)0 .. 20,0000%00:00 (00:00)ThePenSwordThePenSword
167 VARDIA Jan 5, 2024 $4.99N/A (N/A)20,000 .. 50,0000%00:00 (00:00)2Kek Games Bilisim Teknolojileri Anonim Sirketi2Kek Games Bilisim Teknolojileri Anonim Sirketi
168 The Day Before You Gone Jan 5, 2024 $8.99N/A (N/A)0 .. 20,0000%00:00 (00:00)Aequalis StudioAequalis Studio
169 Puppeteer's Curse Jan 4, 2024 $1.99N/A (N/A)20,000 .. 50,0000%00:00 (00:00)dev_lyhdev_lyh
170 The Last 66 Days Dec 31, 2023 $0.99N/A (N/A)0 .. 20,0000%00:00 (00:00)曦冉Next Playground
171 Ghost Road Awakening Dec 31, 2023 $2.59N/A (N/A)0 .. 20,0000%00:00 (00:00)Ghost Road Game StudioLuna Infinity Games
172 Tead Dec 31, 2023 $0.99N/A (N/A)0 .. 20,0000%00:00 (00:00)TeadTead
173 Safe House Dec 29, 2023 $3.99N/A (N/A)0 .. 20,0000%00:00 (00:00)HuangZeXinHuangZeXin
174 Molly the Werezompire Dec 29, 2023 $0.49N/A (N/A)0 .. 20,0000%00:00 (00:00)Zeboyd Digital EntertainmentZeboyd Digital Entertainment
175 Gozenyojinomanimani Dec 28, 2023 $6.99N/A (N/A)0 .. 20,0000%00:00 (00:00)CHARON, すたじおかろんPGN Games
176 Maskonauts: Chat'Attack Dec 28, 2023 $5.99N/A (N/A)100,000 .. 200,0000%00:00 (00:00)quanty banditquanty bandit
177 MOBIUS BAND* Dec 28, 2023 $8.99N/A (N/A)0 .. 20,0000%00:00 (00:00)IrregularsIrregulars
178 Seal World Dec 26, 2023 $4.99N/A (N/A)0 .. 20,0000%00:00 (00:00)SealDevSealDev
179 Don't Melt the Snowman Dec 25, 2023 $2.99N/A (N/A)0 .. 20,0000%00:00 (00:00)Cool StudiosCool Studios
180 小夜怪奇物语 Dec 24, 2023 $2.99N/A (N/A)0 .. 20,0000%00:00 (00:00)漠然旅者漠然旅者
181 Beginning of the Rain Dec 23, 2023 $3.99N/A (N/A)0 .. 20,0000%00:00 (00:00)HOONDAHL Media StudioHOONDAHL Media Studio
182 Don't Text and Drive Dec 21, 2023 $4.99N/A (N/A)0 .. 20,0000%00:00 (00:00)StartUpGamesStartUpGames
183 ONE. Dec 21, 2023 $19.99N/A (N/A)0 .. 20,0000%00:00 (00:00)novamicusShiravune
184 写给妖精的情诗(love poem written for a fairy、妖精への情詩) Dec 20, 2023 $14.99N/A (N/A)0 .. 20,0000%00:00 (00:00)文一村李宁文一村 李宁
185 Lazarus A.D. 2222 Dec 20, 2023 $4.99N/A (N/A)0 .. 20,0000%00:00 (00:00)Sons of Welder, Polyslash, FM Simple Games StudioPolyslash
186 Star Command (1988) Dec 19, 2023 $5.99N/A (N/A)100,000 .. 200,0000%00:00 (00:00)Strategic Simulations, Doug WoodSNEG
187 Bible Trivia Dec 19, 2023 $0.89N/A (N/A)0 .. 20,0000%00:00 (00:00)Astro Game StudioAstro Game Studio
188 Animal Trail ☆ Girlish Square 2 Dec 18, 2023 $14.99N/A (N/A)0 .. 20,0000%00:00 (00:00)WhirlpoolSekai Project
189 Girls Hobby in LOVE Dec 17, 2023 $0.99N/A (N/A)0 .. 20,0000%00:00 (00:00)Hunny Bunny StudioHunny Bunny Studio
190 Good Morning Cruel City Dec 15, 2023 $1.99N/A (N/A)50,000 .. 100,0000%00:00 (00:00)Ethel ChamomileEthel Chamomile
191 My Academy's Special Place Dec 15, 2023 $14.99N/A (N/A)0 .. 20,0000%00:00 (00:00)feng, Sekai ProjectSekai Project
192 maboroshi caravan Dec 14, 2023 $3.99N/A (N/A)0 .. 20,0000%00:00 (00:00)Dear Done DeadDear Done Dead
193 宿主ガードマン - Host Security Guard - Dec 13, 2023 $19.99N/A (N/A)0 .. 20,0000%00:00 (00:00)CyberStep, Inc., Rideon Works Co. Ltd,CyberStep, Inc.
194 Destiny Star Girlfriend Dec 13, 2023 $14.99N/A (N/A)0 .. 20,0000%00:00 (00:00)miraiShiravune
195 Rated Sudoku Dec 11, 2023 $4.99N/A (N/A)0 .. 20,0000%00:00 (00:00)Shajiao GamesShajiao Games
196 Monologue: Winter melancholy Dec 11, 2023 $0.99N/A (N/A)0 .. 20,0000%00:00 (00:00)ProjectKukuevoProjectKukuevo
197 Anon's Neko Waifus Dec 8, 2023 $1.99N/A (N/A)0 .. 20,0000%00:00 (00:00)Lil Hentai GamesLil Hentai Games
198 Fableverse Dec 8, 2023 $2.79N/A (N/A)0 .. 20,0000%00:00 (00:00)King Otter GamesKing Otter Games
199 Lies Under Ice Dec 7, 2023 $5.99N/A (N/A)0 .. 20,0000%00:00 (00:00)Choice of GamesChoice of Games
200 Espresso For The Demon Dec 7, 2023 $7.64N/A (N/A)0 .. 20,0000%00:00 (00:00)VorobushekVorobushek
201 Pixel Fireplace Dec 6, 2023 $3.74N/A (N/A)0 .. 20,0000%00:00 (00:00)HammertailHammertail
202 Square Word: Hello Winter!❄️ Dec 6, 2023 $3.99N/A (N/A)0 .. 20,0000%00:00 (00:00)CCSCCS
203 貢がせろ!女苑ちゃん!! Dec 5, 2023 $6.99N/A (N/A)0 .. 20,0000%00:00 (00:00)ISYISY
204 Arms Race 2 Dec 5, 2023 $19.99N/A (N/A)0 .. 20,0000%00:00 (00:00)Alina DigitalAlina Digital
205 Survival Circle Dec 3, 2023 $4.86N/A (N/A)0 .. 20,0000%00:00 (00:00)한람한람
206 YTP Generator Dec 3, 2023 $4.99N/A (N/A)0 .. 20,0000%00:00 (00:00)MD WadeMD Wade
207 Idle Percent Dec 1, 2023 $4.99N/A (N/A)0 .. 20,0000%00:00 (00:00)Pixel FoxPixel Fox
208 NOTICE Dec 1, 2023 $0.99N/A (N/A)0 .. 20,0000%00:00 (00:00)Jake BerryJake Berry
209 SHAPE Dec 1, 2023 $2.99N/A (N/A)0 .. 20,0000%00:00 (00:00)BrightStdioBrightStdio
210 マーダーミステリーパラドクス このひと夏の十五年 Dec 1, 2023 $19.99N/A (N/A)0 .. 20,0000%00:00 (00:00)213℉Aniplex Inc.
211 Notice Me Leena-senpai! Dec 1, 2023 $9.09N/A (N/A)0 .. 20,0000%00:00 (00:00)Yanako RPGs, GameDevToshYanako RPGs
212 Buzz Cut Simulation Nov 30, 2023 $1.9N/A (N/A)0 .. 20,0000%00:00 (00:00)HyperMoneyGamesHyperMoneyGames
213 The Nascent Necromancer Nov 30, 2023 $5.99N/A (N/A)0 .. 20,0000%00:00 (00:00)Hosted GamesHosted Games
214 Succubus Sessions: Mami Mamiya's Sweet Slice of Hell Nov 30, 2023 $14.99N/A (N/A)0 .. 20,0000%00:00 (00:00)Argonauts, MOONSTONEShiravune
215 A guard walks into a tavern Nov 30, 2023 $7.99N/A (N/A)20,000 .. 50,0000%00:00 (00:00)SuQingSuQing
216 今、私たちの学校は... Nov 29, 2023 $19.99N/A (N/A)0 .. 20,0000%00:00 (00:00)IKINA GAMESG CHOICE / STUDIOARTDINK
217 水箱 Nov 29, 2023 $1.99N/A (N/A)0 .. 20,0000%00:00 (00:00)Sea CheeseSea Cheese
218 All of Us Are Dead... Nov 29, 2023 $19.99N/A (N/A)0 .. 20,0000%00:00 (00:00)IKINAGAMESIKINAGAMES
219 PODCAST VS VIEWER 《主观争霸》&《主播vs观众》 Nov 29, 2023 $1.99N/A (N/A)0 .. 20,0000%00:00 (00:00)Two Thousand and one entertainment studiosTwo Thousand and one entertainment studios
220 Tunnel Adventure Nov 20, 2023 $39.99N/A (N/A)0 .. 20,0000%00:00 (00:00)AtomicAtomic
221 古诗消消大师-Chinese Ancient Poetry Matching Game Nov 19, 2023 $4.99N/A (N/A)0 .. 20,0000%00:00 (00:00)AuroraBearAuroraBear
222 小世界模拟器3 Nov 18, 2023 $5.99N/A (N/A)0 .. 20,0000%00:00 (00:00)文刀山宗文刀山宗
223 Animal Trail ☆ Girlish Square LOVE+PLUS Nov 17, 2023 $4.99N/A (N/A)0 .. 20,0000%00:00 (00:00)WhirlpoolSekai Project
224 Hira Hira Hihiru Nov 16, 2023 $24.99N/A (N/A)0 .. 20,0000%00:00 (00:00)BA-KUANIPLEX.EXE
225 执谕者:坠月之兆(Archenemy: Lunafall) Nov 16, 2023 $7.99N/A (N/A)0 .. 20,0000%00:00 (00:00)OPAL StudioOPAL Studio
226 Zipp's Café Nov 15, 2023 $3.99N/A (N/A)0 .. 20,0000%00:00 (00:00)The Wild GentlemenThe Wild Gentlemen
227 Visual novel for the kids: Lumi And Baby - Hamster And Baby Dragon Nov 14, 2023 $3.99N/A (N/A)0 .. 20,0000%00:00 (00:00)Lassi TantarimäkiLassi Tantarimäki
228 Sybaritic Extravaganza Nov 13, 2023 $10.99N/A (N/A)0 .. 20,0000%00:00 (00:00)MASMrs. Anna Smith
229 In Fair Spirits Nov 10, 2023 $8.99N/A (N/A)0 .. 20,0000%00:00 (00:00)ebi-himeebi-hime
230 Ceiba Nov 10, 2023 $6.99N/A (N/A)20,000 .. 50,0000%00:00 (00:00)Wirion, 7DOTSMoonworks
231 Tome of Fates Nov 10, 2023 $4.99N/A (N/A)0 .. 20,0000%00:00 (00:00)Grey Mount StudioGrey Mount Studio
232 Idle Tick Nov 9, 2023 $2.99N/A (N/A)0 .. 20,0000%00:00 (00:00)Pixel FoxPixel Fox
233 求婚失败了,我还不知道她的名字 Nov 9, 2023 $4.99N/A (N/A)0 .. 20,0000%00:00 (00:00)磷光工作室磷光工作室
234 英雄远征 Nov 9, 2023 $3.99N/A (N/A)0 .. 20,0000%00:00 (00:00)新吴梦游游戏工作室新吴梦游游戏工作室
235 Heads Up! Phones Down Edition Nov 9, 2023 $39.99N/A (N/A)0 .. 20,0000%00:00 (00:00)AspyrAspyr
236 Atlantis Academy Nov 9, 2023 $7.99N/A (N/A)0 .. 20,0000%00:00 (00:00)Choice of GamesChoice of Games
237 Concealed Nov 8, 2023 $12.99N/A (N/A)20,000 .. 50,0000%00:00 (00:00)CASCHA GAMESNeverland Entertainment
238 Franchise Hockey Manager 10 Nov 7, 2023 $39.99N/A (N/A)0 .. 20,0000%00:00 (00:00)Out of the Park Developments, game54 SoftwareOut of the Park Developments
239 Kuroinu 2 Redux Nov 6, 2023 $24.99N/A (N/A)0 .. 20,0000%00:00 (00:00)LiquidShiravune
240 Football Manager 2024 Nov 6, 2023 $59.99N/A (N/A)500,000 .. 1,000,00048%32:26 (44:01)Sports InteractiveSEGA
241 _message: Nov 3, 2023 $0.99N/A (N/A)0 .. 20,0000%00:00 (00:00)TEAM 217PsychoFlux Entertainment
242 One Night: Burlesque Nov 3, 2023 $11.69N/A (N/A)50,000 .. 100,0000%00:00 (00:00)RedDeer.GamesRedDeer.Games
243 Riddle for your Life Nov 3, 2023 $2.99N/A (N/A)0 .. 20,0000%00:00 (00:00)Catpix StudiosCatpix Studios
244 UsoNatsu ~The Summer Romance Bloomed From A Lie~ Nov 3, 2023 $24.99N/A (N/A)0 .. 20,0000%00:00 (00:00)LYCORISSekai Project
245 梦染深秋 Nov 2, 2023 $3.99N/A (N/A)0 .. 20,0000%00:00 (00:00)风铃工作室WindField Games
246 Drakkon World Builder Nov 2, 2023 $2.39N/A (N/A)0 .. 20,0000%00:00 (00:00)Electric Falcon LLCElectric Falcon LLC
247 The Leak Nov 1, 2023 $0.99N/A (N/A)0 .. 20,0000%00:00 (00:00)Fatih MertFatih Mert
248 Gluck Nov 1, 2023 $6.99N/A (N/A)0 .. 20,0000%00:00 (00:00)hayanarihayanari
249 Front Office Football Nine Oct 31, 2023 $34.99N/A (N/A)0 .. 20,0000%00:00 (00:00)Solecismic SoftwareSolecismic Software
250 com__et Oct 31, 2023 $3.99N/A (N/A)0 .. 20,0000%00:00 (00:00)SuperBiasedGarySuperBiasedGary
251 On Air Island : Survival Chat Oct 31, 2023 $11.99N/A (N/A)0 .. 20,0000%00:00 (00:00)StorytacoStorytaco
252 HELL HUNTER - Damned Soul Oct 30, 2023 $6.99N/A (N/A)0 .. 20,0000%00:00 (00:00)Giovanni Debidda (a.k.a. Tenkarider)Associazione Audiogames
253 Tenioha! feat. Mami Oct 29, 2023 $16.99N/A (N/A)0 .. 20,0000%00:00 (00:00)rootnuko+HShiravune
254 Apollyon: River of Life Mar 31, 2021 $14.99N/A (N/A)0 .. 20,0000%00:00 (00:00)theplanardansetheplanardanse
255 PolyCity Stories - The Affair Oct 28, 2023 $4.99N/A (N/A)50,000 .. 100,0000%00:00 (00:00)Andi LiddellAndi Liddell
256 Twofold Oct 27, 2023 $19.99N/A (N/A)0 .. 20,0000%00:00 (00:00)Salty Salty Studios, Studio CoattailsStudio Élan, Studio Elan
257 Taimanin Asagi Oct 26, 2023 $14.99N/A (N/A)0 .. 20,0000%00:00 (00:00)LilithShiravune
258 Before Sunset 日落之前 Oct 26, 2023 $7.99N/A (N/A)0 .. 20,0000%00:00 (00:00)Justus YewJarze Games
259 Square Dungeon 2 Oct 25, 2023 $3.99N/A (N/A)100,000 .. 200,0000%00:00 (00:00)小五BD Games
260 The Three Kingdoms Era in China 2000 years ago Oct 25, 2023 $8.99N/A (N/A)0 .. 20,0000%00:00 (00:00)班超工作室班超工作室
261 Screams from the Past Oct 25, 2023 $4.99N/A (N/A)20,000 .. 50,0000%00:00 (00:00)Dream Pocket StudioDream Pocket Studio
262 REPLAY BOYS Oct 25, 2023 $9.99N/A (N/A)0 .. 20,0000%00:00 (00:00)Split Narrative Inc.Split Narrative Inc.
263 AI Roguelite Oct 25, 2023 $9.99N/A (N/A)100,000 .. 200,0000%00:00 (00:00)Max LohMax Loh
264 This Game is Crap Oct 25, 2023 $0.99N/A (N/A)0 .. 20,0000%00:00 (00:00)Marek SlowigMarek Slowig
265 Enigma Quest Oct 23, 2023 $4.79N/A (N/A)0 .. 20,0000%00:00 (00:00)SGDstudiosSGDstudios
266 The Dreaming City Chronicles: Quest for the Vanished World Oct 21, 2023 $5.99N/A (N/A)0 .. 20,0000%00:00 (00:00)Kashira GamesKashira Games
267 Vampire's Kiss Oct 19, 2023 $5.99N/A (N/A)0 .. 20,0000%00:00 (00:00)Heart's ChoiceHeart's Choice
268 Grave Knight Oct 19, 2023 $4.99N/A (N/A)0 .. 20,0000%00:00 (00:00)Dreamlight GamesDreamlight Games
269 鬼鎮村の危険な因襲 - Dangerous Village Tradition - Oct 18, 2023 $19.99N/A (N/A)0 .. 20,0000%00:00 (00:00)CyberStep, Inc., Rideon Works Co. Ltd,CyberStep, Inc.
270 Sweetcore Brews - an otome game inspired by witchy sitcoms Oct 17, 2023 $14.99N/A (N/A)0 .. 20,0000%00:00 (00:00)Nochi StudiosNochi Studios
271 Porusz Umysł PLUS Oct 17, 2023 $14.99N/A (N/A)0 .. 20,0000%00:00 (00:00)LK AvalonLK Avalon
272 Windy Meadow - A Roadwarden Tale Oct 16, 2023 $9.99N/A (N/A)0 .. 20,0000%00:00 (00:00)Moral Anxiety StudioAssemble Entertainment
273 R is for Rachel Oct 14, 2023 $2.99N/A (N/A)0 .. 20,0000%00:00 (00:00)Bernardo Argencio FernandesBernardo Argencio Fernandes
274 Sclera Oct 13, 2023 $7.99N/A (N/A)0 .. 20,0000%00:00 (00:00)Ryan BocRyan Boc
275 HELL HUNTER - Anti-Nomen Oct 13, 2023 $6.99N/A (N/A)0 .. 20,0000%00:00 (00:00)Giovanni Debidda (a.k.a. Tenkarider)Audiogames Association
276 Escape from Death Oct 12, 2023 $6.99N/A (N/A)20,000 .. 50,0000%00:00 (00:00)Choice of GamesChoice of Games
277 Nope Nope Nope Nope Nurses Oct 12, 2023 $19.99N/A (N/A)0 .. 20,0000%00:00 (00:00)Dark One!Shiravune
278 Fragile Feelings Oct 12, 2023 $10.39N/A (N/A)0 .. 20,0000%00:00 (00:00)ebi-himeebi-hime
279 Unavailed Oct 10, 2023 $4.99N/A (N/A)20,000 .. 50,0000%00:00 (00:00)CoffeeSnailCoffeeSnail
280 Стены Oct 8, 2023 $2N/A (N/A)0 .. 20,0000%00:00 (00:00)Илья Дубровский, Соня ПограничникИлья Дубровский, Соня Пограничник
281 Educational Suite Oct 8, 2023 $0.74N/A (N/A)0 .. 20,0000%00:00 (00:00)Educational SuiteEducational Suite
282 诡雅异俗 Oct 8, 2023 $2.99N/A (N/A)0 .. 20,0000%00:00 (00:00)iGame, iYouiGame, iYou
283 Vogvhathos Oct 6, 2023 $1.99N/A (N/A)0 .. 20,0000%00:00 (00:00)Corvaena Games LLCCorvaena Games LLC
284 Idle Blocks Oct 5, 2023 $4.99N/A (N/A)0 .. 20,0000%00:00 (00:00)Pixel FoxPixel Fox
285 Ghost Simulator Oct 5, 2023 $6.99N/A (N/A)0 .. 20,0000%00:00 (00:00)Hosted GamesHosted Games
286 I doesn't exist - a modern text adventure Oct 5, 2023 $9.09N/A (N/A)0 .. 20,0000%00:00 (00:00)LUAL Games KIGDreadXP
287 The night of erosion (prequel) Oct 4, 2023 $0.99N/A (N/A)0 .. 20,0000%00:00 (00:00)MIN JIYOUNGMILD
288 Garden of Seif: Chronicles of an Assassin Oct 4, 2023 $19.99N/A (N/A)0 .. 20,0000%00:00 (00:00)Foxdrift StudiosFoxdrift Studios
289 Heads Will Roll: Reforged Oct 4, 2023 $14.99N/A (N/A)50,000 .. 100,0000%00:00 (00:00)1917 Studios Valkyrie Initiative
290 In His Time Oct 2, 2023 $9.99N/A (N/A)0 .. 20,0000%00:00 (00:00)Tearyhand studioKodansha
291 You are the Judge! Oct 2, 2023 $17.99N/A (N/A)0 .. 20,0000%00:00 (00:00)Steel GamesSteel Games
292 Tricky Typing Oct 2, 2023 $9.99N/A (N/A)0 .. 20,0000%00:00 (00:00)Pretty Ok GamesPretty Ok Games
293 Queen of Moths Sep 29, 2023 $1.99N/A (N/A)20,000 .. 50,0000%00:00 (00:00)Tesseract GamesTesseract Games
294 廃遊園地のメメントメモリア Sep 28, 2023 $6.99N/A (N/A)0 .. 20,0000%00:00 (00:00)アサノハ製作所アサノハ製作所
295 The Bread Must Rise Sep 28, 2023 $7.99N/A (N/A)0 .. 20,0000%00:00 (00:00)Choice of GamesChoice of Games
296 Vampires' Melody 2 Sep 27, 2023 $3.99N/A (N/A)50,000 .. 100,0000%00:00 (00:00)AsicxArtSakuraGame
297 Plum Blossom Divination Sep 27, 2023 $4.99N/A (N/A)0 .. 20,0000%00:00 (00:00)CSTG-小光CSTG-小光
298 Memories: Millennium Girl Sep 26, 2023 $15.99N/A (N/A)0 .. 20,0000%00:00 (00:00)V SistersV Sisters
299 Civilization Simulator Sep 24, 2023 $2.99N/A (N/A)0 .. 20,0000%00:00 (00:00)AlanAlan
300 Human Multiplayer Game Sep 22, 2023 $2.99N/A (N/A)0 .. 20,0000%00:00 (00:00)EMA, Bad Hand GamesCryogenic Entertainment
301 负罪者:方石 Sep 21, 2023 $13.99N/A (N/A)0 .. 20,0000%00:00 (00:00)方石工作室方石工作室
302 Selfish Cupid - BL Dating Sim Sep 21, 2023 $4.99N/A (N/A)0 .. 20,0000%00:00 (00:00)ChaniMKChaniMK
303 修炼成仙 Sep 20, 2023 $0.99N/A (N/A)20,000 .. 50,0000%00:00 (00:00)LOSTDINGLOSTDING
304 Click Click Click Sep 19, 2023 $1.99N/A (N/A)0 .. 20,0000%00:00 (00:00)Pixel FoxPixel Fox
305 Penrose Sep 19, 2023 $4.99N/A (N/A)0 .. 20,0000%00:00 (00:00)doublespeak gamesdoublespeak games
306 探しものは、夏ですか。 Sep 19, 2023 $11.99N/A (N/A)0 .. 20,0000%00:00 (00:00)studio WandervogelKEMCO
307 长征1934-1936 Sep 17, 2023 FreeN/A (N/A)0 .. 20,0000%00:00 (00:00)黎治豪黎治豪
308 Memory Patches Sep 16, 2023 $0.49N/A (N/A)0 .. 20,0000%00:00 (00:00)Game SunlightSTuNT
309 행불행 : 행복의 시작은 지금부터 리메이크 Sep 16, 2023 $13.99N/A (N/A)0 .. 20,0000%00:00 (00:00)Class HappinessClass Happiness
310 Plinko : Ball Falling 3D-2D Sep 14, 2023 $2.99N/A (N/A)0 .. 20,0000%00:00 (00:00)ALI A.MALI A.M
311 Escape from Norwood Sep 13, 2023 $5.99N/A (N/A)0 .. 20,0000%00:00 (00:00)Singular WorksSingular Works
312 Cerulean Days Sep 12, 2023 $14.99N/A (N/A)0 .. 20,0000%00:00 (00:00)Cascade of LeavesNekoNyan Ltd.
313 Dirty Wars: September 11 Sep 12, 2023 $8.99N/A (N/A)200,000 .. 500,0000%00:00 (00:00)Uglycat Studios, Sudaka GamesUglycat Studios
314 The Keyboard Sep 11, 2023 $1.99N/A (N/A)0 .. 20,0000%00:00 (00:00)T² ProjectT² Project
315 Square Word: Back to Work Sep 11, 2023 $3.99N/A (N/A)20,000 .. 50,0000%00:00 (00:00)CCSCCS
316 The Garden of silvergrass Sep 10, 2023 $17.99N/A (N/A)0 .. 20,0000%00:00 (00:00)Art of TenthArt of Tenth
317 Love Quest VR: Los Angeles Sep 9, 2023 $4.99N/A (N/A)0 .. 20,0000%00:00 (00:00)HAYQ StudiosHAYQ Studios
318 OMNIFATE Sep 8, 2023 $1.5N/A (N/A)50,000 .. 100,0000%00:00 (00:00)koolaLekooliatris Games
319 A Lively Haunt Sep 7, 2023 $9.99N/A (N/A)0 .. 20,0000%00:00 (00:00)Kevin McConnellN/A
320 My Legend of Immortal Cultivation Sep 7, 2023 $4.99N/A (N/A)0 .. 20,0000%00:00 (00:00)倔强牛牛倔强牛牛
321 Path to Knighthood Sep 7, 2023 $6.99N/A (N/A)0 .. 20,0000%00:00 (00:00)Hosted GamesHosted Games
322 碧海潮生怀旧版 Sep 6, 2023 $0.99N/A (N/A)0 .. 20,0000%00:00 (00:00)成都盟布克科技有限公司成都盟布克科技有限公司
323 The Castle Sep 5, 2023 $1.99N/A (N/A)0 .. 20,0000%00:00 (00:00)SankurusuSankurusu
324 Tenebris Pictura Aug 31, 2023 $19.99N/A (N/A)0 .. 20,0000%00:00 (00:00)Pentadimensional Games SLPentadimensional Games SL
325 Dark Lovers - Extended Edition Aug 31, 2023 $1.99N/A (N/A)0 .. 20,0000%00:00 (00:00)Kyuubinx PrototypeKyuubinx Prototype
326 終わりの鐘が鳴る前に Chapter.2 Aug 31, 2023 $8.99N/A (N/A)0 .. 20,0000%00:00 (00:00)Cynical HoneyCynical Honey
327 Myths of Rules Aug 30, 2023 $2.99N/A (N/A)100,000 .. 200,0000%00:00 (00:00)Sugarcane GamesSugarcane Games
328 Meta Sudoku Aug 29, 2023 $1.99N/A (N/A)0 .. 20,0000%00:00 (00:00)Matrix ScienceMatrix Science
329 YinYang Street Ultimate Edition Aug 29, 2023 $8.99N/A (N/A)20,000 .. 50,0000%00:00 (00:00)彼云工作室方块游戏(CubeGame)
330 Last Resort Aug 28, 2023 $2.03N/A (N/A)0 .. 20,0000%00:00 (00:00)Aleksey IzimovAleksey Izimov
331 Astonishing Basketball Manager Aug 28, 2023 $4.99N/A (N/A)20,000 .. 50,0000%00:00 (00:00)Studio Zero Inc., AerilysZero One SAS
332 The Simplest Game in the World Aug 25, 2023 $1.55N/A (N/A)0 .. 20,0000%00:00 (00:00)刻舟 Ke Zhou刻舟 Ke Zhou
333 Forbidden Magic Aug 24, 2023 $4.99N/A (N/A)0 .. 20,0000%00:00 (00:00)Heart's ChoiceHeart's Choice
334 Marauder of Dystopia: The weakest go to the wall Aug 24, 2023 $9.99N/A (N/A)0 .. 20,0000%00:00 (00:00)ONEONE1Shiravune
335 ghostpia Season One Aug 22, 2023 $19.99N/A (N/A)0 .. 20,0000%00:00 (00:00)Chosuido, 超水道room6, yokaze
336 Causal Effect Aug 21, 2023 $3.99N/A (N/A)0 .. 20,0000%00:00 (00:00)shrimp & pickaxe studioshrimp & pickaxe studio
337 Untold Atlas: otome sim inspired by expedition adventures Aug 18, 2023 $14.99N/A (N/A)0 .. 20,0000%00:00 (00:00)Nochi StudiosNochi Studios
338 Кукуево / Kukuevo Aug 18, 2023 $0.6N/A (N/A)0 .. 20,0000%00:00 (00:00)ProjectKukuevoProjectKukuevo
339 Top Villain: Total Domination Aug 17, 2023 $5.99N/A (N/A)0 .. 20,0000%00:00 (00:00)Choice of GamesChoice of Games
340 Art Reborn: Painting Connoisseur Aug 16, 2023 $6.99N/A (N/A)0 .. 20,0000%00:00 (00:00)MuccyGamesMuccyGames
341 Calculator: The Game Aug 11, 2023 $1.99N/A (N/A)0 .. 20,0000%00:00 (00:00)Kurtiswow, Simple MachineKurtiswow
342 Idle Magic Legend Aug 8, 2023 $5.99N/A (N/A)0 .. 20,0000%00:00 (00:00)YamateYamate
343 Jolly Roger Aug 7, 2023 $2.99N/A (N/A)0 .. 20,0000%00:00 (00:00)Ertal GamesErtal Games
344 アパシー学校であった怖い話 Visual Novel Version Aug 7, 2023 $8.99N/A (N/A)0 .. 20,0000%00:00 (00:00)七転び八転がり, SHANNON七転び八転がり
345 Wind Love Aug 5, 2023 $1.79N/A (N/A)0 .. 20,0000%00:00 (00:00)Ai StudioAi Studio
346 Turncoat Chronicle Aug 3, 2023 $5.99N/A (N/A)0 .. 20,0000%00:00 (00:00)Hosted GamesHosted Games
347 Polyglot Language Learning Quiz Aug 3, 2023 $6.99N/A (N/A)0 .. 20,0000%00:00 (00:00)Wholetone GamesWholetone Games
348 Firebird Aug 2, 2023 $11.99N/A (N/A)0 .. 20,0000%00:00 (00:00)Ludogram, FibreTigre, Quentin VijouxLudogram
349 Pet Aug 2, 2023 $3.99N/A (N/A)0 .. 20,0000%00:00 (00:00)beepsoft industriesbeepsoft industries
350 ぼくは人狼になりたい Jul 31, 2023 $4.99N/A (N/A)0 .. 20,0000%00:00 (00:00)uehara createuehara create
351 Pulse of Love Jul 31, 2023 $4.99N/A (N/A)0 .. 20,0000%00:00 (00:00)SweetDreamsSweetDreams
352 Superior IQ Jul 30, 2023 $0.99N/A (N/A)0 .. 20,0000%00:00 (00:00)SzatkowskySzatkowsky
353 Neko Night Jul 29, 2023 $19.99N/A (N/A)0 .. 20,0000%00:00 (00:00)CHAOS-LJAST
354 Civic Story Jul 28, 2023 $14.99N/A (N/A)0 .. 20,0000%00:00 (00:00)Shining Spark Entertainment LtdShining Spark Entertainment Ltd
355 You're My Penguin Jul 28, 2023 $4.99N/A (N/A)0 .. 20,0000%00:00 (00:00)JuneMoon GamesJuneMoon Games
356 Elite Status: Platinum Concierge Jul 27, 2023 $7.99N/A (N/A)0 .. 20,0000%00:00 (00:00)Choice of GamesChoice of Games
357 The Shell Part I: Inferno Jul 27, 2023 $19.99N/A (N/A)20,000 .. 50,0000%00:00 (00:00)Innocent GreyShiravune
358 蒼い夏休み Jul 27, 2023 $4.99N/A (N/A)0 .. 20,0000%00:00 (00:00)Max Neet GamesMax Neet Games
359 Murder At The House Jul 26, 2023 $2.99N/A (N/A)0 .. 20,0000%00:00 (00:00)Connie Acpa.dev
360 Stone Story RPG Jul 26, 2023 $29.99N/A (N/A)0 .. 20,0000%00:00 (00:00)Martian Rex, standardcomboMartian Rex, indienova
361 Office Girls and Games Jul 24, 2023 $2.24N/A (N/A)0 .. 20,0000%00:00 (00:00)hatereallysBRXKENVN
362 Sakura Bunny Girls Jul 24, 2023 $4.99N/A (N/A)0 .. 20,0000%00:00 (00:00)Winged CloudWinged Cloud
363 炸鸡块与天使 Jul 23, 2023 $4.99N/A (N/A)0 .. 20,0000%00:00 (00:00)HamstachioHamstachio
364 メンヘラオタ姫サークル - Needy Princess Nerd Club - Jul 21, 2023 $19.99N/A (N/A)0 .. 20,0000%00:00 (00:00)CyberStep, Inc., Rideon Works Co. Ltd,CyberStep, Inc.
365 Abnormal Status ~Tattoo / Prohibited Books / Parasites~ Jul 20, 2023 $13.99N/A (N/A)0 .. 20,0000%00:00 (00:00)OctopigOTAKU Plan
366 BlazingAngel Mistletear Jul 20, 2023 $15.99N/A (N/A)0 .. 20,0000%00:00 (00:00)mille-feuilleDLsite
367 STONKS-9800: Stock Market Simulator Jul 17, 2023 $9.99N/A (N/A)50,000 .. 100,0000%00:00 (00:00)TERNOXTERNOX
368 辩游记 Jul 17, 2023 $4.99N/A (N/A)0 .. 20,0000%00:00 (00:00)Nice&Simple GamingNice&Simple Gaming
369 Temporian Jul 17, 2023 $9.99N/A (N/A)0 .. 20,0000%00:00 (00:00)ChallAccChallAcc
370 Queen of the Otaku: THERE CAN ONLY BE ONE Jul 17, 2023 $14.99N/A (N/A)0 .. 20,0000%00:00 (00:00)AppetiteShiravune
371 CaveFiction Jul 16, 2023 $5.99N/A (N/A)0 .. 20,0000%00:00 (00:00)jiangli, GooodMonGooodMon
372 Nodes Escape Jul 14, 2023 $1.99N/A (N/A)20,000 .. 50,0000%00:00 (00:00)夜喵, Allen夜喵
373 Heart of mobius Jul 14, 2023 $3.99N/A (N/A)0 .. 20,0000%00:00 (00:00)gunsturn Inc.gunsturn Inc.
374 Abandonware : The Horror Collection Jul 14, 2023 $2.99N/A (N/A)0 .. 20,0000%00:00 (00:00)Fossil GamesHound Picked Games
375 Finish Report Jul 14, 2023 $3.99N/A (N/A)0 .. 20,0000%00:00 (00:00)D4D4
376 Pechka: Historical Story Adventure Jul 13, 2023 $10.49N/A (N/A)0 .. 20,0000%00:00 (00:00)Growing SeedsGrowing Seeds
377 东方梦想终点~Touhou Fantasy destination Jul 11, 2023 $0.99N/A (N/A)0 .. 20,0000%00:00 (00:00)经开经开
378 Heart of Iona Jul 10, 2023 $4.99N/A (N/A)0 .. 20,0000%00:00 (00:00)KeyGamesKeyGames
379 Turn Out the Lights Jul 8, 2023 $5N/A (N/A)0 .. 20,0000%00:00 (00:00)Bijan Stephen, Byron HulcherBijan Stephen
380 Irrational Jul 7, 2023 $2.99N/A (N/A)0 .. 20,0000%00:00 (00:00)M.A. StarlingM.A. Starling
381 Russpuppy Kid Books Jul 6, 2023 $0.74N/A (N/A)0 .. 20,0000%00:00 (00:00)RusspuppyRusspuppy
382 A Dark Room Jul 6, 2023 $6.99N/A (N/A)0 .. 20,0000%00:00 (00:00)Amir RajanScratchwork Development LLC
383 美人姉妹と入れ替わり生活 -Becoming Your Beautiful Cousin- Jul 5, 2023 $19.99N/A (N/A)0 .. 20,0000%00:00 (00:00)CyberStep, Inc., Rideon Works Co. Ltd,CyberStep, Inc.
384 Square Word: Summer Edition☀️ Jul 3, 2023 $3.99N/A (N/A)0 .. 20,0000%00:00 (00:00)CCSCCS
385 Love Shore Jun 30, 2023 $14.99N/A (N/A)50,000 .. 100,0000%00:00 (00:00)Perfect GarbagePerfect Garbage
386 Be King Jun 29, 2023 N/AN/A (N/A)0 .. 20,0000%00:00 (00:00)KadragonKadragon
387 Qwerty Quest Jun 29, 2023 $4.99N/A (N/A)0 .. 20,0000%00:00 (00:00)Shawn KilianShawn Kilian
388 あまあま人妻包囲網 - Stuck With Naughty Housewives - Jun 28, 2023 $19.99N/A (N/A)0 .. 20,0000%00:00 (00:00)CyberStep, Inc., Rideon Works Co. Ltd,CyberStep, Inc.
389 梦蝶 Jun 28, 2023 $5.99N/A (N/A)0 .. 20,0000%00:00 (00:00)炭焱网络East2West Games
390 Idle Ultimate Jun 27, 2023 $9.99N/A (N/A)0 .. 20,0000%00:00 (00:00)PELMENI GAMESPELMENI GAMES
391 Panpu-ja Jun 27, 2023 $0.9N/A (N/A)20,000 .. 50,0000%00:00 (00:00)ToastyBeaToastyBea
392 Magic Potion Stories Jun 26, 2023 $8.99N/A (N/A)0 .. 20,0000%00:00 (00:00)ARTIFACTSARTIFACTS
393 My Little Sister's Special Place Jun 26, 2023 $14.99N/A (N/A)0 .. 20,0000%00:00 (00:00)feng, Sekai ProjectSekai Project
394 With Eyes of Ice Jun 23, 2023 $14.99N/A (N/A)0 .. 20,0000%00:00 (00:00)ebi-himeebi-hime
395 Stars, Stripes, and Subgames Jun 22, 2023 $11.99N/A (N/A)0 .. 20,0000%00:00 (00:00)Tiny Little LionBoomzap Inc
396 I, the Forgotten One Jun 22, 2023 $7.99N/A (N/A)0 .. 20,0000%00:00 (00:00)Hosted GamesHosted Games
397 Yuri Dating Agency Jun 22, 2023 $3.99N/A (N/A)0 .. 20,0000%00:00 (00:00)Sine, xyzenSine
398 My Name is Uncle Groucho You Win a Fat Cigar Jun 22, 2023 $2.99N/A (N/A)0 .. 20,0000%00:00 (00:00)Automata UKPixel Games UK
399 英雄之旅 Jun 20, 2023 $3.99N/A (N/A)0 .. 20,0000%00:00 (00:00)JinwindJinwind
400 Loading Simulator Jun 19, 2023 $1.99N/A (N/A)0 .. 20,0000%00:00 (00:00)GamesforgamesGamesforgames
401 Tasty Love Jun 19, 2023 $15.99N/A (N/A)0 .. 20,0000%00:00 (00:00)Drunken KittenDrunken Kitten
402 Heroes of Book & Paper Jun 18, 2023 $6.99N/A (N/A)0 .. 20,0000%00:00 (00:00)Lagartija SoftwareLagartija Software
403 RoomNo.404 Jun 17, 2023 $2.99N/A (N/A)0 .. 20,0000%00:00 (00:00)腾浊流腾浊流
404 The Ultimate Death Clock Jun 16, 2023 $1.99N/A (N/A)0 .. 20,0000%00:00 (00:00)Apoptosis GamesApoptosis Games
405 Cow Girls 3 Stories Jun 16, 2023 $0.99N/A (N/A)0 .. 20,0000%00:00 (00:00)Chibi ChickHunny Bunny Studio
406 Four Lights : The 1st World [Iruka Route] Jun 15, 2023 $19.99N/A (N/A)0 .. 20,0000%00:00 (00:00)토리에트토리에트
407 Reaper of Immortals Jun 15, 2023 $3.99N/A (N/A)0 .. 20,0000%00:00 (00:00)MounaimMounaim
408 Idle: Generators Jun 14, 2023 $4.99N/A (N/A)0 .. 20,0000%00:00 (00:00)PELMENI GAMESPELMENI GAMES
409 侠客春秋 Jun 12, 2023 $3N/A (N/A)0 .. 20,0000%00:00 (00:00)黑心小作坊黑心小作坊
410 Carnival in the hut Jun 8, 2023 $0.99N/A (N/A)0 .. 20,0000%00:00 (00:00)Game SunlightSTuNT
411 ~ Innocent Stuck-up Girls! ~ 肉食ギャルは清純派!? Jun 7, 2023 $19.99N/A (N/A)0 .. 20,0000%00:00 (00:00)CyberStep, Inc., Rideon Works Co. Ltd,CyberStep, Inc.
412 怪才俱乐部2-The Immortal Beloved2 Jun 5, 2023 $6.99N/A (N/A)0 .. 20,0000%00:00 (00:00)橙光游戏橙光游戏
413 Frosthaven: Official Companion Jun 5, 2023 $7.99N/A (N/A)0 .. 20,0000%00:00 (00:00)Lucky Duck GamesLucky Duck Games
414 VerdantOfWorld:LostWay Jun 4, 2023 $1.59N/A (N/A)0 .. 20,0000%00:00 (00:00)缓慢的蜗牛缓慢的蜗牛
415 VT Harmony Jun 2, 2023 $4.89N/A (N/A)0 .. 20,0000%00:00 (00:00)Yun SevenYun Seven
416 Save The World Jun 1, 2023 $7.99N/A (N/A)20,000 .. 50,0000%00:00 (00:00)Winter WolvesWinter Wolves
417 A Street Cat's Tale 2: Out side is dangerous Jun 1, 2023 $13.99N/A (N/A)0 .. 20,0000%00:00 (00:00)PPIYO STUDIOCFK Co., Ltd.
418 Puzzle Adventures Jun 1, 2023 $3.99N/A (N/A)0 .. 20,0000%00:00 (00:00)NotshiftyNotshifty Productions
419 My Summer Adventure: Memories of Another Life May 30, 2023 $3.99N/A (N/A)0 .. 20,0000%00:00 (00:00)Alkinoy101XP
420 Shop-Like - The Rogue-Like Item Shop Experience May 30, 2023 $7.99N/A (N/A)0 .. 20,0000%00:00 (00:00)Rand.Exe StudiosRand.Exe Studios
421 Tennis Manager 2023 May 25, 2023 $13.99N/A (N/A)0 .. 20,00050%05:20 (05:20)Rebound CGRebound CG
422 Elysium Restaurant May 25, 2023 $16.99N/A (N/A)0 .. 20,0000%00:00 (00:00)Holi every day, QiutaixuHoli every day, Qiutaixu
423 Idle: Multipliers May 25, 2023 $4.99N/A (N/A)0 .. 20,0000%00:00 (00:00)PELMENI GAMESPELMENI GAMES
424 Marlon’s Mystery: The darkside of crime May 24, 2023 $9.99N/A (N/A)20,000 .. 50,0000%00:00 (00:00)Made in MavisMade in Mavis
425 おいでませ、こくりさん - Welcome Kokurisan - May 24, 2023 $24.99N/A (N/A)20,000 .. 50,0000%00:00 (00:00)CyberStep, Inc.Bloomz, Inc.
426 桃の華は鮮血に染まる May 22, 2023 $10.99N/A (N/A)0 .. 20,0000%00:00 (00:00)株式会社ワンコネクト株式会社ワンコネクト
427 Unreal World May 22, 2023 $1.99N/A (N/A)0 .. 20,0000%00:00 (00:00)YuthungYuthung
428 HRO: Adventures of a Humanoid Resources Officer May 21, 2023 $19.99N/A (N/A)0 .. 20,0000%00:00 (00:00)Worthing & MoncrieffWorthing & Moncrieff
429 CAFE 0 ~The Sleeping Beast~ REMASTERED May 19, 2023 $14.99N/A (N/A)0 .. 20,0000%00:00 (00:00)ROSEVERTE MYSTERYROSEVERTE
430 Text Twist Classic May 18, 2023 $0.99N/A (N/A)0 .. 20,0000%00:00 (00:00)Tuga StudiosTuga Studios
431 No Crime May 18, 2023 $6.99N/A (N/A)0 .. 20,0000%00:00 (00:00)豆包工作室豆包工作室
432 Kuroinu Redux May 18, 2023 $19.99N/A (N/A)0 .. 20,0000%00:00 (00:00)LiquidShiravune
433 Eye of Saccharine May 17, 2023 $2.09N/A (N/A)0 .. 20,0000%00:00 (00:00)SasDeRiderBRXKENVN
434 Love Exalt 8372 May 17, 2023 $4.99N/A (N/A)0 .. 20,0000%00:00 (00:00)Team VekiTeam Veki
435 Time Bandit May 16, 2023 $4.99N/A (N/A)0 .. 20,0000%00:00 (00:00)MicroDeal Ltd.Pixel Games UK
436 定時制の人妻JK - Married Girls' Night School - May 15, 2023 $19.99N/A (N/A)0 .. 20,0000%00:00 (00:00)CyberStep, Inc., Rideon Works Co. Ltd,CyberStep, Inc.
437 Band Camp Boyfriend May 11, 2023 $15.99N/A (N/A)0 .. 20,0000%00:00 (00:00)Lovebird Game StudiosLovebird Game Studios
438 Borefest May 11, 2023 FreeN/A (N/A)0 .. 20,0000%00:00 (00:00)CyberwasteEnchanted Workshop
439 Idle ShowOff May 9, 2023 $1.99N/A (N/A)0 .. 20,0000%00:00 (00:00)LionCatLionCat
440 My monstrous roommate. (étude) May 9, 2023 $0.77N/A (N/A)20,000 .. 50,0000%00:00 (00:00)SpoocleMacBoogleSpoocleMacBoogle
441 狂信ちゃん May 8, 2023 $0.99N/A (N/A)0 .. 20,0000%00:00 (00:00)アルティネットアルティネット
442 Open Spaces SE May 4, 2023 $8.99N/A (N/A)0 .. 20,0000%00:00 (00:00)Queenship Game StudioQueenship Game Studio, LLC
443 Unnatural Season Two May 4, 2023 $8.99N/A (N/A)0 .. 20,0000%00:00 (00:00)Hosted GamesHosted Games
444 NeuroNet: Mendax Proxy May 4, 2023 $19.99N/A (N/A)20,000 .. 50,0000%00:00 (00:00)Dream HarvestDream Harvest
445 Coffee Dates May 2, 2023 $0.99N/A (N/A)0 .. 20,0000%00:00 (00:00)James OlksJames Olks
446 We. The Refugees: Ticket to Europe May 1, 2023 $14.99N/A (N/A)20,000 .. 50,0000%00:00 (00:00)Act ZeroAct Zero
447 StafferCase: a psychic mystery adventure Apr 30, 2023 $11.99N/A (N/A)50,000 .. 100,0000%00:00 (00:00)Team TetrapodTeam Tetrapod
448 Grim Tides - Old School RPG Apr 29, 2023 $5.99N/A (N/A)0 .. 20,0000%00:00 (00:00)MonomythMonomyth
449 ELEGIES: Aya Apr 28, 2023 $17.99N/A (N/A)0 .. 20,0000%00:00 (00:00)Dream SquircleDream Squircle
450 Don't Take It Personally, I Just Don't Like You Apr 28, 2023 $19.99N/A (N/A)0 .. 20,0000%00:00 (00:00)Christian DeCosterChristian DeCoster
451 アパシー学校であった怖い話1995特別編 Apr 28, 2023 $29.99N/A (N/A)0 .. 20,0000%00:00 (00:00)七転び八転がり, SHANNON七転び八転がり
452 Mystery in the Office Apr 26, 2023 $1.99N/A (N/A)0 .. 20,0000%00:00 (00:00)314 Bytes314 Bytes
453 CATEGORY CHALLENGE Apr 25, 2023 $4.99N/A (N/A)0 .. 20,0000%00:00 (00:00)wxmwxm
454 Hypno-Mart Apr 24, 2023 $14.99N/A (N/A)0 .. 20,0000%00:00 (00:00)AppetiteShiravune
455 Every Summer Holiday - BL (Boys Love) Visual Novel Apr 21, 2023 $5.99N/A (N/A)0 .. 20,0000%00:00 (00:00)ChaniMKChaniMK
456 Fort Valen Apr 21, 2023 $5.99N/A (N/A)0 .. 20,0000%00:00 (00:00)Tallewellyn Comics, Daisy DrawsTallewellyn Comics
457 KIRO II: The Wizards Guild Apr 21, 2023 $2.99N/A (N/A)0 .. 20,0000%00:00 (00:00)BlekohBlekoh
458 Blood Moon Apr 20, 2023 $7.99N/A (N/A)0 .. 20,0000%00:00 (00:00)Hosted GamesHosted Games
459 Forsaken Woods Apr 20, 2023 $2.99N/A (N/A)0 .. 20,0000%00:00 (00:00)Reve GamesReve Games
460 孟德大小姐与自爆少年THREE KINGDOM FANTASY Apr 19, 2023 $7.99N/A (N/A)20,000 .. 50,0000%00:00 (00:00)蓝铂工作室旅人计划
461 最后的送别 Apr 19, 2023 $2.99N/A (N/A)20,000 .. 50,0000%00:00 (00:00)魁塔工作室, 不语游戏设计工作室河南火马文化传媒有限公司
462 What Is Sleeping In My Room? Apr 17, 2023 $2.99N/A (N/A)0 .. 20,0000%00:00 (00:00)CousinCatnipCousinCatnip
463 Bride Of Darkness Apr 12, 2023 $5.99N/A (N/A)0 .. 20,0000%00:00 (00:00)VorobushekVorobushek
464 Simple Multipliers Apr 12, 2023 $2.99N/A (N/A)0 .. 20,0000%00:00 (00:00)PELMENI GAMESPELMENI GAMES
465 Lightracer Spark Apr 12, 2023 $12.99N/A (N/A)50,000 .. 100,0000%00:00 (00:00)Smartmelon GamesSmartmelon Games
466 Fateful Mages Apr 10, 2023 $1.19N/A (N/A)0 .. 20,0000%00:00 (00:00)spunsprungspunsprung
467 inziva Apr 10, 2023 N/AN/A (N/A)0 .. 20,0000%00:00 (00:00)Yusuf GoksenYusuf Goksen
468 Greymarsh Apr 7, 2023 $2.99N/A (N/A)0 .. 20,0000%00:00 (00:00)Nimavoha InteractiveNimavoha Interactive
469 Adventures of Skye the Slime Maid Apr 7, 2023 $7.99N/A (N/A)0 .. 20,0000%00:00 (00:00)Bus Arrows StudiosBus Arrows Studios
470 Chief Emoji Officer Apr 7, 2023 $2.99N/A (N/A)0 .. 20,0000%00:00 (00:00)BodevilleBodeville
471 Wayhaven Chronicles: Book Three Apr 6, 2023 $11.99N/A (N/A)0 .. 20,0000%00:00 (00:00)Hosted GamesHosted Games
472 挂机神话 Apr 6, 2023 $1.99N/A (N/A)200,000 .. 500,0000%00:00 (00:00)摸鱼猫工作室摸鱼猫工作室
473 Gender Dysphoria Apr 6, 2023 $3N/A (N/A)0 .. 20,0000%00:00 (00:00)exodrifterexodrifter
474 MINDHACK Apr 5, 2023 $12.99N/A (N/A)0 .. 20,0000%00:00 (00:00)VODKAdemo?VODKAdemo?, room6, yokaze
475 The Aching Apr 5, 2023 $9.99N/A (N/A)0 .. 20,0000%00:00 (00:00)Hadrosaurus SoftwareHadrosaurus Software
476 Hard to make a romantic cartoon! Apr 5, 2023 $24.99N/A (N/A)0 .. 20,0000%00:00 (00:00)IndigoAK Communications
477 The Wolf of Derevnya Apr 4, 2023 $4.49N/A (N/A)0 .. 20,0000%00:00 (00:00)Nightwell GamesNightwell Games
478 Crosswalks Mar 31, 2023 $1.99N/A (N/A)20,000 .. 50,0000%00:00 (00:00)XinPo GameXinPo Game
479 The Dawn is Inevitable Mar 31, 2023 $5.24N/A (N/A)50,000 .. 100,0000%00:00 (00:00)Last SpringLast Spring
480 ROGUE-FP Mar 30, 2023 $4.99N/A (N/A)0 .. 20,0000%00:00 (00:00)Jurax GamesJurax Games
481 Royal Affairs Mar 30, 2023 $7.99N/A (N/A)0 .. 20,0000%00:00 (00:00)Choice of GamesChoice of Games
482 Idle Simple RPG Mar 29, 2023 $4.99N/A (N/A)0 .. 20,0000%00:00 (00:00)okyakusamaokyakusama
483 Summer Daze: Tilly's Tale Mar 28, 2023 $19.99N/A (N/A)0 .. 20,0000%00:00 (00:00)Transolar GamesTransolar Games
484 Faraway Proximity Mar 28, 2023 $9.99N/A (N/A)0 .. 20,0000%00:00 (00:00)Studio CloudScapeStudio CloudScape
485 Age of Gladiators Reforged Mar 27, 2023 $7.99N/A (N/A)0 .. 20,0000%00:00 (00:00)Creative Storm EntertainmentCreative Storm Entertainment
486 Architecture Zeitgeist Mar 27, 2023 $9.99N/A (N/A)0 .. 20,0000%00:00 (00:00)Matheus RudoRudo Studios
487 Moonflower Mar 25, 2023 $12.99N/A (N/A)0 .. 20,0000%00:00 (00:00)Cats on a Lilypad StudiosCats on a Lilypad Studios
488 Tide Girl: Phenomena Mar 24, 2023 $2.99N/A (N/A)0 .. 20,0000%00:00 (00:00)momolunamomoluna
489 FAKE HEART Mar 24, 2023 $11.99N/A (N/A)0 .. 20,0000%00:00 (00:00)BLANBEEBLANBEE
490 Misericorde: Volume One Mar 23, 2023 $8.99N/A (N/A)0 .. 20,0000%00:00 (00:00)XEECEEXEECEE
491 龙栖 Mar 23, 2023 $6.99N/A (N/A)0 .. 20,0000%00:00 (00:00)鲛人文化工作室鲛人文化工作室
492 我在终点线等你 Mar 23, 2023 $6.99N/A (N/A)20,000 .. 50,0000%00:00 (00:00)DreaMoryDreaMory
493 Bloodshell: Conviction Mar 23, 2023 $4.99N/A (N/A)20,000 .. 50,0000%00:00 (00:00)YuumiYuumi
494 Magic Research Mar 22, 2023 $4.99N/A (N/A)20,000 .. 50,0000%00:00 (00:00)MaticolottoMaticolotto
495 The Die Is Cast Mar 22, 2023 $4.99N/A (N/A)0 .. 20,0000%00:00 (00:00)OdysséeOdyssée
496 pWordle Mar 21, 2023 $2.99N/A (N/A)0 .. 20,0000%00:00 (00:00)HawkX GamesHawkX Games
497 No:Worse Mar 16, 2023 $2.09N/A (N/A)20,000 .. 50,0000%00:00 (00:00)Aleksey IzimovAleksey Izimov
498 League Manager 2023 Mar 15, 2023 $14.99N/A (N/A)0 .. 20,0000%00:00 (00:00)AG SOFTAG SOFT
499 Stars Arisen Mar 15, 2023 $11.99N/A (N/A)0 .. 20,0000%00:00 (00:00)Choice of GamesChoice of Games
500 Slobbish Dragon Princess 3 Mar 14, 2023 $14.99N/A (N/A)0 .. 20,0000%00:00 (00:00)WhirlpoolSekai Project
501 DELETE AFTER READING Mar 14, 2023 $4.99N/A (N/A)20,000 .. 50,0000%00:00 (00:00)PATRONES & ESCONDITES, TLR GamesPATRONES & ESCONDITES
502 My Girlfriend’s Special Place Mar 13, 2023 $14.99N/A (N/A)0 .. 20,0000%00:00 (00:00)feng, Sekai ProjectSekai Project
503 Unluckily in Love Mar 13, 2023 $10.99N/A (N/A)0 .. 20,0000%00:00 (00:00)ebi-himeebi-hime
504 Helmetman Mar 12, 2023 $9.99N/A (N/A)0 .. 20,0000%00:00 (00:00)GoniNmimi GamesGoniNmimi Games
505 HOPE LEFT ME Mar 10, 2023 $1.99N/A (N/A)20,000 .. 50,0000%00:00 (00:00)Astrophysics.orphans
506 Australian Football Coach 2023 Mar 9, 2023 $19.99N/A (N/A)0 .. 20,0000%00:00 (00:00)Statto SoftwareStatto Software
507 告死天使复仇之夜 Death Angel Nightmare Mar 8, 2023 $0.99N/A (N/A)20,000 .. 50,0000%00:00 (00:00)我妻寒十冷笑黑妖
508 PARANORMASIGHT: The Seven Mysteries of Honjo Mar 8, 2023 $19.99N/A (N/A)100,000 .. 200,0000%00:00 (00:00)Square EnixSquare Enix
509 Guardians of Infinity: To Save Kennedy Nov 1, 1988 $6.99N/A (N/A)0 .. 20,0000%00:00 (00:00)Paragon SoftwareZiggurat
510 Lords of Infinity Mar 2, 2023 $11.99N/A (N/A)0 .. 20,0000%00:00 (00:00)Hosted GamesHosted Games
511 Sokfest Mar 1, 2023 $4.99N/A (N/A)0 .. 20,0000%00:00 (00:00)Sokpop CollectiveSokpop Collective
512 It's Hasegawa-san!? Feb 28, 2023 $1.99N/A (N/A)0 .. 20,0000%00:00 (00:00)Mk-IIMk-II
513 Basements n' Basilisks: Storms of Sorcery Feb 27, 2023 $2.99N/A (N/A)0 .. 20,0000%00:00 (00:00)eNVy softworkseNVy softworks
514 I Am Your President Feb 27, 2023 $10.49N/A (N/A)20,000 .. 50,0000%00:00 (00:00)President StudioPresident Studio, PlayWay S.A.
515 Reincarnation : Hero of the Gun Feb 26, 2023 $0.99N/A (N/A)0 .. 20,0000%00:00 (00:00)六轮鸭SixLonDuck六轮鸭SixLonDuck
516 魔塔少女/Magic Tower & Maidens Feb 26, 2023 N/AN/A (N/A)0 .. 20,0000%00:00 (00:00)The Magic Tower Girl StudioThe Magic Tower Girl Studio
517 q.u.q. Feb 26, 2023 $1.99N/A (N/A)20,000 .. 50,0000%00:00 (00:00)motijanNikita Kryukov
518 Video Game Trivia Feb 24, 2023 $0.99N/A (N/A)0 .. 20,0000%00:00 (00:00)LoadUpGames.comLoadUpGames.com
519 海伦的神迹 Feb 23, 2023 $9.99N/A (N/A)0 .. 20,0000%00:00 (00:00)橙光游戏橙光游戏
520 Remembering/Not remembering Sin Feb 23, 2023 $3.99N/A (N/A)0 .. 20,0000%00:00 (00:00)uehara createuehara create
521 Saint Maker - Horror Visual Novel Feb 22, 2023 $4.19N/A (N/A)0 .. 20,0000%00:00 (00:00)Yangyang MobileYangyang Mobile
522 Fight in the Arena by Daniel da Silva Feb 20, 2023 $1.99N/A (N/A)0 .. 20,0000%00:00 (00:00)Daniel da SilvaSmokeSomeFrogs
523 Sudoku Vacation 2 Feb 16, 2023 $6.99N/A (N/A)0 .. 20,0000%00:00 (00:00)Seven Sails GamesSeven Sails Games
524 Gomorrah Feb 16, 2023 $2.99N/A (N/A)100,000 .. 200,0000%00:00 (00:00)Sandbox34BigThings
525 The Tales of Bayun Feb 15, 2023 $6.99N/A (N/A)0 .. 20,0000%00:00 (00:00)FlyinDogsFlyinDogs, East2West Games
526 I WILL BE THERE Feb 14, 2023 $5.99N/A (N/A)0 .. 20,0000%00:00 (00:00)Tayfun TunaTayfun Tuna
527 See You Later Feb 14, 2023 $1.99N/A (N/A)0 .. 20,0000%00:00 (00:00)琉璃花糖制作组, Garakowa Marshmallow琉璃花糖制作组, Garakowa Marshmallow
528 アパシー学校であった怖い話 極 Feb 14, 2023 $44.99N/A (N/A)0 .. 20,0000%00:00 (00:00)七転び八転がり, SHANNON七転び八転がり, SHANNON
529 The Farmer Was Replaced Feb 10, 2023 $6.99N/A (N/A)0 .. 20,0000%00:00 (00:00)Timon HerzogTimon Herzog
530 BETA-SIXDOUZE Feb 9, 2023 $19.99N/A (N/A)0 .. 20,0000%00:00 (00:00)Liar-softShiravune
531 Changeling Charade Feb 9, 2023 $7.99N/A (N/A)20,000 .. 50,0000%00:00 (00:00)Heart's ChoiceHeart's Choice
532 Otome Legends Feb 8, 2023 $7.99N/A (N/A)0 .. 20,0000%00:00 (00:00)Jagaimo Studios, Chi21Jagaimo Studios
533 一个人的木偶剧 Feb 7, 2023 $1.99N/A (N/A)0 .. 20,0000%00:00 (00:00)DreamWorldDreamWorld
534 The Fairy's Secret Feb 6, 2023 $11.99N/A (N/A)0 .. 20,0000%00:00 (00:00)ebi-himeebi-hime
535 Glass Heart Feb 3, 2023 $19.99N/A (N/A)0 .. 20,0000%00:00 (00:00)Eternal Love Studios, LLC.Eternal Love Studios, LLC.
536 Fallen Bride Mege Feb 3, 2023 $14.99N/A (N/A)20,000 .. 50,0000%00:00 (00:00)Wolf holidayOTAKU Plan
537 Karakuru Feb 2, 2023 $1.99N/A (N/A)0 .. 20,0000%00:00 (00:00)MERGEN GAMESMERGEN GAMES
538 Fallen Hero: Retribution Feb 2, 2023 $11.99N/A (N/A)0 .. 20,0000%00:00 (00:00)Hosted GamesHosted Games
539 The Thing from Nowhere Feb 1, 2023 $1.99N/A (N/A)0 .. 20,0000%00:00 (00:00)Equanimity StudiosEquanimity Studios
540 The 2nd page of the medical examination diary: Another story of exciting days of me and my senpai Feb 1, 2023 $11.99N/A (N/A)0 .. 20,0000%00:00 (00:00)iMeliMel
541 ROGLE Jan 31, 2023 $4.99N/A (N/A)0 .. 20,0000%00:00 (00:00)F.L.O.G.F.L.O.G.
542 StarStruck Jan 31, 2023 $11.99N/A (N/A)0 .. 20,0000%00:00 (00:00)StrawberrytailStrawberrytail
543 建造师模拟器 Constructor simulator Jan 30, 2023 $4.99N/A (N/A)0 .. 20,0000%00:00 (00:00)钱不够工作室WANGMINGLI
544 BREU: Shadow Hunt Jan 27, 2023 $12.99N/A (N/A)0 .. 20,0000%00:00 (00:00)Team ZerothTeam Zeroth
545 Learn Japanese Jan 27, 2023 $24.99N/A (N/A)0 .. 20,0000%00:00 (00:00)Japanese GamesJapanese Games
546 Haunting of the Evil Spirit Jan 26, 2023 $5.99N/A (N/A)0 .. 20,0000%00:00 (00:00)Amin AdukovAmin Adukov
547 New Witch in Town Jan 26, 2023 $8.99N/A (N/A)0 .. 20,0000%00:00 (00:00)Choice of GamesChoice of Games
548 草食系男子の言いなり入院生活- A passive boy at the Huntress clinic - Jan 26, 2023 $19.99N/A (N/A)0 .. 20,0000%00:00 (00:00)CyberStep, Inc., Rideon Works Co. Ltd,CyberStep, Inc.
549 A Maiden Astrologer Divines the Future Jan 25, 2023 $11.99N/A (N/A)0 .. 20,0000%00:00 (00:00)Rosetta, iMeliMel
550 Menhera Girls Ensemble - Needy Girlfriends - Jan 24, 2023 $19.99N/A (N/A)0 .. 20,0000%00:00 (00:00)CyberStep, Inc., Rideon Works Co. Ltd,CyberStep, Inc.
551 The Hidden and Unknown Jan 23, 2023 N/AN/A (N/A)0 .. 20,0000%00:00 (00:00)ProXProX
552 Aunewyth Jan 20, 2023 $2.99N/A (N/A)50,000 .. 100,0000%00:00 (00:00)Captain CoolCaptain Cool
553 BBirthday - Visual Novel Jan 20, 2023 $6.99N/A (N/A)0 .. 20,0000%00:00 (00:00)Yun SevenYun Seven
554 FORTUNE the FATED Jan 19, 2023 $4.99N/A (N/A)0 .. 20,0000%00:00 (00:00)Hosted GamesHosted Games
555 God Busters : Who watches the watchers? Jan 19, 2023 $4.99N/A (N/A)0 .. 20,0000%00:00 (00:00)Wander_RabbitsWander_Rabbits
556 错误之事 Jan 19, 2023 $3.99N/A (N/A)20,000 .. 50,0000%00:00 (00:00)Coffee StudioCoffee Studio
557 A Matter of Principle Jan 19, 2023 $3.99N/A (N/A)0 .. 20,0000%00:00 (00:00)DillyFrameDillyFrame
558 幻境咖啡馆-Dreamland coffee Jan 17, 2023 $6.99N/A (N/A)0 .. 20,0000%00:00 (00:00)橙光游戏橙光游戏
559 For Your Tranquility Jan 15, 2023 $10.99N/A (N/A)0 .. 20,0000%00:00 (00:00)Gamesung GamesGamesung Games
560 Strange Aeons Jan 13, 2023 $8.99N/A (N/A)50,000 .. 100,0000%00:00 (00:00)Karolis DikciusKarolis Dikcius
561 BACCHANALIA Jan 11, 2023 N/AN/A (N/A)0 .. 20,0000%00:00 (00:00)听舟网络OKJOY
562 Glyph Guesser Jan 11, 2023 $0.99N/A (N/A)0 .. 20,0000%00:00 (00:00)Paul SpoonerTryop
563 The Sword That Kills Christmas Jan 9, 2023 $7.11N/A (N/A)0 .. 20,0000%00:00 (00:00)RubDoff GamesRubDoff Games
564 Coralina Jan 6, 2023 $1.99N/A (N/A)20,000 .. 50,0000%00:00 (00:00)Gabriel MakiZNT Productions
565 The Fernweh Saga: Book One Jan 5, 2023 $7.99N/A (N/A)0 .. 20,0000%00:00 (00:00)Hosted GamesHosted Games
566 タイピングで愛を伝えよ Jan 5, 2023 $1.99N/A (N/A)0 .. 20,0000%00:00 (00:00)INORK GameINORK Game
567 国产手机帝国-Mobile phone empire Jan 5, 2023 $3.99N/A (N/A)0 .. 20,0000%00:00 (00:00)文字TV, 文字TV文字模拟游戏TV
568 Beneath Her Starry Sky Jan 4, 2023 $7.49N/A (N/A)20,000 .. 50,0000%00:00 (00:00)Sylphsong, Inc.Sylphsong, Inc.
569 《奇门遁甲》 Jan 1, 2023 $2.99N/A (N/A)0 .. 20,0000%00:00 (00:00)CSTG-小光CSTG-小光
570 여동생 ♡ 만들기 : 당신이 바라는 소녀의 모습 - Teen version Dec 31, 2022 $1.59N/A (N/A)0 .. 20,0000%00:00 (00:00)C's earthC's earth
571 The Apple Tree Dec 30, 2022 $13.99N/A (N/A)0 .. 20,0000%00:00 (00:00)Remnants of mosaicRemnants of mosaic
572 AutoSim 2 Dec 30, 2022 $9.99N/A (N/A)0 .. 20,0000%00:00 (00:00)JoeTowNetwork, Sevag HJoeTowNetwork
573 Fairy Deer Dec 29, 2022 $1.99N/A (N/A)0 .. 20,0000%00:00 (00:00)Expedition GamesExpedition Games
574 游戏策划面试模拟器 Dec 29, 2022 $1.99N/A (N/A)0 .. 20,0000%00:00 (00:00)小W的游戏开发互助组小W的游戏开发互助组
575 As Long As It's Not Illegal: Act I Dec 29, 2022 $7.99N/A (N/A)0 .. 20,0000%00:00 (00:00)MoonCausticsMoonCaustics
576 The Passenger Dec 29, 2022 $6.99N/A (N/A)0 .. 20,0000%00:00 (00:00)Hosted GamesHosted Games
577 Testimonies Dec 26, 2022 N/AN/A (N/A)0 .. 20,0000%00:00 (00:00)NorthbrainNorthbrain
578 小厨杂记 Dec 23, 2022 $2.99N/A (N/A)0 .. 20,0000%00:00 (00:00)山石山石
579 Didactic Jesus Game Dec 23, 2022 FreeN/A (N/A)0 .. 20,0000%00:00 (00:00)Joan Sabé MartínezJoan Sabé Martínez
580 Wrestling Manager 2023 Dec 22, 2022 $2.49N/A (N/A)0 .. 20,0000%00:00 (00:00)Undisputed GamesUndisputed Games
581 Tyler Tactics Dec 22, 2022 $0.99N/A (N/A)0 .. 20,0000%00:00 (00:00)Bomb Sequitur GamesBomb Sequitur Games
582 SCP - The Sentient Box Dec 22, 2022 $10.99N/A (N/A)0 .. 20,0000%00:00 (00:00)Hybriona Technologies LLPHybriona Technologies LLP
583 Cloudy Days Dec 22, 2022 $6.99N/A (N/A)0 .. 20,0000%00:00 (00:00)OvercastOvercast
584 Turret Girl Dec 22, 2022 $6.99N/A (N/A)50,000 .. 100,0000%00:00 (00:00)OkaeriDevOkaeriDev
585 《乱步馆》-断崖 -Precipice Dec 21, 2022 $0.99N/A (N/A)50,000 .. 100,0000%00:00 (00:00)多年以后的卡米拉多年以后的卡米拉
586 Warsim: The Realm of Aslona Dec 20, 2022 $9.99N/A (N/A)50,000 .. 100,0000%00:00 (00:00)Huw MillwardHuw Millward
587 Sakura Gym Girls Dec 19, 2022 $3.99N/A (N/A)0 .. 20,0000%00:00 (00:00)Winged CloudWinged Cloud
588 Spring Puzzle Dec 19, 2022 $0.99N/A (N/A)0 .. 20,0000%00:00 (00:00)CC WorksCC Works
589 CaseCracker Dec 19, 2022 $9.99N/A (N/A)100,000 .. 200,0000%00:00 (00:00)BlackRobeIndieArk
590 The Neverland of the Mountain and Sea Dec 18, 2022 $9.99N/A (N/A)0 .. 20,0000%00:00 (00:00)Magenta FactoryMagenta Factory
591 Crystal Winter Dec 17, 2022 $1.19N/A (N/A)100,000 .. 200,0000%00:00 (00:00)Izimov A.Izimov A.
592 汉字大冒险 Dec 17, 2022 $6.99N/A (N/A)0 .. 20,0000%00:00 (00:00)InsVolcStudioInsVolcStudio
593 江湖百异图 Dec 16, 2022 $13.99N/A (N/A)20,000 .. 50,0000%00:00 (00:00)恒睿游戏恒睿游戏
594 Insomnia: Theater in the Head Dec 15, 2022 $2.49N/A (N/A)100,000 .. 200,0000%00:00 (00:00)Perfect Day StudioPerfect Day Studio
595 私のリアルは充実しすぎている フルボイス版 Dec 15, 2022 $9.99N/A (N/A)100,000 .. 200,0000%00:00 (00:00)TetraScopeHotchPotch K.K., 346lab Localization
596 Choice of the Viking Dec 15, 2022 $7.99N/A (N/A)0 .. 20,0000%00:00 (00:00)Choice of GamesChoice of Games
597 Nightmare knock Dec 14, 2022 FreeN/A (N/A)0 .. 20,0000%00:00 (00:00)FreezyCatFreezyCat
598 Scary pictures: Yavez - seven deadly sins Dec 14, 2022 $1.39N/A (N/A)20,000 .. 50,0000%00:00 (00:00)DeilRoXEntertainmentDeilRoXEntertainment
599 Wrapped With a Kiss Dec 12, 2022 $4.99N/A (N/A)0 .. 20,0000%00:00 (00:00)LegendEx GamesLegendEx Games
600 Football Coach: College Dynasty Dec 11, 2022 $14.99N/A (N/A)20,000 .. 50,0000%00:00 (00:00)Coach AppsCoach Apps
601 First Snow Dec 9, 2022 $9.99N/A (N/A)0 .. 20,0000%00:00 (00:00)Studio LyPsychoFlux Entertainment
602 Arcadie: Second-Born Dec 9, 2022 $7.99N/A (N/A)0 .. 20,0000%00:00 (00:00)Arcadie & UtopieArcadie & Utopie
603 The Googol Clicker Dec 9, 2022 $2.99N/A (N/A)0 .. 20,0000%00:00 (00:00)PaulArtPaulArt
604 Professor of Magical Studies Dec 8, 2022 $8.99N/A (N/A)0 .. 20,0000%00:00 (00:00)Choice of GamesChoice of Games
605 Black Cycle Dec 6, 2022 $2.99N/A (N/A)0 .. 20,0000%00:00 (00:00)Katsuya AbeKatsuya Abe
606 Slaughter Horse 2 Dec 5, 2022 $5.99N/A (N/A)20,000 .. 50,0000%00:00 (00:00)Catfood McFlyCatsmeat Studios
607 ENGLISH A-GAME Dec 4, 2022 $15N/A (N/A)20,000 .. 50,0000%00:00 (00:00)Jankowski AdamJankowski Adam
608 3 Households Dec 2, 2022 $13.99N/A (N/A)0 .. 20,0000%00:00 (00:00)EnergywhoissheEnergywhoisshe
609 十三月のふたり姫/The 13th month Dec 2, 2022 $19.99N/A (N/A)0 .. 20,0000%00:00 (00:00)Kobayashimaru LLCKobayashimaru LLC
610 Lost in Memory Dec 1, 2022 $7.99N/A (N/A)0 .. 20,0000%00:00 (00:00)Snuggle bugSnuggle bug
611 Scandal Notes Dec 1, 2022 $4.99N/A (N/A)0 .. 20,0000%00:00 (00:00)Heart's ChoiceHeart's Choice
612 幻境恋人-Fairy tale plan Dec 1, 2022 $11.99N/A (N/A)0 .. 20,0000%00:00 (00:00)橙光游戏橙光游戏
613 Kiss the Demiurge Dec 1, 2022 $5.99N/A (N/A)0 .. 20,0000%00:00 (00:00)YuriEurekaYuriEureka
614 Late photographer 6 Dec 1, 2022 $1.99N/A (N/A)0 .. 20,0000%00:00 (00:00)photographerphotographer
615 Super Planet Life Dec 1, 2022 $9.99N/A (N/A)0 .. 20,0000%00:00 (00:00)NorthplayNorthplay
616 Derision Nov 30, 2022 $0.49N/A (N/A)0 .. 20,0000%00:00 (00:00)AnatolioAnatolio
617 俺が私に変わった日…~Becoming a She~ Nov 30, 2022 $19.99N/A (N/A)0 .. 20,0000%00:00 (00:00)CyberStep, Inc., Rideon Works Co. Ltd,CyberStep, Inc.
618 EXECUTE DADDY~パパが何度も死ぬゲーム~ Nov 30, 2022 $19.99N/A (N/A)0 .. 20,0000%00:00 (00:00)Katusada Labo, カツサダ研究所Katusada Labo, カツサダ研究所
619 Chinese Characters Nov 29, 2022 FreeN/A (N/A)0 .. 20,0000%00:00 (00:00)伏生游戏伏生游戏
620 Nightmare Inside Nov 28, 2022 $3.99N/A (N/A)0 .. 20,0000%00:00 (00:00)BeneluxBenelux
621 Elevenses: The Flask Nov 28, 2022 $2.99N/A (N/A)0 .. 20,0000%00:00 (00:00)REDRAYPsychoFlux Entertainment
622 目盲/Blind Nov 26, 2022 $2.99N/A (N/A)20,000 .. 50,0000%00:00 (00:00)GOCOREGOCORE
623 Interplayer Nov 24, 2022 $2.09N/A (N/A)0 .. 20,0000%00:00 (00:00)hnahna
624 HOSPICE Vol. 1 Nov 24, 2022 FreeN/A (N/A)0 .. 20,0000%00:00 (00:00)Dima FyuriyDima Fyuriy
625 Teahouse of the Gods Nov 23, 2022 $6.99N/A (N/A)20,000 .. 50,0000%00:00 (00:00)Choice of GamesChoice of Games
626 Futtony y el Copón Mundial Nov 23, 2022 $5.99N/A (N/A)0 .. 20,0000%00:00 (00:00)Protony GamesElbenCraft
627 Social Credit Simulator Nov 23, 2022 $7.49N/A (N/A)0 .. 20,0000%00:00 (00:00)Youkunikazakovstudios  
628 Back to the Scene Nov 23, 2022 $9.99N/A (N/A)20,000 .. 50,0000%00:00 (00:00)欢乐不二方块游戏(CubeGame)
629 Please Be Happy Nov 21, 2022 $19.99N/A (N/A)0 .. 20,0000%00:00 (00:00)Studio ÉlanStudio Élan, Studio Elan
630 会计模拟器 Nov 21, 2022 $9.99N/A (N/A)0 .. 20,0000%00:00 (00:00)曲波曲波
631 Ravyne Nov 20, 2022 $2.99N/A (N/A)0 .. 20,0000%00:00 (00:00)Nicholas RinellaNicholas Rinella
632 七星探偵倶楽部~黄金虫たちの帰巣~ Nov 18, 2022 $9.99N/A (N/A)0 .. 20,0000%00:00 (00:00)POTGAMESPOTGAMES
633 No Random Novels Nov 17, 2022 $29.99N/A (N/A)0 .. 20,0000%00:00 (00:00)IndigoAK Communications
634 I'll save the world of harem - Isekai Harem Saver - Nov 16, 2022 $19.99N/A (N/A)0 .. 20,0000%00:00 (00:00)CyberStep, Inc., Rideon Works Co. Ltd,CyberStep, Inc.
635 GOODBYE WORLD Nov 16, 2022 $11.99N/A (N/A)20,000 .. 50,0000%00:00 (00:00)YO FUJIIFlyhigh Works, IndieArk
636 꿈을 빼앗긴 남자 - Dream invader Nov 16, 2022 $3.99N/A (N/A)0 .. 20,0000%00:00 (00:00)C's earthC's earth
637 うんこタイピング Nov 15, 2022 $9.99N/A (N/A)0 .. 20,0000%00:00 (00:00)INORK GameINORK Game
638 그녀가 다시 노래할 때까지. Nov 14, 2022 $4.99N/A (N/A)0 .. 20,0000%00:00 (00:00)TS-ProjectTS-Project
639 Watashi Suzume Nov 14, 2022 $9.99N/A (N/A)0 .. 20,0000%00:00 (00:00)Shamrock Creations LLC.Shamrock Creations LLC.
640 The Bible Nov 14, 2022 $14.99N/A (N/A)20,000 .. 50,0000%00:00 (00:00)Bible GamesBible Games
641 Gore Screaming Show Nov 11, 2022 $29.99N/A (N/A)0 .. 20,0000%00:00 (00:00)Black CycJAST
642 Mining Copper Nov 11, 2022 $1.99N/A (N/A)0 .. 20,0000%00:00 (00:00)YamateYamate
643 The Sports Trivia Challenge Nov 11, 2022 $0.99N/A (N/A)0 .. 20,0000%00:00 (00:00)LoadUpGames.comLoadUpGames.com
644 Skystrike: Wings of Justice Nov 10, 2022 $7.99N/A (N/A)0 .. 20,0000%00:00 (00:00)Choice of GamesChoice of Games
645 Championship Wrestling Promoter Nov 9, 2022 $19.99N/A (N/A)0 .. 20,0000%00:00 (00:00)Pykrete GamesPykrete Games
646 Urban Night Battle Girl Nov 8, 2022 $1.99N/A (N/A)20,000 .. 50,0000%00:00 (00:00)OD GameOD Game
647 Football Manager 2023 Nov 8, 2022 N/AN/A (N/A)1,000,000 .. 2,000,00010%13:33 (09:16)Sports InteractiveSEGA
648 Franchise Hockey Manager 9 Nov 8, 2022 $19.99N/A (N/A)0 .. 20,0000%00:00 (00:00)Out of the Park Developments, game54 SoftwareOut of the Park Developments
649 Raspberry Cube Nov 4, 2022 $29.99N/A (N/A)0 .. 20,0000%00:00 (00:00)madosoftSekai Project
650 The Music Trivia Challenge Nov 4, 2022 $0.99N/A (N/A)0 .. 20,0000%00:00 (00:00)LoadUpGames.comLoadUpGames.com
651 Talon City: Death from Above Nov 3, 2022 $4.99N/A (N/A)0 .. 20,0000%00:00 (00:00)Hosted GamesHosted Games
652 How to Say Goodbye Nov 3, 2022 $12.99N/A (N/A)0 .. 20,0000%00:00 (00:00)Florian Veltman, Baptiste Portefaix, ARTE FranceARTE France
653 Interrogation Simulator Oct 31, 2022 $1.99N/A (N/A)0 .. 20,0000%00:00 (00:00)Otis MillerFire Cycle Games
654 自在逍遥:风起 Tales of TianYuan Dynasty Oct 30, 2022 $5.99N/A (N/A)0 .. 20,0000%00:00 (00:00)Uniiao GameUniiao Game
655 恋爱绮谭 不存在的真相 Oct 28, 2022 $13.99N/A (N/A)50,000 .. 100,0000%00:00 (00:00)Never Knows BestNever Knows Best
656 SOWON Oct 28, 2022 $9.99N/A (N/A)0 .. 20,0000%00:00 (00:00)PUMPKIMPUMPKIM
657 A Crown of Sorcery and Steel Oct 27, 2022 $8.99N/A (N/A)0 .. 20,0000%00:00 (00:00)Choice of GamesChoice of Games
658 ALPHA-NIGHTHAWK Oct 27, 2022 $19.99N/A (N/A)0 .. 20,0000%00:00 (00:00)Liar-softShiravune
659 冒险与魔法 Oct 26, 2022 $2.99N/A (N/A)0 .. 20,0000%00:00 (00:00)简简单单说简单工作室简简单单说简单工作室
660 My Big Sister: Remastered Oct 25, 2022 $7.99N/A (N/A)0 .. 20,000100%00:01 (00:01)Stranga GamesGrabTheGames
661 Murder Is Game Over Oct 25, 2022 $4.99N/A (N/A)0 .. 20,0000%00:00 (00:00)HitherYon GamesMeridian4
662 WikiArena Oct 25, 2022 $1.99N/A (N/A)0 .. 20,0000%00:00 (00:00)LudokulturLudokultur
663 Dear Nostalgia Oct 24, 2022 N/AN/A (N/A)0 .. 20,0000%00:00 (00:00)ExoDark StudiosExoDark Studios
664 Platonically Mauled by a Magic Cougar Oct 24, 2022 $14.99N/A (N/A)0 .. 20,0000%00:00 (00:00)AppetiteShiravune
665 Personal Chef to the Stars Oct 24, 2022 $8.99N/A (N/A)0 .. 20,0000%00:00 (00:00)Double Peach ProductionsLittle Black Book Entertainment
666 Monster Prom 3: Monster Roadtrip Oct 21, 2022 $11.99N/A (N/A)50,000 .. 100,0000%00:00 (00:00)Beautiful GlitchBeautiful Glitch
667 With Good Intentions Oct 20, 2022 $14.99N/A (N/A)20,000 .. 50,0000%00:00 (00:00)Brezg StudioGolden Dragon Games
668 Cthulhu Mythos ADV Lunatic Whispers Oct 18, 2022 $9.99N/A (N/A)20,000 .. 50,0000%00:00 (00:00)Gotcha Gotcha GamesGotcha Gotcha Games
669 Walking In The Abyss Oct 17, 2022 $0.49N/A (N/A)0 .. 20,0000%00:00 (00:00)Studio GuirdyStudio Guirdy
670 海峡の故郷 Oct 14, 2022 $4.99N/A (N/A)0 .. 20,0000%00:00 (00:00)ロジマガやまひ
671 Link Bomb☆Party/链接炸弹☆派对 Oct 14, 2022 $1.99N/A (N/A)0 .. 20,0000%00:00 (00:00)LOP GamesLOP Games
672 Vs Chat Pack Oct 13, 2022 $14.99N/A (N/A)0 .. 20,0000%00:00 (00:00)KevDK GamesKevDK Games
673 Be My Loyal Subject - Historical Boys Love (BL) Visual Novel Oct 13, 2022 $4.99N/A (N/A)0 .. 20,0000%00:00 (00:00)ChaniMKChaniMK
674 Middle East Empire 2027 Oct 13, 2022 $4.19N/A (N/A)20,000 .. 50,0000%00:00 (00:00)iGindisGamesiGindisGames
675 异界双子 -Twin Souls- Oct 13, 2022 $1.99N/A (N/A)20,000 .. 50,0000%00:00 (00:00)staron animationstaron animation
676 Pitstop in Purgatory Oct 13, 2022 $4.99N/A (N/A)0 .. 20,0000%00:00 (00:00)Tymedust GamesTymedust Games
677 Africa Empire 2027 Oct 12, 2022 $4.19N/A (N/A)0 .. 20,0000%00:00 (00:00)iGindisGamesiGindisGames
678 DnD Adventure: Rogue's Choice Oct 10, 2022 $4.99N/A (N/A)0 .. 20,0000%00:00 (00:00)CCSDelight Games
679 The Blood Amulet Oct 9, 2022 $12.99N/A (N/A)20,000 .. 50,0000%00:00 (00:00)Martin Thomas FluryMartin Thomas Flury
680 Europe Empire 2027 Oct 8, 2022 $6.99N/A (N/A)0 .. 20,0000%00:00 (00:00)iGindisGamesiGindisGames
681 Asia Empire 2027 Oct 8, 2022 $6.99N/A (N/A)20,000 .. 50,0000%00:00 (00:00)iGindisGamesiGindisGames
682 Neuro Horror Oct 6, 2022 $0.99N/A (N/A)0 .. 20,0000%00:00 (00:00)AK StudioAK Studio
683 Tarot for Storytelling Sep 30, 2022 $1.99N/A (N/A)0 .. 20,0000%00:00 (00:00)Denis VepsVepsän vändod
684 Dawn of Kagura: Maika's Story - The Dragon's Wrath Sep 29, 2022 $19.99N/A (N/A)0 .. 20,0000%00:00 (00:00)Debonosu WorksShiravune
685 Learning Geography: Countries of the World Sep 29, 2022 $0.99N/A (N/A)0 .. 20,0000%00:00 (00:00)Tom's Feral Cat GamesTom's Feral Cat Games
686 活字引擎 Sep 29, 2022 $13.99N/A (N/A)0 .. 20,0000%00:00 (00:00)狸子Neazle狸子Neazle
687 Mosaic Chronicles Sep 29, 2022 $9.99N/A (N/A)0 .. 20,0000%00:00 (00:00)Error 300Error 300, Gamersky Games
688 Paper Bride 3 Unresolved Love Sep 28, 2022 $9.99N/A (N/A)100,000 .. 200,0000%00:00 (00:00)HeartBeat PlusHeartBeat Plus
689 ValiDate: Struggling Singles in your Area Sep 28, 2022 $8.99N/A (N/A)0 .. 20,0000%00:00 (00:00)Veritable Joy StudiosVeritable Joy Studios
690 AQRA Tenses [Learn English] Sep 27, 2022 FreeN/A (N/A)0 .. 20,0000%00:00 (00:00)Samer HammamiSamer Hammami
691 Haunted Girls Sep 25, 2022 $4.99N/A (N/A)0 .. 20,0000%00:00 (00:00)ひとりサークル「匙投げ部」Waku Waku Games
692 Watamari - A Match Made in Heaven Part1 Sep 23, 2022 $18.99N/A (N/A)0 .. 20,0000%00:00 (00:00)Kuro Irodoru YomijiSekai Project
693 Project Alex Sep 23, 2022 $1.49N/A (N/A)0 .. 20,0000%00:00 (00:00)PAWorksPAGames
694 The Billion Clicker Sep 23, 2022 $3.99N/A (N/A)0 .. 20,0000%00:00 (00:00)PaulArtPaulArt
695 Ean's End Sep 20, 2022 $1.99N/A (N/A)0 .. 20,0000%00:00 (00:00)u_twinkle_staru_twinkle_star
696 Room 301 NO.6 Sep 20, 2022 $3.99N/A (N/A)0 .. 20,0000%00:00 (00:00)Inter Frame StudioGamera Games
697 Card Survival: Tropical Island Sep 16, 2022 $24.99N/A (N/A)50,000 .. 100,0009.09%00:13 (00:04)WinterSpring GamesWinterSpring Games
698 Plan B - Goddess's cards Sep 16, 2022 $0.99N/A (N/A)0 .. 20,0000%00:00 (00:00)PP TecPP Tec
699 Dreamy Planet Sep 15, 2022 $4.89N/A (N/A)0 .. 20,0000%00:00 (00:00)ebi-himeebi-hime
700 AIdventure Sep 12, 2022 $12N/A (N/A)20,000 .. 50,0000%00:00 (00:00)Lyaaaaa GamesLyaaaaa Games
701 恋ひ焦がるるカミカクシ Sep 12, 2022 $14.99N/A (N/A)0 .. 20,0000%00:00 (00:00)GloryFieldGloryField
702 モノマギア・カンタービレ Sep 12, 2022 $29.99N/A (N/A)0 .. 20,0000%00:00 (00:00)MBA INTERNATIONALMBA INTERNATIONAL
703 回忆画册~MemoriesAlbum~ Sep 9, 2022 $4.99N/A (N/A)0 .. 20,0000%00:00 (00:00)RubyHaruSoftwareRubyHaruSoftware
704 Socialism Simulator Sep 9, 2022 $3.99N/A (N/A)20,000 .. 50,0000%00:00 (00:00)Sempiternal RainSempiternal Rain
705 Mottia - The gem hunters Sep 8, 2022 $5.99N/A (N/A)20,000 .. 50,0000%00:00 (00:00)4 hats4 hats
706 HimeYoku: A Sacrifice of Lust and Grace Sep 8, 2022 $19.99N/A (N/A)0 .. 20,0000%00:00 (00:00)Escu:deShiravune
707 Odd Guy Meets Odd Farmers - Comedy Boys Love (BL) Visual Novel Sep 8, 2022 $4.99N/A (N/A)0 .. 20,0000%00:00 (00:00)ChaniMKChaniMK
708 Mozart Requiem Sep 7, 2022 $7.49N/A (N/A)0 .. 20,0000%00:00 (00:00)Hoplite Research LLCGS2 Games Inc, Funbox Media Ltd
709 From atom to modern Sep 6, 2022 $2.49N/A (N/A)0 .. 20,0000%00:00 (00:00)YamateYamate
710 Arc Intelligence Sep 6, 2022 $4.99N/A (N/A)0 .. 20,0000%00:00 (00:00)Church of AI ChristChurch of AI Christ
711 Kardun Sep 1, 2022 $3.99N/A (N/A)0 .. 20,0000%00:00 (00:00)RokasRokas
712 LO FI - A YEAR TO FULFILL MY DREAM.mp3 Sep 1, 2022 $6.99N/A (N/A)0 .. 20,0000%00:00 (00:00)Ponpipaipidupi, Saukutsuki, Chin_719, Wu_JoJoRotating Gear Studio
713 Spam Text Sep 1, 2022 $2.99N/A (N/A)0 .. 20,0000%00:00 (00:00)Half-Eaten EntertainmentHalf-Eaten Entertainment
714 Draft Day Sports: College Football 2023 Aug 31, 2022 $24.99N/A (N/A)0 .. 20,0000%00:00 (00:00)Wolverine StudiosWolverine Studios
715 I Can't Hear Your Words, So I Want To Listen To Your Heart Aug 30, 2022 $4.99N/A (N/A)0 .. 20,0000%00:00 (00:00)箱崎奈绪(Hakozaki Nao)箱崎奈绪(Hakozaki Nao)
716 My Divorce Story Aug 29, 2022 $7.99N/A (N/A)0 .. 20,0000%00:00 (00:00)NONIL STUDIOCFK Co., Ltd.
717 The Monster Under Your Skin Aug 29, 2022 $4.99N/A (N/A)0 .. 20,0000%00:00 (00:00)Róman ORóman O
718 Fishing Game Aug 25, 2022 FreeN/A (N/A)0 .. 20,0000%00:00 (00:00)louis morelOakrot Games
719 슬픈 가족사 - 산장으로부터의 탈출 Aug 25, 2022 $3.99N/A (N/A)20,000 .. 50,0000%00:00 (00:00)C's earthC's earth
720 Noblesse Oblige Aug 25, 2022 $4.99N/A (N/A)0 .. 20,0000%00:00 (00:00)Choice of GamesChoice of Games
721 LA FORET DE PAGO 2 : SOUVENIR DE GLACE Aug 24, 2022 $5.99N/A (N/A)20,000 .. 50,0000%00:00 (00:00)FuturtechNova's Army
722 外道催眠術師と囚われのマリオネット - The Savage Hypnotist's Puppets - Aug 24, 2022 $19.99N/A (N/A)20,000 .. 50,0000%00:00 (00:00)CyberStep, Inc., Rideon Works Co. Ltd,CyberStep, Inc.
723 Are You Smarter Than A 5th Grader Aug 23, 2022 $29.99N/A (N/A)0 .. 20,0000%00:00 (00:00)Massive MiniteamHandyGames
724 Soul Light Aug 19, 2022 $3.49N/A (N/A)0 .. 20,0000%00:00 (00:00)VorobushekVorobushek
725 The witch of the Ihanashi Aug 19, 2022 $19.99N/A (N/A)0 .. 20,0000%00:00 (00:00)FragariaFragaria, Seikei Production, Mayflower Entertainment
726 Heart of Battle Aug 18, 2022 $6.99N/A (N/A)50,000 .. 100,0000%00:00 (00:00)Heart's ChoiceHeart's Choice
727 Eyes Over Us Aug 18, 2022 $1.49N/A (N/A)20,000 .. 50,0000%00:00 (00:00)Curse Box StudiosCurse Box Studios
728 Climb Challenge - Castle Aug 17, 2022 $13.99N/A (N/A)0 .. 20,0000%00:00 (00:00)HedeHede
729 Easy Poetry Aug 17, 2022 $49.99N/A (N/A)0 .. 20,0000%00:00 (00:00)Egg Fried RiceEgg Fried Rice
730 Anvil Life Aug 17, 2022 $1.99N/A (N/A)50,000 .. 100,0000%00:00 (00:00)Emre BulutEmre Bulut
731 My Cat Girl Lover Aug 15, 2022 $2.99N/A (N/A)0 .. 20,0000%00:00 (00:00)琉璃花糖制作组, Garakowa MarshmallowWindField Games, 琉璃花糖制作组, Garakowa Marshmallow
732 Girl And Demon 1 Aug 14, 2022 $4.99N/A (N/A)50,000 .. 100,0000%00:00 (00:00)Succubella GamesSuccubella Games
733 Ferrule Instincts Aug 12, 2022 $2.99N/A (N/A)0 .. 20,0000%00:00 (00:00)Yellow OpticYellow Optic
734 Re;quartz零度 Aug 12, 2022 $34.99N/A (N/A)0 .. 20,0000%00:00 (00:00)B-clusterB-cluster
735 Animal Trail ☆ Girlish Square Aug 12, 2022 $14.99N/A (N/A)0 .. 20,0000%00:00 (00:00)WhirlpoolSekai Project
736 Revenge of the Orcs: Flag of Conquest Aug 11, 2022 $14.99N/A (N/A)0 .. 20,0000%00:00 (00:00)DieselmineShiravune
737 Paranormal Preparatory School Aug 11, 2022 $6.99N/A (N/A)0 .. 20,0000%00:00 (00:00)Choice of GamesChoice of Games
738 Milliopoly - Language Quiz and Learning Aug 9, 2022 $9.99N/A (N/A)0 .. 20,0000%00:00 (00:00)Aurora - Mídia & GamesAurora - Mídia & Games
739 Miko no Kanata: Curious Tales from Oguni Shrine -Cycles- Aug 5, 2022 $12.99N/A (N/A)0 .. 20,0000%00:00 (00:00)Fan-naSekai Project
740 A Mage Reborn Aug 4, 2022 $4.99N/A (N/A)0 .. 20,0000%00:00 (00:00)Hosted GamesHosted Games
741 Great Deceiver Aug 4, 2022 $19.99N/A (N/A)0 .. 20,0000%00:00 (00:00)Empress, ElfShiravune
742 All Ashes and Illusions Aug 3, 2022 $12.99N/A (N/A)0 .. 20,0000%00:00 (00:00)ebi-himeebi-hime
743 Hooked on You: A Dead by Daylight Dating Sim Aug 3, 2022 $9.99N/A (N/A)200,000 .. 500,0000%00:00 (00:00)PsyopBehaviour Interactive Inc.
744 Fight For It Aug 3, 2022 $4.99N/A (N/A)0 .. 20,0000%00:00 (00:00)3xl3xl
745 In Your Books Aug 3, 2022 $7.99N/A (N/A)0 .. 20,0000%00:00 (00:00)UnderhillUnderhill
746 Koncolos Aug 2, 2022 $4.99N/A (N/A)0 .. 20,0000%00:00 (00:00)Umigame StudiosUmigame Studios
747 War of Bellrook Aug 1, 2022 $0.99N/A (N/A)20,000 .. 50,0000%00:00 (00:00)Plagen ShikiPlagen Shiki
748 The Dragon and the Djinn Jul 28, 2022 $8.99N/A (N/A)0 .. 20,0000%00:00 (00:00)Choice of GamesChoice of Games
749 Star Boss Jul 28, 2022 $7.99N/A (N/A)0 .. 20,0000%00:00 (00:00)BeautifulWorldBeautifulWorld
750 피랍 일지 - 그 남자로부터의 탈출 Jul 28, 2022 $1.99N/A (N/A)50,000 .. 100,0000%00:00 (00:00)C's earthC's earth
751 Findme ~30才の夢追い人~ Jul 28, 2022 $4.99N/A (N/A)20,000 .. 50,0000%00:00 (00:00)三ノ宮グループBlue Moon
752 幻恋逢星之时 Jul 26, 2022 $13.99N/A (N/A)0 .. 20,0000%00:00 (00:00)风月同天工作室风月同天工作室
753 AnotherQuizzGame Jul 26, 2022 $0.99N/A (N/A)0 .. 20,0000%00:00 (00:00)VorTeXDevVorTeXDev
754 Fastest Fantasy Life Simulator Jul 26, 2022 $0.99N/A (N/A)0 .. 20,0000%00:00 (00:00)Rand.Exe StudiosRand.Exe Studios
755 Chameleon - DYH Jul 25, 2022 $9.99N/A (N/A)0 .. 20,0000%00:00 (00:00)DYHWinCode
756 CozyTyper Jul 22, 2022 $4.99N/A (N/A)0 .. 20,0000%00:00 (00:00)silly little gamesimophi
757 Hell of Sins: soul Jul 21, 2022 $8.99N/A (N/A)0 .. 20,0000%00:00 (00:00)GHF GAMEGamera Games
758 Azrael Jul 21, 2022 $0.99N/A (N/A)0 .. 20,0000%00:00 (00:00)Spafnar StudiosSpafnar Studios
759 Pathogen Jul 21, 2022 $5.99N/A (N/A)0 .. 20,0000%00:00 (00:00)LMJLMJ
760 Target:Summit(目标:登顶 ) Jul 21, 2022 $1.99N/A (N/A)0 .. 20,0000%00:00 (00:00)LosingIsFun StudioLosingIsFun Studio
761 미연시 시뮬레이터 : 미소녀 게임의 주인공을 조종하는 게임 Jul 21, 2022 $1.99N/A (N/A)0 .. 20,0000%00:00 (00:00)C's earthC's earth
762 Muv-Luv Alternative Total Eclipse Remastered Jul 20, 2022 $25.99N/A (N/A)0 .. 20,0000%00:00 (00:00)aNCHOR Inc., fuzz, Inc.aNCHOR Inc.
763 Victorian Debutante Jul 20, 2022 $4.99N/A (N/A)0 .. 20,0000%00:00 (00:00)Liquid DarknessLiquid Darkness
764 晴末置雨 Jul 20, 2022 $1.99N/A (N/A)20,000 .. 50,0000%00:00 (00:00)置雨制作组龍之咲, WindField Games
765 - Am I kind-hearted? - ワタシのココロは綺麗ですか? Jul 20, 2022 $19.99N/A (N/A)0 .. 20,0000%00:00 (00:00)CyberStep, Inc., Rideon Works Co. Ltd,CyberStep, Inc.
766 Ansiolisis Jul 19, 2022 $1.99N/A (N/A)50,000 .. 100,0000%00:00 (00:00)JuneJune
767 A Pact With Me - Boys Love (BL) Visual Novel Jul 16, 2022 $4.99N/A (N/A)0 .. 20,0000%00:00 (00:00)ChaniMKChaniMK
768 Cheese Runner Jul 14, 2022 $2.99N/A (N/A)50,000 .. 100,0000%00:00 (00:00)Kai HutchenceMassive Corporation Game Studios
769 Profession investigator Jul 13, 2022 $12.99N/A (N/A)0 .. 20,0000%00:00 (00:00)Indie-GeekIndie-Geek
770 Second Thoughts Jul 12, 2022 $1.99N/A (N/A)0 .. 20,0000%00:00 (00:00)Gestmorph GamesGestmorph Games
771 Escape From Hard Drive Jul 11, 2022 $4.99N/A (N/A)0 .. 20,0000%00:00 (00:00)FewjixFewjix
772 Drifter's Tales Jul 9, 2022 $4.99N/A (N/A)0 .. 20,0000%00:00 (00:00)Teddy GandonThe First Spine
773 Seven Deadly Dates Jul 7, 2022 $6.99N/A (N/A)0 .. 20,0000%00:00 (00:00)MythiKiwiMythiKiwi
774 The Sword of Rhivenia Jul 7, 2022 $7.99N/A (N/A)0 .. 20,0000%00:00 (00:00)Hosted GamesHosted Games
775 NIRAVASI Jul 6, 2022 FreeN/A (N/A)0 .. 20,0000%00:00 (00:00)SOVERAMSOVERAM
776 Whisper Books Jul 1, 2022 FreeN/A (N/A)50,000 .. 100,0000%00:00 (00:00)滑稽猫滑稽猫
777 Interactive Fiction and Adventure Creator (IFAC) Jun 30, 2022 $29.99N/A (N/A)0 .. 20,0000%00:00 (00:00)Andy JenningsCodeUpNYC
778 Pimania Jun 28, 2022 $2.99N/A (N/A)0 .. 20,0000%00:00 (00:00)Automata UKPixel Games UK
779 你与选择 You and Choice Jun 25, 2022 $0.99N/A (N/A)0 .. 20,0000%00:00 (00:00)灵虚之幽灵虚之幽
780 Yonder World: Interview with the Void Jun 23, 2022 $12.99N/A (N/A)0 .. 20,0000%00:00 (00:00)Fluttering AbyssFluttering Abyss
781 Social Services of the Doomed Jun 23, 2022 $7.99N/A (N/A)0 .. 20,0000%00:00 (00:00)Choice of GamesChoice of Games
782 30 days in red army Jun 22, 2022 $2.99N/A (N/A)0 .. 20,0000%00:00 (00:00)Eny Project s.r.o.Eny Project s.r.o.
783 Krypt Jun 21, 2022 $1.99N/A (N/A)0 .. 20,0000%00:00 (00:00)Sean Murley, Billy CoeSW Games
784 懒人修仙传2 Jun 21, 2022 $7.99N/A (N/A)50,000 .. 100,0000%00:00 (00:00)托更的修罗托更的修罗
785 WORDLAND - Let's Travel Jun 20, 2022 $1.99N/A (N/A)0 .. 20,0000%00:00 (00:00)Robotizar GamesRobotizar Games
786 xiuzhen idle Jun 20, 2022 $5.99N/A (N/A)100,000 .. 200,0000%00:00 (00:00)游戏养家工作室跪求愿望
787 New Year's Eve Miracle Jun 20, 2022 $1.99N/A (N/A)0 .. 20,0000%00:00 (00:00)Poesha GamesPoesha Games
788 我感染HIV了吗 Jun 20, 2022 $0.99N/A (N/A)20,000 .. 50,0000%00:00 (00:00)硬石工作室硬石工作室
789 三国英雄坛 Jun 17, 2022 $0.79N/A (N/A)0 .. 20,0000%00:00 (00:00)Bob GameBob Game
790 The Last Bastion Jun 15, 2022 $14.99N/A (N/A)0 .. 20,0000%00:00 (00:00)Voidpeak GamesVoidpeak Games
791 DnD Adventure: Wizard's Choice Jun 15, 2022 $4.99N/A (N/A)0 .. 20,0000%00:00 (00:00)CCSDelight Games
792 Hardcore Trivia Jun 14, 2022 $1.24N/A (N/A)0 .. 20,0000%00:00 (00:00)F-GamesJTS Development
793 Mugsy & Mugsy's Revenge Jun 13, 2022 $3.99N/A (N/A)0 .. 20,0000%00:00 (00:00)Beam Software, Melbourne HousePixel Games UK
794 『絵話 -kaiwa-』 Jun 7, 2022 $4.99N/A (N/A)50,000 .. 100,0000%00:00 (00:00)852話852話
795 停留此刻 Stay in the moment Jun 3, 2022 $0.99N/A (N/A)0 .. 20,0000%00:00 (00:00)遇见咖啡厅遇见咖啡厅
796 The Golden Rose: Book One Jun 2, 2022 $11.99N/A (N/A)0 .. 20,0000%00:00 (00:00)Hosted GamesHosted Games
797 Hellscape Jun 1, 2022 $1.99N/A (N/A)0 .. 20,0000%00:00 (00:00)Dawson MatthewsDawson Matthews
798 Ante Mortem May 31, 2022 $3.99N/A (N/A)0 .. 20,0000%00:00 (00:00)Neil AugereauCoffee Interactive
799 Godland : The Fire Quest May 31, 2022 $2.99N/A (N/A)50,000 .. 100,0000%00:00 (00:00)Rabah ChikhiRabah Chikhi
800 Something Strange May 31, 2022 $0.99N/A (N/A)0 .. 20,0000%00:00 (00:00)Ethan ZimmerleMr. Hand
801 Love Delivery May 30, 2022 $14.99N/A (N/A)50,000 .. 100,000100%00:01 (00:01)Onfire GamesCometsoft Inc.
802 EasyChemistryLab May 30, 2022 $0.99N/A (N/A)0 .. 20,0000%00:00 (00:00)Golden Beetle SoftwareGilbert Zenner
803 Upirja May 29, 2022 $3.59N/A (N/A)0 .. 20,0000%00:00 (00:00)Sgriu SoftSgriu Soft
804 Charlotte: Dragon Slayer May 29, 2022 $4.99N/A (N/A)50,000 .. 100,0000%00:00 (00:00)Succubella GamesAngel And Demons
805 Freshman Magic: Spellbooks and Tangled Sheets May 26, 2022 $6.99N/A (N/A)0 .. 20,0000%00:00 (00:00)Heart's Choice LLCHeart's Choice LLC
806 Fabled Lands May 26, 2022 $18.99N/A (N/A)20,000 .. 50,0000%00:00 (00:00)Prime GamesPrime Games
807 Our Fate Forsaken - Boys Love (BL) Visual Novel May 20, 2022 $4.99N/A (N/A)0 .. 20,0000%00:00 (00:00)ChaniMKChaniMK
808 Will Die Alone May 19, 2022 $1.49N/A (N/A)0 .. 20,0000%00:00 (00:00)Arianna RavioliFantastico Studio
809 World Seed May 17, 2022 FreeN/A (N/A)50,000 .. 100,0000%00:00 (00:00)KortesApe Egg
810 Tennis Manager 2022 May 17, 2022 $9.99N/A (N/A)0 .. 20,0000%00:00 (00:00)Rebound CGRebound CG
811 烛光迷局 Candlelight May 13, 2022 N/AN/A (N/A)50,000 .. 100,0000%00:00 (00:00)正方形劳伦斯, Lawsquare133正方形劳伦斯
812 Kaverini Nuuk Adventures May 13, 2022 $9.99N/A (N/A)20,000 .. 50,0000%00:00 (00:00)Jared Gimbel, Kaverini KorpKaverini Korp
813 Nikola Tesla: War of the Currents May 12, 2022 $6.99N/A (N/A)0 .. 20,0000%00:00 (00:00)Choice of GamesChoice of Games
814 The Liminal May 10, 2022 $4.99N/A (N/A)0 .. 20,0000%00:00 (00:00)AmygdalumAmygdalum
815 Absolute Tennis Manager May 9, 2022 $19N/A (N/A)0 .. 20,0000%00:00 (00:00)ATEMIXATEMIX
816 最后的仙门 The last Practice Sect May 9, 2022 $3.99N/A (N/A)50,000 .. 100,0000%00:00 (00:00)栖鸾工作室栖鸾工作室
817 Naxos May 9, 2022 $4.99N/A (N/A)0 .. 20,0000%00:00 (00:00)PixelaborPixelabor
818 The Detail's In The Devils May 6, 2022 $0.99N/A (N/A)0 .. 20,0000%00:00 (00:00)Cameron James LowCameron James Low
819 Paradox Factor May 5, 2022 $2.99N/A (N/A)20,000 .. 50,0000%00:00 (00:00)Hosted GamesHosted Games
820 Life of a Space Force Captain May 5, 2022 $6.99N/A (N/A)0 .. 20,0000%00:00 (00:00)Hosted GamesHosted Games
821 游戏玩家中医体质测试及养生指南 May 5, 2022 $2.99N/A (N/A)0 .. 20,0000%00:00 (00:00)曲波曲波
822 Dere-chat May 5, 2022 $0.99N/A (N/A)20,000 .. 50,0000%00:00 (00:00)Sleepy_Fox_InteractiveSleepy_Fox_Interactive
823 Sky Caravan May 5, 2022 $9.99N/A (N/A)0 .. 20,0000%00:00 (00:00)Studio BravardaStudio Bravarda
824 How to Sing to Open Your Heart Remastered May 5, 2022 $14.99N/A (N/A)0 .. 20,0000%00:00 (00:00)ROSEVERTEROSEVERTE
825 Age of Grit May 3, 2022 $14.99N/A (N/A)0 .. 20,0000%00:00 (00:00)IQ SoupIQ Soup
826 The Missing Thing May 1, 2022 $2.99N/A (N/A)0 .. 20,0000%00:00 (00:00)Tommy GamesTommy Games
827 Parallelia Apr 29, 2022 $1.99N/A (N/A)0 .. 20,0000%00:00 (00:00)SincArt StudioSincArt Studio
828 Knotwords Apr 28, 2022 $11.99N/A (N/A)0 .. 20,0000%00:00 (00:00)Zach Gage, Jack SchlesingerZach Gage
829 Trapper: Drug Dealing RPG Apr 28, 2022 $19.99N/A (N/A)0 .. 20,0000%00:00 (00:00)Sancho Lathon JrSancho Lathon Jr
830 Terranova Apr 27, 2022 $20.04N/A (N/A)0 .. 20,0000%00:00 (00:00)CJ Knight, Matt KnightStudio Terranova
831 Salome's Kiss Apr 26, 2022 $9.09N/A (N/A)0 .. 20,0000%00:00 (00:00)ebi-himeebi-hime
832 Hana no No ni Saku Utakata no Apr 22, 2022 $29.99N/A (N/A)0 .. 20,0000%00:00 (00:00)AppliqueHIKARI FIELD
833 Rocco's Inferno Apr 22, 2022 $2.99N/A (N/A)0 .. 20,0000%00:00 (00:00)Pupil 19 StudiosPupil 19 Studios
834 Small phrases Great stories Apr 21, 2022 $0.99N/A (N/A)0 .. 20,0000%00:00 (00:00)Mardozux StudioMardozux Studio
835 Rockstar Life Apr 21, 2022 $7.99N/A (N/A)0 .. 20,0000%00:00 (00:00)Worthy GameWorthy Game
836 Gray Eyes of Death Apr 21, 2022 $6.99N/A (N/A)0 .. 20,0000%00:00 (00:00)Hosted GamesHosted Games
837 内卷三年竟穿越:皇帝模拟器 Apr 19, 2022 $2.99N/A (N/A)0 .. 20,0000%00:00 (00:00)HexGameStudioHexGameStudio
838 灵异爱情.冷 Apr 16, 2022 $1.99N/A (N/A)0 .. 20,0000%00:00 (00:00)ghostGame devghostGame dev
839 Siege of Treboulain Apr 14, 2022 $6.99N/A (N/A)0 .. 20,0000%00:00 (00:00)Choice of GamesChoice of Games
840 Suhoshin Apr 13, 2022 $14.99N/A (N/A)0 .. 20,0000%00:00 (00:00)No More 500No More 500
841 Athanasy Apr 13, 2022 $5.49N/A (N/A)50,000 .. 100,0000%00:00 (00:00)Wirion7DOTS
842 Relics 2: The Crusader's Tomb Apr 8, 2022 $7.99N/A (N/A)0 .. 20,0000%00:00 (00:00)Hosted GamesHosted Games
843 NEKO-MIMI SWEET HOUSEMATES Vol. 1 Apr 8, 2022 $15.99N/A (N/A)0 .. 20,0000%00:00 (00:00)Animal HerbSekai Project
844 边缘项目 / Living Island Project Apr 8, 2022 $9.99N/A (N/A)0 .. 20,0000%00:00 (00:00)LIP制作组LIP制作组
845 MOVEIT Apr 7, 2022 $0.99N/A (N/A)20,000 .. 50,0000%00:00 (00:00)DnovelTrinity Project
846 Tower Words Apr 7, 2022 $0.89N/A (N/A)0 .. 20,0000%00:00 (00:00)Company Not FoundCompany Not Found
847 CHRONO CROSS: THE RADICAL DREAMERS EDITION Apr 7, 2022 $19.99N/A (N/A)100,000 .. 200,0000%00:00 (00:00)Square Enix, D4Enterprise Co.,Ltd.Square Enix
848 How to Fool a Liar King Remastered Apr 7, 2022 $14.99N/A (N/A)0 .. 20,0000%00:00 (00:00)ROSEVERTEROSEVERTE
849 Lenin Simulator Apr 6, 2022 $4.99N/A (N/A)0 .. 20,0000%00:00 (00:00)lsimullsimul
850 Letter Bender Apr 5, 2022 $0.79N/A (N/A)0 .. 20,0000%00:00 (00:00)cosmic_dustcosmic_dust
851 Sakura Succubus 5 Apr 4, 2022 $2.99N/A (N/A)0 .. 20,0000%00:00 (00:00)Winged CloudWinged Cloud
852 SACROSANCT Apr 3, 2022 $6.99N/A (N/A)0 .. 20,0000%00:00 (00:00)FEYXUANFEYXUAN
853 Murasame Apr 3, 2022 $13.99N/A (N/A)0 .. 20,0000%00:00 (00:00)あいあんそぉどあいあんそぉど
854 Grim Quest - Old School RPG Apr 1, 2022 $5.99N/A (N/A)0 .. 20,0000%00:00 (00:00)MonomythMonomyth
855 start;again Mar 31, 2022 $5.99N/A (N/A)0 .. 20,0000%00:00 (00:00)Two and a Half StudiosTwo and a Half Studios
856 Queen of the flies 蝇后 Mar 31, 2022 $0.99N/A (N/A)0 .. 20,0000%00:00 (00:00)吃了就睡工作室, 夜神说话吃了就睡工作室
857 A=B Mar 29, 2022 $4.99N/A (N/A)50,000 .. 100,0000%00:00 (00:00)Artless GamesArtless Games
858 Satan's puzzle 666 Mar 29, 2022 $1.99N/A (N/A)0 .. 20,0000%00:00 (00:00)Silvestre Gore ArtGorestation
859 Forgotten Realms: The Archives - Collection One Mar 29, 2022 $9.99N/A (N/A)0 .. 20,0000%00:00 (00:00)Westwood Associates, Strategic SimulationsSNEG
860 恋~一些小清新的猎奇故事~ Mar 29, 2022 $1.99N/A (N/A)0 .. 20,0000%00:00 (00:00)桐生バトラ(疑狐社)Miwu Studio, WindField Games
861 League Manager 2022 Mar 24, 2022 N/AN/A (N/A)50,000 .. 100,0000%00:00 (00:00)AG SOFTAG SOFT
862 Mixed Feelings: While You Were Away - Boys Love (BL) Visual Novel Mar 24, 2022 $4.99N/A (N/A)0 .. 20,0000%00:00 (00:00)ChaniMKChaniMK
863 Vampire: The Masquerade — Sins of the Sires Mar 24, 2022 $11.99N/A (N/A)0 .. 20,0000%00:00 (00:00)Choice of GamesChoice of Games
864 Last Threshold Mar 24, 2022 $4.99N/A (N/A)0 .. 20,0000%00:00 (00:00)Astrolabe StoriesAstrolabe Stories
865 Chronicles of Tal'Dun: The Remainder Mar 23, 2022 $19.99N/A (N/A)0 .. 20,0000%00:00 (00:00)Square Weasel StudioSquare Weasel Studio
866 World Empire 2027 Mar 23, 2022 $10.49N/A (N/A)0 .. 20,0000%00:00 (00:00)iGindisGamesiGindisGames
867 Hate Free Heroes Tactics: Strategy Building MMO Mar 22, 2022 N/AN/A (N/A)0 .. 20,0000%00:00 (00:00)Hate Free HeroesHate Free Heroes
868 Cactus Clicker - Bofete Stories Mar 18, 2022 $0.99N/A (N/A)0 .. 20,0000%00:00 (00:00)DreamlikeDreamlike
869 9-nine-:NewEpisode Mar 18, 2022 $9.99N/A (N/A)0 .. 20,0000%00:00 (00:00)PALETTESekai Project
870 A List Of People Who Went Missing In The Scheleirland National Forest Mar 14, 2022 $5.99N/A (N/A)0 .. 20,0000%00:00 (00:00)F.SDRIF.SDRI
871 道不可道 Mar 12, 2022 $1.99N/A (N/A)200,000 .. 500,0000%00:00 (00:00)乐子人乐子人
872 虫鸣 Mar 11, 2022 $7.99N/A (N/A)50,000 .. 100,0000%00:00 (00:00)深圳市创源互娱科技有限公司深圳市创源互娱科技有限公司
873 Draft Day Sports: College Basketball 2022 Mar 10, 2022 $29.99N/A (N/A)0 .. 20,0000%00:00 (00:00)Wolverine StudiosWolverine Studios
874 Coral Drive Mar 10, 2022 $1.99N/A (N/A)0 .. 20,0000%00:00 (00:00)Happy Daram Inc.Happy Daram Inc.
875 Back 2 School Mar 9, 2022 $4.99N/A (N/A)0 .. 20,0000%00:00 (00:00)Goldenrod GamesGoldenrod Games
876 LAMBDA end THEORY Mar 8, 2022 $3.99N/A (N/A)20,000 .. 50,0000%00:00 (00:00)PixleavesPixleaves
877 All the Words She Wrote Mar 8, 2022 $12.99N/A (N/A)0 .. 20,0000%00:00 (00:00)ebi-himeebi-hime
878 Help Me Remember, Satori-sama! Mar 7, 2022 $6.99N/A (N/A)50,000 .. 100,0000%00:00 (00:00)ISYISY
879 Dungeon Alone Mar 4, 2022 $2.99N/A (N/A)0 .. 20,0000%00:00 (00:00)HexGameStudioHexGameStudio
880 How to Take Off Your Mask Remastered Mar 4, 2022 $14.99N/A (N/A)20,000 .. 50,0000%00:00 (00:00)ROSEVERTEROSEVERTE
881 雾尽时分 Mar 3, 2022 $9.99N/A (N/A)0 .. 20,0000%00:00 (00:00)济沧海工作室Pujia8 Studio
882 Yumeiri Mar 1, 2022 $8N/A (N/A)0 .. 20,0000%00:00 (00:00)AffilityAffility
883 The Dark Prophecy Feb 28, 2022 $3.49N/A (N/A)20,000 .. 50,0000%00:00 (00:00)Start WarpMeridian4
884 ASCIILL Feb 25, 2022 $4.99N/A (N/A)20,000 .. 50,0000%00:00 (00:00)Andrei FominAndrei Fomin
885 Cube Runk Feb 25, 2022 $39.99N/A (N/A)50,000 .. 100,0000%00:00 (00:00)HeliongamesHeliongames
886 Showbiz Tycoon Feb 25, 2022 $10.99N/A (N/A)0 .. 20,0000%00:00 (00:00)Olie GamesOlie Games
887 Revolution Diabolique Feb 24, 2022 $8.99N/A (N/A)0 .. 20,0000%00:00 (00:00)Choice of GamesChoice of Games
888 Perfect Tides Feb 21, 2022 $14.99N/A (N/A)0 .. 20,0000%00:00 (00:00)Three BeesThree Bees
889 Mr. Rainer's Solve-It Service Feb 21, 2022 $5.99N/A (N/A)0 .. 20,0000%00:00 (00:00)etheraneetherane
890 Learn Programming: Python - Remake Feb 21, 2022 $2.99N/A (N/A)0 .. 20,0000%00:00 (00:00)Niema MoshiriNiema Moshiri
891 One day after the snow and wind Feb 20, 2022 $0.99N/A (N/A)0 .. 20,0000%00:00 (00:00)灵虚之幽灵虚之幽
892 Mysteria of the World: The forest of Death Feb 19, 2022 $5.99N/A (N/A)20,000 .. 50,0000%00:00 (00:00)Remnants of mosaicRemnants of mosaic
893 浮生箓 Floating Life Feb 17, 2022 $2.99N/A (N/A)20,000 .. 50,0000%00:00 (00:00)心流工作室(Heart Stream Studio)心流工作室(Heart Stream Studio)
894 Bad Credit Feb 17, 2022 FreeN/A (N/A)0 .. 20,0000%00:00 (00:00)Riley Sampson, Arthur O'KeefeSoldier Girl Interactive
895 精神病大王花 Flowering Abyss Feb 13, 2022 $7.99N/A (N/A)0 .. 20,0000%00:00 (00:00)CHARONPujia8 Studio
896 To Make a Game Feb 12, 2022 $0.99N/A (N/A)0 .. 20,0000%00:00 (00:00)TheBluePenguinTheBluePenguin
897 她曾经活过啊 Feb 11, 2022 $0.99N/A (N/A)0 .. 20,0000%00:00 (00:00)shushanmaoshushanmao
898 Inua - A Story in Ice and Time Feb 10, 2022 $14.99N/A (N/A)0 .. 20,0000%00:00 (00:00)The Pixel Hunt, IKO, ARTE FranceARTE France
899 Brimstone Manor Feb 10, 2022 $4.99N/A (N/A)0 .. 20,0000%00:00 (00:00)Heart's ChoiceHeart's Choice
900 Cyanotype Daydream -The Girl Who Dreamed the World- Feb 9, 2022 $39.99N/A (N/A)0 .. 20,0000%00:00 (00:00)LaplacianLaplacian
901 OS:Memories Feb 9, 2022 $6.99N/A (N/A)0 .. 20,0000%00:00 (00:00)BASI StudiosBASI Studios
902 戛然而止的音符 Feb 7, 2022 $0.99N/A (N/A)0 .. 20,0000%00:00 (00:00)临雪制作组临雪制作组
903 7 Days to End with You Feb 6, 2022 $7.99N/A (N/A)100,000 .. 200,0000%00:00 (00:00)LizardryPLAYISM
904 Bad Faith Feb 4, 2022 $9.99N/A (N/A)0 .. 20,0000%00:00 (00:00)MadoMado
905 Community College Hero: Fun and Games Feb 3, 2022 $4.99N/A (N/A)50,000 .. 100,0000%00:00 (00:00)Hosted GamesHosted Games
906 Leningrad Jan 31, 2022 $0.99N/A (N/A)50,000 .. 100,0000%00:00 (00:00)Under ThreeUnder Three
907 瓔珞事件簿之誰殺了愛情 Jan 30, 2022 $4.99N/A (N/A)0 .. 20,0000%00:00 (00:00)傅真Genuine Studio Ltd
908 120 Yen Stories Jan 27, 2022 $19.99N/A (N/A)0 .. 20,0000%00:00 (00:00)NekoNeko SoftiMoe Games
909 The VII Enigma Jan 25, 2022 $9.99N/A (N/A)0 .. 20,0000%00:00 (00:00)Spire GamesSpire Games
910 Archetype Arcadia Jan 23, 2022 $29.99N/A (N/A)0 .. 20,0000%00:00 (00:00)Water PhoenixKEMCO
911 我就是要红 Jan 23, 2022 $5.99N/A (N/A)0 .. 20,0000%00:00 (00:00)闪艺互动闪艺互动
912 NEEDY STREAMER OVERLOAD Jan 21, 2022 $15.99N/A (N/A)500,000 .. 1,000,0003.53%00:20 (00:19)WSS playground, xemonoWSS playground
913 Lastone: Behind the Choice Jan 21, 2022 $4.99N/A (N/A)0 .. 20,0000%00:00 (00:00)Dragon Emperors, Great Conspiracy TheoryDragon Emperors
914 Word Crack Jan 21, 2022 $2.99N/A (N/A)0 .. 20,0000%00:00 (00:00)LonelyOcelotLonelyOcelot
915 Shuzzler: The Word Game Jan 20, 2022 $13.99N/A (N/A)0 .. 20,0000%00:00 (00:00)DC Creation StudiosDC Creation Studios
916 Late Bird Jan 20, 2022 $0.74N/A (N/A)0 .. 20,0000%00:00 (00:00)Vladimir SlavColdwild Games
917 Black Lazar Jan 19, 2022 $7.99N/A (N/A)20,000 .. 50,0000%00:00 (00:00)Pleon WordsPleon Words
918 Energy Island Corp. Jan 19, 2022 $5.99N/A (N/A)0 .. 20,0000%00:00 (00:00)SpirkopGamesSpirkopGames
919 Follow the Black Kitten Jan 17, 2022 FreeN/A (N/A)0 .. 20,0000%00:00 (00:00)TotalЛД: Новости визуальных новелл
920 The Soul Stone War 2 Jan 13, 2022 $7.99N/A (N/A)0 .. 20,0000%00:00 (00:00)Hosted GamesHosted Games
921 Cataplexy Jan 12, 2022 $1.99N/A (N/A)0 .. 20,0000%00:00 (00:00)12sevenDiada Novels
922 My Nemesis and Hero - Slice of Life Boys Love (BL) Visual Novel Jan 11, 2022 $4.99N/A (N/A)0 .. 20,0000%00:00 (00:00)ChaniMKChaniMK
923 Sakura Alien Jan 10, 2022 $2.49N/A (N/A)0 .. 20,0000%00:00 (00:00)Winged CloudWinged Cloud
924 An Outcry Jan 5, 2022 $9.99N/A (N/A)0 .. 20,0000%00:00 (00:00)Quinn K.Quinn K.
925 Peculiar Tales of Mid-Lake Pavilion Dec 31, 2021 $3.99N/A (N/A)0 .. 20,0000%00:00 (00:00)致意致意
926 风起长安:驭骨人 Dec 30, 2021 $13.99N/A (N/A)0 .. 20,0000%00:00 (00:00)轻梨工作室咕咕工作室
927 Devil's Eyes Dec 28, 2021 $4.99N/A (N/A)0 .. 20,0000%00:00 (00:00)Rapid Duck StudioRapid Duck Studio
928 World Wide Hack Dec 22, 2021 $16.99N/A (N/A)0 .. 20,0000%00:00 (00:00)Lotus InnovationsLotus Innovations
929 江湖乐子人 Dec 21, 2021 $0.99N/A (N/A)0 .. 20,0000%00:00 (00:00)乐子人乐子人
930 陌生人 Dec 21, 2021 $1.99N/A (N/A)0 .. 20,0000%00:00 (00:00)Plot ClubPlot Club
931 Item synthesis and dungeon exploration Dec 21, 2021 $6.99N/A (N/A)0 .. 20,0000%00:00 (00:00)OikariBunchoOikariBuncho
932 The Cloud Dream of the Nine Dec 20, 2021 $19.99N/A (N/A)0 .. 20,0000%00:00 (00:00)SesisoftSesisoft
933 Code.Breaker() Dec 18, 2021 $9.99N/A (N/A)0 .. 20,0000%00:00 (00:00)HokaBento StudioHokaBento Studio GmbH
934 Rewrite+ Dec 17, 2021 $49.99N/A (N/A)0 .. 20,0000%00:00 (00:00)VisualArts/KeySekai Project
935 门里 Dec 17, 2021 $4.99N/A (N/A)0 .. 20,0000%00:00 (00:00)细分工作室 BD Games
936 Slobbish Dragon Princess 2 Dec 17, 2021 $14.99N/A (N/A)0 .. 20,0000%00:00 (00:00)WhirlpoolSekai Project
937 Cinemoji: Series Dec 17, 2021 $0.99N/A (N/A)0 .. 20,0000%00:00 (00:00)Gray BossGray Boss
938 Milk outside a bag of milk outside a bag of milk Dec 16, 2021 $8.99N/A (N/A)200,000 .. 500,0000%00:00 (00:00)Nikita KryukovNikita Kryukov
939 Echoes Dec 16, 2021 $4.99N/A (N/A)0 .. 20,0000%00:00 (00:00)Baba NuraBaba Nura, Feodosiy
940 贸易与马车 Dec 16, 2021 $2.99N/A (N/A)0 .. 20,0000%00:00 (00:00)SiTong TechSiTong Tech
941 Too Many Santas! Dec 14, 2021 $6.99N/A (N/A)20,000 .. 50,0000%00:00 (00:00)Oh, a Rock! StudiosOh, a Rock! Studios
942 Retired Men's Nude Beach Volleyball League Dec 10, 2021 $6.99N/A (N/A)0 .. 20,0000%00:00 (00:00)Snowrunner GamesSnowrunner Games
943 Witchcraft U Dec 9, 2021 $5.99N/A (N/A)20,000 .. 50,0000%00:00 (00:00)Choice of GamesChoice of Games
944 VOICE Dec 9, 2021 $13.99N/A (N/A)0 .. 20,0000%00:00 (00:00)WTFMANWTFMAN
945 The Wishing Stone Dec 9, 2021 $8.99N/A (N/A)0 .. 20,0000%00:00 (00:00)Dream Nyght StudioDream Nyght Studio
946 QuizPoker: Mix of Quiz and Poker Dec 8, 2021 $5.99N/A (N/A)0 .. 20,0000%00:00 (00:00)SiwaluSiwalu
947 Sports Betting Simulator Dec 6, 2021 $0.99N/A (N/A)0 .. 20,0000%00:00 (00:00)Ashina GamesAshina Games
948 The Divine Deception Dec 3, 2021 $14.99N/A (N/A)20,000 .. 50,0000%00:00 (00:00)ThemisianThemisian
949 誰是犯案者 Who is the Criminal Dec 3, 2021 $7.99N/A (N/A)0 .. 20,0000%00:00 (00:00)莉莉恩工作室莉莉恩工作室
950 Faerie's Bargain: The Price of Business Dec 2, 2021 $6.99N/A (N/A)0 .. 20,0000%00:00 (00:00)Choice of GamesChoice of Games
951 Tied by your Red Nov 28, 2021 $3.99N/A (N/A)0 .. 20,0000%00:00 (00:00)YurifYurif, Light of Creators
952 ファントムゾーン クリプトファシア Nov 26, 2021 $12.99N/A (N/A)20,000 .. 50,0000%00:00 (00:00)ファントムゾーン観測室, ケイエルケイエル
953 Space Hoarders Inc. Nov 26, 2021 $11.99N/A (N/A)0 .. 20,0000%00:00 (00:00)DogWater EntertainmentDogWater Entertainment
954 Mischance Nov 23, 2021 $4.99N/A (N/A)0 .. 20,0000%00:00 (00:00)MustangDevMustangDev
955 Augmented Future Nov 18, 2021 $4.99N/A (N/A)0 .. 20,0000%00:00 (00:00)Spicy Noodle StudiosSpicy Noodle Studios
956 异界转生 这次变成了传说中的勇者呢(受) Nov 18, 2021 $18.99N/A (N/A)0 .. 20,0000%00:00 (00:00)株式会社コンテンツシード, 株式会社プラス81株式会社クレイズ
957 BOT.vinnik Chess: Mid-Century USSR Championships Nov 17, 2021 $0.49N/A (N/A)0 .. 20,0000%00:00 (00:00)Deep Green GamesAbyssal Studios
958 Hardwork Simulator Nov 17, 2021 $1.99N/A (N/A)0 .. 20,0000%00:00 (00:00)MandingaMandinga
959 Guardian of the future Nov 15, 2021 $4.49N/A (N/A)0 .. 20,0000%00:00 (00:00)Lotos ProjectLotos Project
960 The Vellescian Gambit Nov 15, 2021 $1.99N/A (N/A)0 .. 20,0000%00:00 (00:00)Vellescian GamesVellescian Games
961 Sakura Forest Girls 3 Nov 15, 2021 $2.49N/A (N/A)0 .. 20,0000%00:00 (00:00)Winged CloudWinged Cloud
962 Raiders of the Icepeak Mountains Nov 12, 2021 $4.99N/A (N/A)0 .. 20,0000%00:00 (00:00)Hosted GamesHosted Games
963 Temple of Endless Night Nov 12, 2021 $5.99N/A (N/A)0 .. 20,0000%00:00 (00:00)Hosted GamesHosted Games
964 Wager Nov 11, 2021 $0.99N/A (N/A)0 .. 20,0000%00:00 (00:00)Zever GamesZever Games
965 Bobok Nov 11, 2021 $4.99N/A (N/A)20,000 .. 50,0000%00:00 (00:00)SectaSecta
966 ReTox Nov 10, 2021 $11.99N/A (N/A)0 .. 20,0000%00:00 (00:00)Dopamine GamesDopamine Games
967 The Sin Collector: Repentless Nov 9, 2021 $14.99N/A (N/A)20,000 .. 50,0000%00:00 (00:00)Sylen StudioSylen Studio
968 Death Becomes You - Mystery Visual Novel Nov 9, 2021 $8.99N/A (N/A)0 .. 20,0000%00:00 (00:00)Quill Game StudiosQuill Game Studios, Quill Yuri
969 Sumy Shelltris - ICEBLOCKS 2 Nov 8, 2021 $1.99N/A (N/A)0 .. 20,0000%00:00 (00:00)Roberto ShellStar Shell
970 Winning Love by Daylight [Ep 1+2] Nov 8, 2021 $3.99N/A (N/A)0 .. 20,0000%00:00 (00:00)Cutlass BoardgamesCutlass Boardgames
971 琴覆天下 Nov 8, 2021 $9.99N/A (N/A)0 .. 20,0000%00:00 (00:00)闪艺互动闪艺互动
972 Gear of Glass: Eolarn's war Nov 7, 2021 $14.99N/A (N/A)0 .. 20,0000%00:00 (00:00)Remnants of mosaicRemnants of mosaic
973 Cinemoji: Halloween Nov 7, 2021 $0.99N/A (N/A)0 .. 20,0000%00:00 (00:00)Gray BossGray Boss
974 4 Alice Magical Autistic Girls Nov 6, 2021 N/AN/A (N/A)0 .. 20,0000%00:00 (00:00)MiaMia
975 Meet PIP Nov 6, 2021 $2.99N/A (N/A)0 .. 20,0000%00:00 (00:00)PaperMill GamesPaperMill Games
976 舔狗模拟器 Nov 5, 2021 $4.99N/A (N/A)0 .. 20,0000%00:00 (00:00)Studio SixStudio Six
977 Drynk: Board and Drinking Game Nov 5, 2021 $5.99N/A (N/A)0 .. 20,0000%00:00 (00:00)SiwaluSiwalu
978 The Oath of The Dark Magic Queen Nov 5, 2021 $4.99N/A (N/A)0 .. 20,0000%00:00 (00:00)DessertTheorySekai Project
979 The Railway Nov 4, 2021 $1.99N/A (N/A)0 .. 20,0000%00:00 (00:00)Honest NovelsHonest Novels
980 Saimin Gakushū: Secret Desire Nov 4, 2021 $19.99N/A (N/A)0 .. 20,0000%00:00 (00:00)Dark One!Shiravune
981 方块地牢 Nov 3, 2021 $1.99N/A (N/A)50,000 .. 100,0000%00:00 (00:00)小五BD Games
982 Sumy Shelltris - ICEBLOCKS 1 Nov 3, 2021 $1.99N/A (N/A)0 .. 20,0000%00:00 (00:00)Mario Roberto da SilvaStar Shell
983 1f y0u're a gh0st ca11 me here! 幽铃热线 Nov 1, 2021 $6.99N/A (N/A)0 .. 20,0000%00:00 (00:00)Furoshiki Lab.MyACG Studio
984 The Hunter's Journals - Tattered Sails Oct 31, 2021 $5.99N/A (N/A)0 .. 20,0000%00:00 (00:00)Grindwheel GamesGrindwheel Games
985 Plan B from Outer Space: A Bavarian Odyssey Oct 28, 2021 $12.49N/A (N/A)50,000 .. 100,0000%00:00 (00:00)RobotPumpkin GamesAssemble Entertainment
986 Atomic Cards Oct 28, 2021 $9.99N/A (N/A)20,000 .. 50,0000%00:00 (00:00)SerVGHide Head
987 Vampire: The Masquerade — Parliament of Knives Oct 28, 2021 $11.99N/A (N/A)0 .. 20,0000%00:00 (00:00)Choice of GamesChoice of Games
988 Once More Oct 27, 2021 $14.99N/A (N/A)0 .. 20,0000%00:00 (00:00)Malheur GamesMalheur Games
989 Franchise Hockey Manager 8 Oct 26, 2021 $19.99N/A (N/A)0 .. 20,0000%00:00 (00:00)Out of the Park Developments, Minos GamesOut of the Park Developments
990 Hermitage: Strange Case Files Oct 26, 2021 $19.99N/A (N/A)0 .. 20,0000%00:00 (00:00)ArrowizGiiku Games
991 Amazing Superhero Squad Oct 22, 2021 $5.99N/A (N/A)0 .. 20,0000%00:00 (00:00)Siberian KoalaSiberian Koala
992 Foul Play - Yuri Visual Novel Oct 21, 2021 $13.99N/A (N/A)20,000 .. 50,0000%00:00 (00:00)Bandit Visual GamesBandit Visual Games
993 Sword Princess Amaltea - The Visual Novel Oct 21, 2021 $9.99N/A (N/A)0 .. 20,0000%00:00 (00:00)Senpai Media GroupNatalia Batista
994 Motivational Hero Vol. 2 Oct 21, 2021 $0.99N/A (N/A)0 .. 20,0000%00:00 (00:00)Euclides LopesEuclides Lopes
995 Rubicon : a conspiracy of silence Oct 20, 2021 $9.99N/A (N/A)20,000 .. 50,0000%00:00 (00:00)Midnight Mood Studio, La Belle Games La Belle Games
996 Summer In Trigue Oct 18, 2021 $17.99N/A (N/A)0 .. 20,0000%00:00 (00:00)Winter WolvesWinter Wolves
997 Sacred Fire: A Role Playing Game Oct 18, 2021 $14.24N/A (N/A)20,000 .. 50,0000%00:00 (00:00)PoeticIceberg Interactive
998 Chronicles of Tal'Dun: The Remainder - Act 2 Oct 18, 2021 N/AN/A (N/A)0 .. 20,0000%00:00 (00:00)Square Weasel StudioSquare Weasel Studio
999 Tales of the Black Death Oct 15, 2021 $9.99N/A (N/A)0 .. 20,0000%00:00 (00:00)Doubleton Game StudioDoubleton Game Studio
1000 Love Duction! The Guide for Galactic Lovers Oct 15, 2021 $12.99N/A (N/A)0 .. 20,0000%00:00 (00:00)US8Sekai Project
1001 Ninki Seiyuu: How to Make a Pop Voice Actress Oct 14, 2021 $39.99N/A (N/A)0 .. 20,0000%00:00 (00:00)MintCUBEShiravune
1002 Draft Day Sports: Pro Football 2022 Oct 14, 2021 $24.99N/A (N/A)0 .. 20,0000%00:00 (00:00)Wolverine StudiosWolverine Studios
1003 Copy Editor: A RegEx Puzzle Oct 14, 2021 $6.99N/A (N/A)0 .. 20,0000%00:00 (00:00)Christopher JarvisCinq-Mars Media
1004 The Last Will Oct 13, 2021 $1.99N/A (N/A)20,000 .. 50,0000%00:00 (00:00)ODBear StudiosODBear Studios
1005 Toolnich Village Oct 13, 2021 $0.99N/A (N/A)0 .. 20,0000%00:00 (00:00)BionutulBionutul
1006 SCP Foundation: ITTLG - Chapter 1 Oct 13, 2021 $1.99N/A (N/A)20,000 .. 50,0000%00:00 (00:00)Deniz DzhevatovNek-Orb Studios
1007 Increlution Oct 13, 2021 $3.99N/A (N/A)100,000 .. 200,0000%00:00 (00:00)GnillerGniller
1008 风信楼 Oct 13, 2021 $11.99N/A (N/A)100,000 .. 200,0000%00:00 (00:00)Pingfang GamesPingfang Games
1009 Not It: Spookiest Edition Oct 12, 2021 $6.99N/A (N/A)0 .. 20,0000%00:00 (00:00)Snowhaven StudiosSnowhaven Studios
1010 ASTRA Oct 12, 2021 $0.99N/A (N/A)20,000 .. 50,0000%00:00 (00:00)Piece Of VoxelPiece Of Voxel
1011 Hidden Words Oct 8, 2021 $4.99N/A (N/A)0 .. 20,0000%00:00 (00:00)Alcedo GamesAlcedo Games
1012 Interstellar Airgap Oct 7, 2021 $5.99N/A (N/A)20,000 .. 50,0000%00:00 (00:00)Hosted GamesHosted Games
1013 投资模拟器:打工人 Oct 7, 2021 $11.99N/A (N/A)50,000 .. 100,0000%00:00 (00:00)Bosa-GamesBosa-Games
1014 CLOSED HANDS Oct 4, 2021 $5.99N/A (N/A)0 .. 20,0000%00:00 (00:00)PASSENGERPASSENGER
1015 Typer Hero (打字英雄) Oct 2, 2021 $1.99N/A (N/A)0 .. 20,0000%00:00 (00:00)KeKaiXinLeKeKaiXinLe
1016 Last Days Oct 2, 2021 $3.99N/A (N/A)50,000 .. 100,0000%00:00 (00:00)琉璃花糖制作组, Garakowa Marshmallow琉璃花糖制作组, Garakowa Marshmallow
1017 Legends of Murder Collection Oct 1, 2021 $6.99N/A (N/A)50,000 .. 100,0000%00:00 (00:00)Softdisk PublishingZiggurat
1018 Dear Agony Aunt Oct 1, 2021 $4.99N/A (N/A)0 .. 20,0000%00:00 (00:00)Faye StrawberryFaye Strawberry
1019 The prisoner of the Night Oct 1, 2021 $4.24N/A (N/A)0 .. 20,0000%00:00 (00:00)RMALRMAL
1020 The Summit High School: Prologue Episode Sep 30, 2021 N/AN/A (N/A)0 .. 20,0000%00:00 (00:00)GLOBINSGLOBINS
1021 WORDDING Sep 30, 2021 FreeN/A (N/A)0 .. 20,0000%00:00 (00:00)RoomsForRocketsRoomsForRockets
1022 Would you like to run an idol café? 2 Sep 27, 2021 $2.99N/A (N/A)0 .. 20,0000%00:00 (00:00)StarlightTree GamesWinged Cloud
1023 Visual Novel Sisters Sep 23, 2021 $0.79N/A (N/A)20,000 .. 50,0000%00:00 (00:00)Echelon EntertainmentEchelon Entertainment
1024 当火车鸣笛三秒 Sep 19, 2021 $9.99N/A (N/A)50,000 .. 100,0000%00:00 (00:00)蒐藏馆工作室MedusasGame
1025 Wraiths of SENTINEL Sep 16, 2021 $6.99N/A (N/A)0 .. 20,0000%00:00 (00:00)Choice of GamesChoice of Games
1026 Motivational Hero Sep 14, 2021 $1.99N/A (N/A)0 .. 20,0000%00:00 (00:00)Euclides LopesEuclides Lopes
1027 BASIC ROGUE Sep 11, 2021 $2.99N/A (N/A)20,000 .. 50,0000%00:00 (00:00)Indie Jon S.The Doomed Studio
1028 Cauldrons of War - Stalingrad Sep 10, 2021 $14.99N/A (N/A)0 .. 20,0000%00:00 (00:00)Maestro CinetikGaming at Work
1029 ANYEK - The Keyboard Puzzle Sep 10, 2021 $7.99N/A (N/A)0 .. 20,0000%00:00 (00:00)Garage StudioGarage Studio
1030 The Vampire Regent Sep 9, 2021 $7.99N/A (N/A)0 .. 20,0000%00:00 (00:00)Hosted GamesHosted Games
1031 Dull Grey Sep 8, 2021 $4.99N/A (N/A)20,000 .. 50,0000%00:00 (00:00)Provodnik GamesProvodnik Games
1032 Timothy Leary's Mind Mirror Sep 2, 2021 $5.99N/A (N/A)0 .. 20,0000%00:00 (00:00)Futique, Inc.Moon Books LLC
1033 Idle Trading Simulator Sep 2, 2021 $0.49N/A (N/A)20,000 .. 50,0000%00:00 (00:00)DiamosDevDiamosDev
1034 BOT.vinnik Chess: Early USSR Championships Sep 2, 2021 $0.99N/A (N/A)0 .. 20,0000%00:00 (00:00)Deep Green GamesAbyssal Studios
1035 A Curse From Beyond Aug 30, 2021 $4.99N/A (N/A)0 .. 20,0000%00:00 (00:00)Cave Ghost GamesCave Ghost Games
1036 幸存者乐园 Aug 28, 2021 $0.99N/A (N/A)0 .. 20,0000%00:00 (00:00)幸存者乐园幸存者乐园
1037 Arcade Boy Aug 27, 2021 FreeN/A (N/A)100,000 .. 200,0000%00:00 (00:00)Edvar StudioEdvar Studio
1038 The Play's the Thing Aug 26, 2021 $5.99N/A (N/A)0 .. 20,0000%00:00 (00:00)Choice of GamesChoice of Games
1039 The Craft of the Samurai Aug 25, 2021 FreeN/A (N/A)0 .. 20,0000%00:00 (00:00)Evgeniy SevostyanovEvgeniy Sevostyanov
1040 Embraced by Autumn Aug 24, 2021 $18.99N/A (N/A)0 .. 20,0000%00:00 (00:00)ebi-himeebi-hime
1041 WAVER: A Typing Adventure Aug 20, 2021 $11.99N/A (N/A)0 .. 20,0000%00:00 (00:00)Buried ThingsBuried Things
1042 Help Me! Aug 20, 2021 N/AN/A (N/A)0 .. 20,0000%00:00 (00:00)UnicONUnicON
1043 BlackberryNOVA Aug 19, 2021 $3.49N/A (N/A)0 .. 20,0000%00:00 (00:00)Nova B12Nova B12
1044 Vain Riser Aug 19, 2021 $12.99N/A (N/A)0 .. 20,0000%00:00 (00:00)弦语蝶梦弦语蝶梦
1045 Blood for Poppies Aug 19, 2021 $5.99N/A (N/A)20,000 .. 50,0000%00:00 (00:00)Hosted GamesHosted Games
1046 Blackout: The Darkest Night Aug 19, 2021 $5.99N/A (N/A)0 .. 20,0000%00:00 (00:00)MiniChimera Game StudioMiniChimera Game Studio
1047 Confessions Aug 18, 2021 $2.99N/A (N/A)0 .. 20,0000%00:00 (00:00)Peace & Love GamesPeace & Love Games
1048 START AGAIN: a prologue Aug 18, 2021 $5.49N/A (N/A)100,000 .. 200,0000%00:00 (00:00)insertdisc5insertdisc5
1049 Space to Grow Aug 13, 2021 $6.99N/A (N/A)0 .. 20,0000%00:00 (00:00)Metasepia GamesMetasepia Games
1050 Battlemage: Magic by Mail Aug 12, 2021 $4.99N/A (N/A)0 .. 20,0000%00:00 (00:00)Choice of GamesChoice of Games
1051 You Can Kana - Learn Japanese Hiragana & Katakana Aug 11, 2021 $9.99N/A (N/A)20,000 .. 50,0000%00:00 (00:00)James MoulangJames Moulang
1052 Tales of the Mirror Aug 11, 2021 $7.99N/A (N/A)20,000 .. 50,0000%00:00 (00:00)Cotton GameCotton Game
1053 Deus Lo Veult Aug 10, 2021 $9.99N/A (N/A)0 .. 20,0000%00:00 (00:00)PageBoyGamePageBoyGame
1054 Do 11 Aug 9, 2021 $1.99N/A (N/A)0 .. 20,0000%00:00 (00:00)SJR TeamSJR Team
1055 IdolDays Aug 5, 2021 $12.99N/A (N/A)0 .. 20,0000%00:00 (00:00)iMel, qureatequreate
1056 Medium: The Psychic Party Game Aug 2, 2021 $9.99N/A (N/A)0 .. 20,0000%00:00 (00:00)Unboxed Games LLC, Oh My GamesUnboxed Games LLC
1057 BUSTAFELLOWS Jul 30, 2021 $39.99N/A (N/A)20,000 .. 50,0000%00:00 (00:00)NIPPON CULTURAL BROADCASTING EXTEND INC.PQube
1058 Eternal Secret Jul 30, 2021 $2.99N/A (N/A)20,000 .. 50,0000%00:00 (00:00)Piotr KaniewskiGGEntertainment
1059 Murder on the Marine Express Jul 30, 2021 $4.99N/A (N/A)0 .. 20,0000%00:00 (00:00)1564 Studio1564 Studio
1060 kana!kana? Jul 30, 2021 $2.99N/A (N/A)0 .. 20,0000%00:00 (00:00)花果山勇士神选OFFICIAL花果山勇士神选OFFICIAL
1061 Vampire: The Masquerade — Out for Blood Jul 29, 2021 $11.99N/A (N/A)0 .. 20,0000%00:00 (00:00)Choice of GamesChoice of Games
1062 Fairy Sister Jul 29, 2021 $1.99N/A (N/A)0 .. 20,0000%00:00 (00:00)玫瑰工作室玫瑰工作室
1063 Nothing To Remember Jul 29, 2021 $1.99N/A (N/A)0 .. 20,0000%00:00 (00:00)Guts UnitedGuts United
1064 Traditional Chinese Medicine Simulator Jul 28, 2021 $14.99N/A (N/A)0 .. 20,0000%00:00 (00:00)曲波曲波
1065 Wishlair Jul 28, 2021 $4.99N/A (N/A)0 .. 20,0000%00:00 (00:00)ChronogearsChronogears
1066 Shadows on the Vatican: Nightingale Jul 27, 2021 $2.99N/A (N/A)20,000 .. 50,0000%00:00 (00:00)Binary Charm, Daring TouchBinary Charm
1067 Game of Love Jul 26, 2021 $4.99N/A (N/A)0 .. 20,0000%00:00 (00:00)Golden Castle StudioGolden Castle Studio
1068 Sakura Forest Girls 2 Jul 26, 2021 $2.49N/A (N/A)0 .. 20,0000%00:00 (00:00)Winged CloudWinged Cloud
1069 Reality's Reverse Side Jul 22, 2021 FreeN/A (N/A)20,000 .. 50,0000%00:00 (00:00)CupcakeTime TeamPhoenix_co
1070 Heal Hitler Jul 22, 2021 $4.99N/A (N/A)20,000 .. 50,0000%00:00 (00:00)Jon AegisJon Aegis
1071 Dead-End Detective: The Sixpence Strangler Jul 21, 2021 $3.99N/A (N/A)20,000 .. 50,0000%00:00 (00:00)A RanDom FellaA RanDom Fella
1072 Follow Your Heart Jul 20, 2021 $24.99N/A (N/A)0 .. 20,0000%00:00 (00:00)玫瑰工作室玫瑰工作室
1073 Evil Shogun Jul 20, 2021 $1N/A (N/A)50,000 .. 100,0000%00:00 (00:00)A. A. Bills, Rino ItoFlat 47 Productions
1074 秘封フラグメント Jul 16, 2021 $14.99N/A (N/A)0 .. 20,0000%00:00 (00:00)シカクゲームズPhoenixx Inc.
1075 Pugmire: Treasure of the Sea Dogs Jul 15, 2021 $4.99N/A (N/A)0 .. 20,0000%00:00 (00:00)Choice of GamesChoice of Games
1076 Phantom Typist Jul 14, 2021 $2.99N/A (N/A)0 .. 20,0000%00:00 (00:00)Wysiwyg InteractiveWysiwyg Interactive
1077 摆地摊 Jul 12, 2021 $0.99N/A (N/A)0 .. 20,0000%00:00 (00:00)皮蛋打番茄皮蛋打番茄
1078 古代人生 Ancient Life Jul 12, 2021 $4.99N/A (N/A)0 .. 20,0000%00:00 (00:00)Wingjoy GamesWingjoy Games
1079 猫头鹰和灯塔 Jul 11, 2021 $14.99N/A (N/A)0 .. 20,0000%00:00 (00:00)WoodenWolfWoodenWolf
1080 functional Jul 9, 2021 $6.99N/A (N/A)0 .. 20,0000%00:00 (00:00)yancoutoMarvellous Soft
1081 Legend of Homebody Jul 8, 2021 $5.99N/A (N/A)50,000 .. 100,0000%00:00 (00:00)疯王子CrazyPrince
1082 Death Realm Jul 7, 2021 $12.99N/A (N/A)0 .. 20,0000%00:00 (00:00)PEPOLA Private LimitedPEPOLA Private Limited
1083 Revizor Jul 2, 2021 N/AN/A (N/A)0 .. 20,0000%00:00 (00:00)RevizorGameStudioRevizorGameStudio
1084 Billionaire Lovers Jul 2, 2021 $2.99N/A (N/A)200,000 .. 500,0000%00:00 (00:00)Ayacat GamesAyacat Games
1085 CompactO - Idle Game Jun 30, 2021 $2.99N/A (N/A)0 .. 20,0000%00:00 (00:00)Considera Games LLCConsidera Core LLC
1086 BeeFense BeeMastered Jun 24, 2021 $9.99N/A (N/A)0 .. 20,0000%00:00 (00:00)ByteRockers' GamesByteRockers' Games
1087 Equestrian Training Jun 24, 2021 $3.74N/A (N/A)0 .. 20,0000%00:00 (00:00)Smart Tale GamesMicroids
1088 *NEW* SCUFFED EPIC VISUAL NOVEL Jun 23, 2021 FreeN/A (N/A)0 .. 20,0000%00:00 (00:00)Chris Shanaz, Scuffed Developmentshanaz game studios
1089 WORDLAND 3 Jun 17, 2021 $1.99N/A (N/A)0 .. 20,0000%00:00 (00:00)Robotizar GamesRobotizar Games
1090 Belle-de-Nuit Jun 17, 2021 $4.99N/A (N/A)0 .. 20,0000%00:00 (00:00)Heart's ChoiceHeart's Choice
1091 The Terrible Persistence of Memory Jun 15, 2021 $1.99N/A (N/A)0 .. 20,0000%00:00 (00:00)Pixels and Pins StudioPixels and Pins Studio
1092 The Chatters Show Jun 11, 2021 $4.99N/A (N/A)0 .. 20,0000%00:00 (00:00)FumetsuHitoFumetsuHito
1093 The Hurt in Secret Jun 11, 2021 $2.99N/A (N/A)0 .. 20,0000%00:00 (00:00)Soaker / 大貍, MaouCat Studio / 魔王貓工作室, MuGeNeon / 無限Acrossbeavers Studio/翻滾海貍工作室
1094 Motesolo : No Girlfriend Since Birth Jun 9, 2021 $11.49N/A (N/A)50,000 .. 100,0000%00:00 (00:00)INDICAVA INTERACTIVEINDICAVA INTERACTIVE
1095 Would you like to run an idol café? Jun 7, 2021 $2.99N/A (N/A)0 .. 20,0000%00:00 (00:00)StarlightTree GamesWinged Cloud
1096 Rhythm Hero Jun 4, 2021 $3.99N/A (N/A)0 .. 20,0000%00:00 (00:00)WonTak GamesWonTak Games
1097 The Kotonoha Sisters and the Legend of Lysant Island Jun 3, 2021 $16.99N/A (N/A)20,000 .. 50,0000%00:00 (00:00)DeskClub GamesDeskClub Games
1098 Far Away Train Jun 3, 2021 $18.99N/A (N/A)0 .. 20,0000%00:00 (00:00)Tatamibeya 畳部屋Tatamibeya 畳部屋
1099 WORDLAND 2 Jun 3, 2021 $1.99N/A (N/A)0 .. 20,0000%00:00 (00:00)Robotizar GamesRobotizar Games
1100 Tennis Elbow Manager 2 Jun 2, 2021 $13.49N/A (N/A)0 .. 20,0000%00:00 (00:00)Mana GamesMana Games
1101 Memories of East Coast Jun 1, 2021 $2.99N/A (N/A)0 .. 20,0000%00:00 (00:00)Roomah GamingRoomah Gaming
1102 Setup Developer Tool 2021 May 31, 2021 $19.99N/A (N/A)0 .. 20,0000%00:00 (00:00)Tim McArthurMonkey Face Software LLC
1103 hallucination - 幻觉 May 28, 2021 $9.99N/A (N/A)20,000 .. 50,0000%00:00 (00:00)灰烬天国灰烬天国
1104 The Blind Of The New World May 28, 2021 $9.99N/A (N/A)0 .. 20,0000%00:00 (00:00)TALESSHOP Co., Ltd.TALESSHOP Co., Ltd.
1105 VERSUS: The Deathscapes May 27, 2021 $5.99N/A (N/A)0 .. 20,0000%00:00 (00:00)Choice of GamesChoice of Games
1106 Ichth.ys May 25, 2021 $9.99N/A (N/A)50,000 .. 100,0000%00:00 (00:00)Steganographia GamesSteganographia Games
1107 Hiragana Katakana Ninja May 24, 2021 $1.99N/A (N/A)0 .. 20,0000%00:00 (00:00)Wholetone GamesWholetone Games
1108 The Sin May 20, 2021 $4.99N/A (N/A)50,000 .. 100,0000%00:00 (00:00)Baba NuraBaba Nura, Feodosiy
1109 If It Please the Court May 20, 2021 $6.99N/A (N/A)0 .. 20,0000%00:00 (00:00)Heart's ChoiceHeart's Choice
1110 Realm of Night: The Forbidden Knowledge May 20, 2021 $13.99N/A (N/A)0 .. 20,0000%00:00 (00:00)Mitredel studioMitredel
1111 Kosmo Laika : Guide to Space May 19, 2021 $1.99N/A (N/A)0 .. 20,0000%00:00 (00:00)Animalle StudioAnimalle Studio
1112 Lady in Mystery May 15, 2021 $24.99N/A (N/A)0 .. 20,0000%00:00 (00:00)nolsoftnolsoft
1113 JPN Burst May 14, 2021 $4.99N/A (N/A)0 .. 20,0000%00:00 (00:00)Thomas NgoThomas Ngo
1114 Fantasy Tavern Sextet -Vol.3 Postlude Days- May 13, 2021 $12.99N/A (N/A)0 .. 20,0000%00:00 (00:00)iMel, qureatequreate
1115 Untrusted May 9, 2021 $3.74N/A (N/A)100,000 .. 200,0000%00:00 (00:00)evolvedlabsevolvedlabs
1116 Try To Remember May 7, 2021 $2.99N/A (N/A)0 .. 20,0000%00:00 (00:00)Sergi Monreal Ibañez, Miquel Villalobos Verde, Carlos Diaz Muñoz, Kainaris AlzabaarSergi Monreal Ibañez, Miquel Villalobos Verde, Carlos Diaz Muñoz, Kainaris Alzabaar
1117 The Sekimeiya: Spun Glass May 6, 2021 $14.99N/A (N/A)0 .. 20,0000%00:00 (00:00)Trinitite TeamTrinitite Team
1118 Lux, City of Secrets May 6, 2021 $7.99N/A (N/A)0 .. 20,0000%00:00 (00:00)Hosted GamesHosted Games
1119 WORDLAND May 5, 2021 $1.99N/A (N/A)0 .. 20,0000%00:00 (00:00)Robotizar GamesRobotizar Games
1120 Eternia: Pet Whisperer May 5, 2021 $2.99N/A (N/A)0 .. 20,0000%00:00 (00:00)Shirakumo GamesShirakumo Games
1121 The Simplest Game May 5, 2021 $1.99N/A (N/A)0 .. 20,0000%00:00 (00:00)Simple StudioSimple Studio
1122 Anachronism\> May 4, 2021 FreeN/A (N/A)20,000 .. 50,0000%00:00 (00:00)EloThereEasy~ Interactive Software
1123 My Dear Prince Apr 30, 2021 $9.99N/A (N/A)0 .. 20,0000%00:00 (00:00)ebi-himeebi-hime
1124 Tales of Farhollow Apr 30, 2021 $1.99N/A (N/A)0 .. 20,0000%00:00 (00:00)Gabaghoul Games LLCGabaghoul Games LLC
1125 喰人記 Apr 29, 2021 $11.99N/A (N/A)0 .. 20,0000%00:00 (00:00)SukoyakaMeteorSukoyakaMeteor
1126 Before Began 开始之前 Apr 29, 2021 $2.99N/A (N/A)0 .. 20,0000%00:00 (00:00)TSW_HanTSW
1127 大禹治水 Flood Fighting Hero Apr 28, 2021 $6.99N/A (N/A)20,000 .. 50,0000%00:00 (00:00)北京图之未来信息科技有限公司图之未来
1128 铁道少女:梦想轨迹 2.0 Railway To Dream Apr 27, 2021 $6.99N/A (N/A)0 .. 20,0000%00:00 (00:00)39Softmoe north railway
1129 Cinemoji: Oscar Apr 23, 2021 $0.99N/A (N/A)0 .. 20,0000%00:00 (00:00)Gray BossGray Boss
1130 Aventura Pisicului Pierdut Apr 19, 2021 $2.99N/A (N/A)0 .. 20,0000%00:00 (00:00)Dragut Stefan, Aurora BorealaDragut Stefan
1131 Sakura Forest Girls Apr 19, 2021 $2.49N/A (N/A)0 .. 20,0000%00:00 (00:00)Winged CloudWinged Cloud
1132 Polgar: Magic detective Apr 15, 2021 $11.99N/A (N/A)0 .. 20,0000%00:00 (00:00)Polo de Contenidos DigitalesPolo de Contenidos Digitales
1133 Day Repeat Day Apr 13, 2021 $1.99N/A (N/A)0 .. 20,0000%00:00 (00:00)Kimmo LahtinenKimmo Factor Oy
1134 Curiosity Apr 11, 2021 $3.99N/A (N/A)0 .. 20,0000%00:00 (00:00)NonStandardCodeNonStandardCode
1135 Girls in Glasses Apr 9, 2021 $9.99N/A (N/A)0 .. 20,0000%00:00 (00:00)nostalgiaSekai Project
1136 单身狗的最后机会 Apr 8, 2021 $0.99N/A (N/A)0 .. 20,0000%00:00 (00:00)小鱼工作室小鱼工作室
1137 Cinemoji Apr 8, 2021 $0.59N/A (N/A)0 .. 20,0000%00:00 (00:00)Gray BossGray Boss
1138 Inkslinger Apr 8, 2021 $4.99N/A (N/A)20,000 .. 50,0000%00:00 (00:00)GatewayGateway
1139 Scarlet Hood and the Wicked Wood Apr 8, 2021 $14.99N/A (N/A)0 .. 20,0000%00:00 (00:00)Devespresso GamesHeadup Publishing
1140 The Mermaid of Zennor Apr 8, 2021 $4.99N/A (N/A)0 .. 20,0000%00:00 (00:00)ebi-himeebi-hime
1141 The Wild Case Apr 6, 2021 $8.99N/A (N/A)50,000 .. 100,0000%00:00 (00:00)Specialbit StudioSpecialbit Studio
1142 Reconnect Apr 5, 2021 $1.99N/A (N/A)0 .. 20,0000%00:00 (00:00)HFOTAHFOTA
1143 Transporter Manager Tycoon Apr 2, 2021 $9.99N/A (N/A)0 .. 20,0000%00:00 (00:00)Softwaves, New Games WavesSoftwaves Dist.
1144 Keeper of the Day and Night Apr 1, 2021 $7.99N/A (N/A)0 .. 20,0000%00:00 (00:00)Hosted GamesHosted Games
1145 StudyX - Save Game Codes & Study Any Subject Mar 31, 2021 $4.99N/A (N/A)0 .. 20,0000%00:00 (00:00)PlazSoftPlazSoft
1146 Bed Survival! Mar 29, 2021 N/AN/A (N/A)0 .. 20,0000%00:00 (00:00)AvoCavoAvoCavo
1147 Pro Wrestling Sim Mar 29, 2021 $19.99N/A (N/A)0 .. 20,0000%00:00 (00:00)Pro Wrestling SimPro Wrestling Sim
1148 Paid Trade Mar 29, 2021 $0.99N/A (N/A)0 .. 20,0000%00:00 (00:00)Jonas TagJonas Tag
1149 记得我 Mar 26, 2021 $2.99N/A (N/A)0 .. 20,0000%00:00 (00:00)七彩绘色游戏七彩绘色游戏
1150 只是一座楼 Mar 24, 2021 $3.99N/A (N/A)0 .. 20,0000%00:00 (00:00)虾狐乱动画虾狐乱动画
1151 Venus: Improbable Dream Mar 19, 2021 $12.99N/A (N/A)0 .. 20,0000%00:00 (00:00)BorealisBorealis
1152 重叠·前夜谭:猫与少女 Mar 19, 2021 $1.99N/A (N/A)0 .. 20,0000%00:00 (00:00)顽童计划顽童计划
1153 Mini Words: Polyglot Mar 18, 2021 $1.99N/A (N/A)0 .. 20,0000%00:00 (00:00)Mens Sana InteractiveMens Sana Interactive
1154 Deep Therapy Mar 15, 2021 $1.99N/A (N/A)0 .. 20,0000%00:00 (00:00)Difranal StudioDifranal Studio
1155 Blobert Mar 13, 2021 $0.99N/A (N/A)0 .. 20,0000%00:00 (00:00)Dean CampagnoloDean Campagnolo
1156 Occultism Limbo: The ritual of little nightmares Mar 10, 2021 $4.99N/A (N/A)0 .. 20,0000%00:00 (00:00)Trigger the MonsterCooking and Publishing
1157 Raptors of SouthEdge Mar 9, 2021 $2.99N/A (N/A)50,000 .. 100,0000%00:00 (00:00)SouthEdge StudiosSouthEdge Studios
1158 Bunker Down Feb 27, 2021 $0.99N/A (N/A)0 .. 20,0000%00:00 (00:00)Something Something GamesSomething Something Games
1159 My Dear Frankenstein Feb 26, 2021 $4.99N/A (N/A)0 .. 20,0000%00:00 (00:00)NUMBER7NUMBER7
1160 Majikoi! Love Me Seriously! Feb 26, 2021 $34.99N/A (N/A)0 .. 20,0000%00:00 (00:00)Minato SoftJAST USA
1161 InfiniteCorp: Cyberpunk Cards Feb 22, 2021 $3.99N/A (N/A)0 .. 20,0000%00:00 (00:00)T-BullT-Bull
1162 Niinamigota Feb 21, 2021 $3.99N/A (N/A)0 .. 20,0000%00:00 (00:00)Colin Sandquist, Kadokawa Future Publishing, EnterbrainSandquist Games, Kadokawa Future Publishing, Enterbrain
1163 Endless Furry Clicker Feb 20, 2021 $0.49N/A (N/A)0 .. 20,0000%00:00 (00:00)Tegridy Made GamesTegridy Made Games
1164 Buddy Simulator 1984 Feb 18, 2021 $9.99N/A (N/A)100,000 .. 200,0000%00:00 (00:00)Not a Sailor StudiosNot a Sailor Studios
1165 RONIN: Two Souls CHAPTER 1 Feb 18, 2021 $9.9N/A (N/A)50,000 .. 100,0000%00:00 (00:00)M11 StudioM11 Studio
1166 Learn Programming: Python - Retro Feb 18, 2021 $2.99N/A (N/A)0 .. 20,0000%00:00 (00:00)Niema MoshiriNiema Moshiri
1167 Half Past Fate: Romantic Distancing Feb 14, 2021 $5.99N/A (N/A)0 .. 20,0000%00:00 (00:00)Serenity ForgeWay Down Deep
1168 Distant Transmission Feb 12, 2021 $4.99N/A (N/A)0 .. 20,0000%00:00 (00:00)Caleb FossCaleb Foss
1169 Suicide Countdown: 7 Days Feb 12, 2021 $1.99N/A (N/A)100,000 .. 200,0000%00:00 (00:00)致意致意
1170 Aquadine Feb 11, 2021 $19.99N/A (N/A)20,000 .. 50,0000%00:00 (00:00)SoftColorsSoftColors
1171 飞花令 春饼 Feb 11, 2021 $0.99N/A (N/A)0 .. 20,0000%00:00 (00:00)CHEN YUANJICHEN YUANJI
1172 CELLAR | Roguelike + Quest Feb 10, 2021 $9.99N/A (N/A)20,000 .. 50,0000%00:00 (00:00)Pavel DivnenkoPavel Divnenko
1173 第五件遗留物 Feb 8, 2021 $4.99N/A (N/A)20,000 .. 50,0000%00:00 (00:00)狼烟游戏studio, 雪糕棒NiceBoat, 狼烟游戏studio
1174 Leap of Love - Safe Edition Feb 7, 2021 $6.99N/A (N/A)0 .. 20,0000%00:00 (00:00)Andrealphus GamesAndreaphus Games
1175 Comet 64 Feb 5, 2021 $14.99N/A (N/A)20,000 .. 50,0000%00:00 (00:00)Onur Ayaswhat sorceress this
1176 The Great Plague Exodus Feb 5, 2021 $7.99N/A (N/A)0 .. 20,0000%00:00 (00:00)Priory GamesPriory Games
1177 Cartridge Monsters Feb 4, 2021 FreeN/A (N/A)20,000 .. 50,0000%00:00 (00:00)Happenstance GamesHappenstance Games
1178 My Ten-day Girlfriend Feb 4, 2021 $1.99N/A (N/A)20,000 .. 50,0000%00:00 (00:00)NinePlus StudioSoma Games
1179 Firework Feb 3, 2021 $9.99N/A (N/A)500,000 .. 1,000,0002.04%02:28 (00:49)Shiying StudioGamera Games
1180 The Sych story Feb 2, 2021 $0.99N/A (N/A)20,000 .. 50,0000%00:00 (00:00)Svyatoslav BurobinSvyatoslav Burobin
1181 Coffee flavor of love 咖啡甜恋 Feb 1, 2021 $3.99N/A (N/A)0 .. 20,0000%00:00 (00:00)P.G.制作组, V.P. TEAM33ParadoX&igstore
1182 Dark Podval Feb 1, 2021 $0.99N/A (N/A)50,000 .. 100,0000%00:00 (00:00)ХаБеБуPiece Of Voxel
1183 Annual Intruders Jan 30, 2021 N/AN/A (N/A)0 .. 20,0000%00:00 (00:00)ClickBuildGamesClickBuildGames
1184 The USB Stick Found in the Grass Jan 29, 2021 $9.99N/A (N/A)50,000 .. 100,0000%00:00 (00:00)Marcin BorkowskiBPP
1185 Gladiator Manager Jan 28, 2021 $7.99N/A (N/A)0 .. 20,0000%00:00 (00:00)Eternity GamesEternity Games
1186 Fate of the Storm Gods Jan 28, 2021 $6.99N/A (N/A)0 .. 20,0000%00:00 (00:00)Choice of GamesChoice of Games
1187 Ghost in the pool Jan 27, 2021 $4.99N/A (N/A)50,000 .. 100,0000%00:00 (00:00)CASCHA GAMESCASCHA GAMES
1188 Memories of Tomorrow Jan 26, 2021 $1.99N/A (N/A)0 .. 20,0000%00:00 (00:00)Digital Bard GamesDigital Bard Games
1189 Crossword City Chronicles Jan 25, 2021 $4.99N/A (N/A)0 .. 20,0000%00:00 (00:00)Trailblazer GamesTrailblazer Games
1190 Open Sorcery: Sea++ Jan 25, 2021 $14.99N/A (N/A)0 .. 20,0000%00:00 (00:00)Abigail CorfmanOpen Sorcery Games
1191 Typing Fingers - Enemy Jan 24, 2021 $14.99N/A (N/A)0 .. 20,0000%00:00 (00:00)Foriero s.r.o.Foriero s.r.o.
1192 夏日的回忆 Jan 23, 2021 $10.99N/A (N/A)20,000 .. 50,0000%00:00 (00:00)Shao LeiShao Lei
1193 Desktop NEKO Girl Jan 22, 2021 $5.99N/A (N/A)0 .. 20,0000%00:00 (00:00)moon soulmoon soul
1194 Who Needs a Hero? Jan 21, 2021 $2.99N/A (N/A)50,000 .. 100,0000%00:00 (00:00)Henrique Faitta Chitolina, Pidro SoftBaby Stone Studios
1195 The Zodiac Trial Jan 21, 2021 $14.99N/A (N/A)50,000 .. 100,0000%00:00 (00:00)ThemisianThemisian
1196 No Lights Jan 21, 2021 $0.99N/A (N/A)0 .. 20,0000%00:00 (00:00)Master StudiosMaster Studios
1197 Super Dango Jan 19, 2021 $2.99N/A (N/A)0 .. 20,0000%00:00 (00:00)Super RiceSuper Rice
1198 Rebels - Under the Spell of Magic (Chapter 1) Jan 19, 2021 $3.99N/A (N/A)0 .. 20,0000%00:00 (00:00)BrotherWood GamesBrotherWood Games
1199 戾谈 Jan 18, 2021 FreeN/A (N/A)200,000 .. 500,0000%00:00 (00:00)SPG MistarilleSPG Mistarille
1200 Doomsday Room Jan 15, 2021 $19.99N/A (N/A)0 .. 20,0000%00:00 (00:00)Doubleton Game StudioDoubleton Game Studio
1201 Knights College Jan 15, 2021 $24.99N/A (N/A)50,000 .. 100,0000%00:00 (00:00)KAIJYU-09KAIJYU-09
1202 AI Dungeon—Traveler Edition Jan 15, 2021 FreeN/A (N/A)100,000 .. 200,0000%00:00 (00:00)LatitudeLatitude
1203 Lotus Reverie: First Nexus Jan 14, 2021 $15.99N/A (N/A)0 .. 20,0000%00:00 (00:00)Keinart LobreKeinart Lobre
1204 Amazing Pyramids: Rebirth Jan 14, 2021 $4.89N/A (N/A)0 .. 20,0000%00:00 (00:00)Oleg SeredaOleg Sereda
1205 Quarantine: Global Pandemic Jan 13, 2021 $3.99N/A (N/A)20,000 .. 50,0000%00:00 (00:00)Buck StudiosBuck Studios
1206 The Astronomy Game Jan 12, 2021 $9.99N/A (N/A)0 .. 20,0000%00:00 (00:00)Matthew PenaMatthew Pena
1207 Death off the Cuff Jan 11, 2021 $2.99N/A (N/A)20,000 .. 50,0000%00:00 (00:00)Simon ChristiansenSiChris Productions
1208 그랑 엠파이어 Jan 11, 2021 FreeN/A (N/A)0 .. 20,0000%00:00 (00:00)유진게임즈유진게임즈
1209 The Labyrinth Jan 8, 2021 $4.99N/A (N/A)20,000 .. 50,0000%00:00 (00:00)Alexander SpillmanAlexander Spillman
1210 Relics of the Lost Age Jan 7, 2021 $7.99N/A (N/A)0 .. 20,0000%00:00 (00:00)Hosted GamesHosted Games
1211 Chat Millions - Stream Quiz Game Jan 1, 2021 $4.99N/A (N/A)0 .. 20,0000%00:00 (00:00)Britnet MediaBritnet Media
1212 CRYPTIC Dec 25, 2020 $2.99N/A (N/A)0 .. 20,0000%00:00 (00:00)Shoho GamesShoho Games
1213 Yolo Space Hacker Dec 24, 2020 $24.99N/A (N/A)0 .. 20,0000%00:00 (00:00)BKNLabBKNLab
1214 像素男友 语音完整版 Dec 24, 2020 $3.99N/A (N/A)0 .. 20,0000%00:00 (00:00)HIROKO IMAKIPujia8 Studio
1215 约会模拟器:原型 Dec 24, 2020 $0.99N/A (N/A)0 .. 20,0000%00:00 (00:00)WW
1216 Think_ Dec 25, 2020 $1.99N/A (N/A)0 .. 20,0000%00:00 (00:00)MaxPIMaxPI
1217 Sayonara Electric Dec 23, 2020 $9.99N/A (N/A)0 .. 20,0000%00:00 (00:00)KaminGamesKaminGames
1218 Bloody Service Dec 22, 2020 $5.99N/A (N/A)20,000 .. 50,0000%00:00 (00:00)CASECASE
1219 Cinderella Phenomenon: Evermore Dec 22, 2020 $9.99N/A (N/A)0 .. 20,0000%00:00 (00:00)DicesukiDicesuki
1220 Pon Para and the Unconquerable Scorpion Dec 17, 2020 $8.99N/A (N/A)0 .. 20,0000%00:00 (00:00)Choice of GamesChoice of Games
1221 Unscripted Dec 17, 2020 $6.99N/A (N/A)20,000 .. 50,0000%00:00 (00:00)Marquis KurtMarquis Kurt
1222 The Luminous Underground Dec 17, 2020 $7.99N/A (N/A)0 .. 20,0000%00:00 (00:00)Choice of GamesChoice of Games
1223 NETABOKU -A robot girl changes my life as a bedridden boy- Dec 17, 2020 $9.99N/A (N/A)20,000 .. 50,0000%00:00 (00:00)Atelier ATICAtelier ATIC
1224 Franchise Hockey Manager 7 Dec 16, 2020 $19.99N/A (N/A)0 .. 20,0000%00:00 (00:00)Out of the Park Developments, Minos GamesOut of the Park Developments
1225 Ken ga Kimi: Momoyo Tsuzuri Dec 15, 2020 $49.99N/A (N/A)0 .. 20,0000%00:00 (00:00)RejetBeijing Happy Entertainment Technology
1226 Playing Pride & Prejudice 1: An Austen Armoire Dec 15, 2020 $11.99N/A (N/A)0 .. 20,0000%00:00 (00:00)MInerva InteractiveMinerva Interactive
1227 Orwell's Animal Farm Dec 10, 2020 $9.99N/A (N/A)50,000 .. 100,0000%00:00 (00:00)NerialThe Dairymen
1228 Super tanks RPG Dec 9, 2020 $0.99N/A (N/A)20,000 .. 50,0000%00:00 (00:00)SRV-gamePiece Of Voxel
1229 Text Twisted Pro Dec 9, 2020 N/AN/A (N/A)0 .. 20,0000%00:00 (00:00)Tuga StudiosTuga Studios
1230 Silmaris: Dice Kingdom Dec 3, 2020 $9.99N/A (N/A)0 .. 20,0000%00:00 (00:00)PyrogenMi-Clos Studio, Fractale
1231 Control Over Dec 2, 2020 $5.99N/A (N/A)0 .. 20,0000%00:00 (00:00)AshcraftAshcraft
1232 Wet steps Dec 2, 2020 $2.99N/A (N/A)20,000 .. 50,0000%00:00 (00:00)Orika NekoiMoonworks
1233 EndlessShinyBlues Nov 30, 2020 $0.49N/A (N/A)0 .. 20,0000%00:00 (00:00)YouthAndLoveYouthAndLove
1234 The Wednesday Nov 30, 2020 N/AN/A (N/A)50,000 .. 100,0000%00:00 (00:00)GamBridzyGamBridzy
1235 吾光笔记Holimas Z Notebook Nov 29, 2020 $4.99N/A (N/A)20,000 .. 50,0000%00:00 (00:00)Static springStatic spring
1236 Field Hospital: Dr. Taylor's Story Nov 27, 2020 $4.99N/A (N/A)0 .. 20,0000%00:00 (00:00)Gard InteractiveGard Interactive
1237 Overslept Nov 22, 2020 $1.99N/A (N/A)20,000 .. 50,0000%00:00 (00:00)Justus YewJarze Games
1238 Lighthouse Keeper Nov 22, 2020 $0.99N/A (N/A)50,000 .. 100,0000%00:00 (00:00)Nikita KafMissing Calm
1239 The Prologue to a Dream of Home Nov 20, 2020 N/AN/A (N/A)0 .. 20,0000%00:00 (00:00)Sig (KN1053)Sig (KN1053)
1240 狂潮-Staggering Through The Dark Nov 18, 2020 $1.99N/A (N/A)0 .. 20,0000%00:00 (00:00)Longxi ZhaoLongxi Zhao
1241 Silicon Valley Investor Nov 18, 2020 $2.99N/A (N/A)20,000 .. 50,0000%00:00 (00:00)Revolver NineRevolver Nine
1242 Super Ultimatum Quiz Nov 16, 2020 $0.49N/A (N/A)0 .. 20,0000%00:00 (00:00)Ruskija Game ExperienceTero Lunkka
1243 Seiga Kaku uses her amazing Taoist arts and gives you a life lesson Nov 13, 2020 $0.99N/A (N/A)20,000 .. 50,0000%00:00 (00:00)Skuhataagyall devSkuhataagyall dev
1244 I'm Oh, So Busy...: A Week with Yoshimi Nov 13, 2020 $9.99N/A (N/A)0 .. 20,0000%00:00 (00:00)The Berry GuildThe Berry Guild
1245 Jolly Good: Cakes and Ale Nov 12, 2020 $11.99N/A (N/A)0 .. 20,0000%00:00 (00:00)Choice of GamesChoice of Games
1246 墨心:波云诡船 Nov 12, 2020 $2.99N/A (N/A)100,000 .. 200,0000%00:00 (00:00)1001 Studio1001 Studio
1247 The Adventurer - Episode 2: New Dreams Nov 11, 2020 $0.99N/A (N/A)50,000 .. 100,0000%00:00 (00:00)ZemunBRESA Industry
1248 Television Trivia Nov 6, 2020 $0.99N/A (N/A)0 .. 20,0000%00:00 (00:00)LoadUpGames.comLoadUpGames.com
1249 1 For Yes, 0 For No Nov 6, 2020 N/AN/A (N/A)0 .. 20,0000%00:00 (00:00)Alyssa GenereauAlyssa Genereau
1250 Mini Words: Top Games Nov 5, 2020 $0.99N/A (N/A)0 .. 20,0000%00:00 (00:00)Mens Sana InteractiveMens Sana Interactive
1251 The Remission of Sins Nov 5, 2020 $11.99N/A (N/A)20,000 .. 50,0000%00:00 (00:00)KaminGamesTsukiakari Studios, KaminGames
1252 Fateful End: True Case Files Nov 3, 2020 $9.99N/A (N/A)0 .. 20,0000%00:00 (00:00)GenuineGiiku Games
1253 Secret Agent Allan Martin in ... Phoenix Erupting Nov 3, 2020 $1.99N/A (N/A)100,000 .. 200,0000%00:00 (00:00)SC GamesSC Games
1254 Choices That Matter: And The Sun Went Out Nov 3, 2020 $5.99N/A (N/A)20,000 .. 50,0000%00:00 (00:00)Tin Man GamesTin Man Games
1255 Sakura Succubus 3 Nov 2, 2020 $2.99N/A (N/A)20,000 .. 50,0000%00:00 (00:00)Winged CloudWinged Cloud
1256 Lurkers Nov 2, 2020 $5.99N/A (N/A)0 .. 20,0000%00:00 (00:00)Ertal GamesErtal Games
1257 The Hunter's Journals - Red Ripper Oct 31, 2020 $5.99N/A (N/A)0 .. 20,0000%00:00 (00:00)Grindwheel GamesGrindwheel Games
1258 恋爱绮谭~不存在的夏天~ Oct 31, 2020 $8.99N/A (N/A)50,000 .. 100,0000%00:00 (00:00)Never Knows BestNever Knows Best
1259 Maitetsu:Last Run!! Oct 30, 2020 $34.99N/A (N/A)100,000 .. 200,0000%00:00 (00:00)LoseHIKARI FIELD
1260 Touhou Gensokyo Visitor Oct 30, 2020 $3.99N/A (N/A)0 .. 20,0000%00:00 (00:00)GameGate69Gate
1261 Twisted: A Dark Fairytale Oct 30, 2020 $9.99N/A (N/A)0 .. 20,0000%00:00 (00:00)Fablesoft StudiosFablesoft Studios
1262 Starlight Shores May 7, 2021 $3.99N/A (N/A)0 .. 20,0000%00:00 (00:00)Delphinium InteractiveDelphinium Interactive
1263 Marcella Moon: Saboteurs on the River Oct 29, 2020 $7.99N/A (N/A)0 .. 20,0000%00:00 (00:00)Hidden Ocean GamesHidden Ocean Games
1264 Who Wants To Be A Millionaire Oct 29, 2020 $29.99N/A (N/A)0 .. 20,0000%00:00 (00:00)Appeal Studios, Balio StudioMicroids
1265 Fast Typing Master Oct 28, 2020 $0.49N/A (N/A)0 .. 20,0000%00:00 (00:00)Boogygames StudiosBoogygames Studios
1266 自西徂东 Oct 28, 2020 $5N/A (N/A)0 .. 20,0000%00:00 (00:00)为了共和开发团队为了共和发行团队
1267 PAGO FOREST: DRAGON'S REVENGE Oct 27, 2020 $2.99N/A (N/A)50,000 .. 100,0000%00:00 (00:00)FuturtechNova's Army
1268 Monster Prom 2: Monster Camp Oct 23, 2020 $11.99N/A (N/A)200,000 .. 500,0000%00:00 (00:00)Beautiful GlitchBeautiful Glitch
1269 TEXT: Russia Oct 21, 2020 $2.99N/A (N/A)0 .. 20,0000%00:00 (00:00)Laush Dmitriy SergeevichLaush Studio
1270 The Metamorphosis Oct 19, 2020 $7.99N/A (N/A)0 .. 20,0000%00:00 (00:00)Izmir Games CollectiveIzmir Games Collective
1271 Stranded 2 Oct 19, 2020 $3.99N/A (N/A)0 .. 20,0000%00:00 (00:00)JimJams GamesJimJams Games
1272 KIRO Oct 16, 2020 $2.99N/A (N/A)0 .. 20,0000%00:00 (00:00)BlekohBlekoh
1273 Fox Spirit: A Two-Tailed Adventure Oct 15, 2020 $6.99N/A (N/A)0 .. 20,0000%00:00 (00:00)Choice of GamesChoice of Games
1274 10mg: SLASHER, Interrupted Oct 15, 2020 $1.99N/A (N/A)0 .. 20,0000%00:00 (00:00)Softerror Interactive10mg
1275 10mg: Cover Me In Leaves Oct 15, 2020 $1.99N/A (N/A)0 .. 20,0000%00:00 (00:00)Elliot Herriman10mg
1276 The Haunted House of Doom Oct 13, 2020 $3.99N/A (N/A)20,000 .. 50,0000%00:00 (00:00)Paul BirdMarjupi Games
1277 Unmemory Oct 13, 2020 $9.99N/A (N/A)100,000 .. 200,0000%00:00 (00:00)PATRONES & ESCONDITESPATRONES & ESCONDITES
1278 Too Different Oct 9, 2020 $5.99N/A (N/A)50,000 .. 100,0000%00:00 (00:00)Hosted GamesHosted Games
1279 Throw Me in the River Oct 5, 2020 $2.99N/A (N/A)0 .. 20,0000%00:00 (00:00)Side GroupSide Group
1280 The HeartBeat Oct 5, 2020 $0.99N/A (N/A)20,000 .. 50,0000%00:00 (00:00)猫柚工作室猫柚工作室
1281 Love's Sweet Garnish 2 Oct 2, 2020 $16.99N/A (N/A)0 .. 20,0000%00:00 (00:00)Canvas+GardenSekai Project
1282 赛博侦探:艾尔塔特 Oct 1, 2020 $3.99N/A (N/A)0 .. 20,0000%00:00 (00:00)认真玩工作室认真玩工作室
1283 Draft Day Sports: Pro Football 2021 Oct 1, 2020 $19.99N/A (N/A)0 .. 20,0000%00:00 (00:00)Wolverine StudiosWolverine Studios
1284 Nice to NO you Oct 1, 2020 $4.99N/A (N/A)0 .. 20,0000%00:00 (00:00)QuaranTime GamesQuaranTime Games
1285 Takorita Meets Fries Sep 30, 2020 $4.99N/A (N/A)20,000 .. 50,0000%00:00 (00:00)ROSEVERTEROSEVERTE, Pleasant Rain Ltd
1286 BOT.vinnik Chess: Winning Patterns Sep 30, 2020 $0.99N/A (N/A)0 .. 20,0000%00:00 (00:00)Deep Green GamesAbyssal Studios
1287 Cauldrons of War - Barbarossa Sep 25, 2020 $14.99N/A (N/A)0 .. 20,0000%00:00 (00:00)Maestro CinetikGaming at Work
1288 Server is Down Sep 25, 2020 $6.99N/A (N/A)0 .. 20,0000%00:00 (00:00)DbVectra, AlexTykhDbVectra & AlexTykh
1289 CLEARWORLD Sep 25, 2020 N/AN/A (N/A)0 .. 20,0000%00:00 (00:00)TOEI ANIMATION CO., LTD., Plus 81Yggdrasill Interactive
1290 Vampire: The Masquerade — Night Road Sep 24, 2020 $11.99N/A (N/A)50,000 .. 100,0000%00:00 (00:00)Choice of GamesChoice of Games
1291 LA FORET DE PAGO : LA VENGEANCE DU DRAGON Sep 24, 2020 $2.99N/A (N/A)20,000 .. 50,0000%00:00 (00:00)FuturtechNova's Army
1292 Living in the Ending World Sep 22, 2020 N/AN/A (N/A)0 .. 20,0000%00:00 (00:00)illuCalabSekai Project
1293 My Vow to My Liege Sep 21, 2020 $9.99N/A (N/A)100,000 .. 200,0000%00:00 (00:00)YETU GAME方块游戏(CubeGame)
1294 ELISEISK 2074 Sep 20, 2020 $0.75N/A (N/A)0 .. 20,0000%00:00 (00:00)Indie NinjasIndie Ninjas
1295 Dallen Clicker Ultimate Sep 20, 2020 $0.99N/A (N/A)0 .. 20,0000%00:00 (00:00)LarsonsoftLarsonsoft
1296 Journey of the Broken Circle Sep 18, 2020 $9.99N/A (N/A)0 .. 20,0000%00:00 (00:00)Lovable Hat CultNakana.io, Lovable Hat Cult
1297 Chaotic Airport Construction Manager Sep 17, 2020 $7.99N/A (N/A)20,000 .. 50,0000%00:00 (00:00)Illusive ReflectionSteckenpferd Enterprises
1298 Hero or Villain: Battle Royale Sep 16, 2020 $6.99N/A (N/A)0 .. 20,0000%00:00 (00:00)Hosted GamesHosted Games
1299 Morth Sep 16, 2020 $0.99N/A (N/A)100,000 .. 200,0000%00:00 (00:00)Hidden Crawlspace StudiosHidden Crawlspace Studios
1300 Friendly Find Sep 4, 2020 $0.99N/A (N/A)20,000 .. 50,0000%00:00 (00:00)DgelioncelDgelioncel
1301 Bleeding Moons Sep 3, 2020 $9.99N/A (N/A)20,000 .. 50,0000%00:00 (00:00)IAN GamesPhoenix Online Publishing
1302 Cartomante – Fortune Teller Sep 1, 2020 $4.99N/A (N/A)20,000 .. 50,0000%00:00 (00:00)Garoa StudiosGaroa Studios
1303 Alias Aug 31, 2020 $5.99N/A (N/A)0 .. 20,0000%00:00 (00:00)PotatoIndustriesPotatoIndustries
1304 Move Code Lines Aug 28, 2020 $5.99N/A (N/A)0 .. 20,0000%00:00 (00:00)FewjixFewjix
1305 Roast Party Aug 28, 2020 FreeN/A (N/A)0 .. 20,0000%00:00 (00:00)FraccasDevFraccas
1306 Schastye Aug 27, 2020 $0.99N/A (N/A)50,000 .. 100,0000%00:00 (00:00)Garage HeathenMissing Calm
1307 A Lozenge Aug 26, 2020 $1.99N/A (N/A)0 .. 20,0000%00:00 (00:00)Party for IntrovertsParty for Introverts
1308 Dream Stone 2 Aug 26, 2020 $9.99N/A (N/A)20,000 .. 50,0000%00:00 (00:00)QuickSaveSA Industry
1309 Milk inside a bag of milk inside a bag of milk Aug 26, 2020 $0.99N/A (N/A)500,000 .. 1,000,0002.63%00:42 (00:14)Nikita KryukovMissing Calm
1310 Xtreme Typing Aug 25, 2020 $3.99N/A (N/A)0 .. 20,0000%00:00 (00:00)Individual SoftwareIndividual Software
1311 The Call Centre Aug 22, 2020 $0.99N/A (N/A)0 .. 20,0000%00:00 (00:00)Junaid JavedJunaid Javed
1312 Kidnapped! A Royal Birthday Aug 20, 2020 $4.99N/A (N/A)20,000 .. 50,0000%00:00 (00:00)Choice of GamesChoice of Games
1313 《Curse of disaster spirit : Anecdotes of mansion》 Aug 11, 2020 $7.99N/A (N/A)0 .. 20,0000%00:00 (00:00)Kaili GongKaili Gong
1314 To Be With You Jul 9, 2021 $2.99N/A (N/A)0 .. 20,0000%00:00 (00:00)Illus Seed GamesIllus Seed Games
1315 灰烬行星与填鸭少女 Aug 8, 2020 $199.99N/A (N/A)0 .. 20,0000%00:00 (00:00)世界末日高考组Dmk
1316 The Last Survey Aug 7, 2020 $4.99N/A (N/A)20,000 .. 50,0000%00:00 (00:00)Nicholas O'BrienNicholas O'Brien
1317 The Floating City Aug 6, 2020 $4.99N/A (N/A)0 .. 20,0000%00:00 (00:00)Hosted GamesHosted Games
1318 Textreme 2 Aug 6, 2020 $2.99N/A (N/A)0 .. 20,0000%00:00 (00:00)Ash K, Amber S. Fiddlemouth, Loboda MaksymAsh K
1319 Starship Intruder Aug 4, 2020 $2.99N/A (N/A)20,000 .. 50,0000%00:00 (00:00)Isocube SoftwareIsocube Software
1320 HEX Hacking Simulator Jul 31, 2020 $9.99N/A (N/A)0 .. 20,0000%00:00 (00:00)Solis StudiosSolis Studios
1321 3 min per day! Improve your aged eyes(Presbyopia) Jul 30, 2020 $0.62N/A (N/A)0 .. 20,0000%00:00 (00:00)Hellshake YanoHellshake Yano.
1322 Love Mystery Club Jul 30, 2020 $0.99N/A (N/A)20,000 .. 50,0000%00:00 (00:00)GMatrixGMatrix
1323 흡혈귀의 연애방법 Jul 27, 2020 $17.99N/A (N/A)0 .. 20,0000%00:00 (00:00)BlackRoom Co., LtdBlackRoom Co., Ltd
1324 My Dangerous Life Jul 23, 2020 $12.99N/A (N/A)0 .. 20,0000%00:00 (00:00)HituzigumoGiiku Games
1325 Werewolves 2: Pack Mentality Jul 23, 2020 $6.99N/A (N/A)0 .. 20,0000%00:00 (00:00)Choice of GamesChoice of Games
1326 Quiz Pro - Guess Pictures Jul 22, 2020 $0.59N/A (N/A)20,000 .. 50,0000%00:00 (00:00)Boogygames StudiosBoogygames Studios
1327 Divine Favor Jul 19, 2020 $0.99N/A (N/A)0 .. 20,0000%00:00 (00:00)Samantha ArehartSamantha Arehart
1328 Power Of Language Jul 18, 2020 $1.99N/A (N/A)20,000 .. 50,0000%00:00 (00:00)ZAZA
1329 My Isekai After Life is an RPG!? Jul 17, 2020 $5.99N/A (N/A)20,000 .. 50,0000%00:00 (00:00)Nyanko GamesNyanko Games
1330 迷雾之夏-The Vigilant Villa Jul 17, 2020 $7.99N/A (N/A)100,000 .. 200,0000%00:00 (00:00)知行合一游艺春秋
1331 Edge of Reality Jul 16, 2020 $0.99N/A (N/A)0 .. 20,0000%00:00 (00:00)Moon EclipseConglomerate 5
1332 We should talk. Jul 16, 2020 $6.99N/A (N/A)0 .. 20,0000%00:00 (00:00)Insatiable CycleWhitethorn Games, Insatiable Cycle
1333 Eternal Pain: Epiphany Jul 13, 2020 $2.99N/A (N/A)0 .. 20,0000%00:00 (00:00)GDOAD EIS DGDOAD EIS D
1334 归途 Jul 12, 2020 $74.99N/A (N/A)0 .. 20,0000%00:00 (00:00)xuhuixuhui
1335 Ephemera Jul 10, 2020 $7.99N/A (N/A)0 .. 20,0000%00:00 (00:00)Ashley MooreAshley Moore
1336 The Wake: Mourning Father, Mourning Mother Jul 10, 2020 $4.99N/A (N/A)20,000 .. 50,0000%00:00 (00:00)SomiSomi, indienova
1337 他人世界末 On-looker Jul 10, 2020 $8.99N/A (N/A)100,000 .. 200,0000%00:00 (00:00)8A studio昆布科技
1338 180 Files: The Aegis Project Jul 9, 2020 $5.99N/A (N/A)0 .. 20,0000%00:00 (00:00)Choice of GamesChoice of Games
1339 The Door Of Redemption Jun 30, 2020 $0.99N/A (N/A)0 .. 20,0000%00:00 (00:00)地航者地航者
1340 Surprise Party! Jun 30, 2020 FreeN/A (N/A)20,000 .. 50,0000%00:00 (00:00)Dylan RadovnikovicDylan Radovnikovic
1341 Space Court Jun 25, 2020 $2.99N/A (N/A)20,000 .. 50,0000%00:00 (00:00)Uphill PromiseUphill Promise
1342 机忆 Jun 18, 2020 $0.99N/A (N/A)0 .. 20,0000%00:00 (00:00)futurelovegamefuturelovegame
1343 Marcella Moon: Secret on the Hill Jun 15, 2020 $4.99N/A (N/A)20,000 .. 50,0000%00:00 (00:00)Hidden Ocean GamesHidden Ocean Games
1344 KANAPOCALYPSE Jun 13, 2020 $2.99N/A (N/A)0 .. 20,0000%00:00 (00:00)PamPam StudioPamPam Studio
1345 Light Years Apart Jun 11, 2020 $5.99N/A (N/A)0 .. 20,0000%00:00 (00:00)Choice of GamesChoice of Games
1346 War for Magincia Jun 4, 2020 $5.99N/A (N/A)0 .. 20,0000%00:00 (00:00)Hosted GamesHosted Games
1347 My Mud Game May 29, 2020 $15.99N/A (N/A)0 .. 20,0000%00:00 (00:00)Red Cat StudioRed Cat Studio
1348 The Hostage May 25, 2020 $0.99N/A (N/A)0 .. 20,0000%00:00 (00:00)Respect StudiosRespect Studios
1349 Out of Shapes May 19, 2020 $8.99N/A (N/A)0 .. 20,0000%00:00 (00:00)One Percent Games LLCOne Percent Games LLC
1350 Astonishing Baseball Manager 20 May 15, 2020 $7.99N/A (N/A)0 .. 20,0000%00:00 (00:00)AerilysZero One
1351 A Squire's Tale May 14, 2020 $4.99N/A (N/A)0 .. 20,0000%00:00 (00:00)Choice of GamesChoice of Games
1352 My Wet Leto Comic May 9, 2020 $7.99N/A (N/A)50,000 .. 100,0000%00:00 (00:00)Fusen StudioFusen Studio, Limor Gaming
1353 Real Life Plus Ver. Kaname Komatsuzaki May 8, 2020 $12.99N/A (N/A)0 .. 20,0000%00:00 (00:00)Fan-naSekai Project
1354 String Tyrant May 8, 2020 $4.99N/A (N/A)0 .. 20,0000%00:00 (00:00)Bottled StarlightBottled Starlight
1355 Wayhaven Chronicles: Book Two May 7, 2020 $8.99N/A (N/A)0 .. 20,0000%00:00 (00:00)Hosted GamesHosted Games
1356 Mask of the Plague Doctor Apr 23, 2020 $7.99N/A (N/A)0 .. 20,0000%00:00 (00:00)Choice of GamesChoice of Games
1357 HANGMAN II Apr 19, 2020 $0.99N/A (N/A)50,000 .. 100,0000%00:00 (00:00)Useless StudioUseless Studio
1358 Never Date Werewolves Apr 16, 2020 $4.99N/A (N/A)0 .. 20,0000%00:00 (00:00)Heart's ChoiceHeart's Choice
1359 Project DeepWeb Apr 15, 2020 $4.99N/A (N/A)0 .. 20,0000%00:00 (00:00)NightCat StudiosNightCat Studios
1360 Mini Words: Top Movies Apr 10, 2020 $0.99N/A (N/A)20,000 .. 50,0000%00:00 (00:00)Mens Sana InteractiveMens Sana Interactive
1361 Blackstone Academy for the Magical Arts Apr 9, 2020 $5.99N/A (N/A)0 .. 20,0000%00:00 (00:00)Choice of GamesChoice of Games
1362 Wanderlust: Transsiberian Apr 9, 2020 $4.99N/A (N/A)0 .. 20,0000%00:00 (00:00)Different TalesDifferent Tales
1363 The Aegis Saga Apr 2, 2020 $7.99N/A (N/A)0 .. 20,0000%00:00 (00:00)Hosted GamesHosted Games
1364 In Her Eyes Apr 1, 2020 $9.99N/A (N/A)0 .. 20,0000%00:00 (00:00)NotDeadLuna StudioNotDeadLuna Studio
1365 This Is Not The End Mar 31, 2020 $4.99N/A (N/A)0 .. 20,0000%00:00 (00:00)Cracked EggCracked Egg
1366 Over the Alps Mar 31, 2020 $12.99N/A (N/A)20,000 .. 50,0000%00:00 (00:00)Stave StudiosStave Studios
1367 QUIZ PRO! - General Knowledge Mar 28, 2020 $0.59N/A (N/A)0 .. 20,0000%00:00 (00:00)Boogygames StudiosBoogygames Studios
1368 Amairo Chocolate Mar 19, 2020 $24.99N/A (N/A)0 .. 20,0000%00:00 (00:00)Cabbage SoftSekai Project
1369 ASCIIDENT Mar 18, 2020 $9.99N/A (N/A)0 .. 20,0000%00:00 (00:00)UAB Puzzle LabBlack Maple Games
1370 The Travelyan Home Mar 12, 2020 $4.99N/A (N/A)0 .. 20,0000%00:00 (00:00)The Shepherd MoonThe Shepherd Moon
1371 CATharsis Mar 11, 2020 $2.99N/A (N/A)0 .. 20,0000%00:00 (00:00)MIYAKOpublMIYAKOpubl
1372 The Soul Stone War Mar 5, 2020 $7.99N/A (N/A)0 .. 20,0000%00:00 (00:00)Hosted GamesHosted Games
1373 World Seed Classic Feb 28, 2020 $5.99N/A (N/A)50,000 .. 100,0000%00:00 (00:00)KortesApe Egg
1374 Ironheart Feb 27, 2020 $6.99N/A (N/A)0 .. 20,0000%00:00 (00:00)Choice of GamesChoice of Games
1375 Zip! Speedster of Valiant City Feb 20, 2020 $4.99N/A (N/A)0 .. 20,0000%00:00 (00:00)Choice of GamesChoice of Games
1376 Survive In Russia Feb 17, 2020 $5.99N/A (N/A)0 .. 20,0000%00:00 (00:00)Alexander SablinAlexander Sablin
1377 apartment: a separated place Feb 14, 2020 $14.99N/A (N/A)0 .. 20,0000%00:00 (00:00)The Elsewhere CompanyThe Elsewhere Company
1378 El Remedio de Aldorf Feb 14, 2020 $3.99N/A (N/A)0 .. 20,0000%00:00 (00:00)Breakover InteractiveBreakover Interactive
1379 Chatventures Feb 14, 2020 $2.99N/A (N/A)0 .. 20,0000%00:00 (00:00)Sokpop CollectiveSokpop Collective
1380 A Player's Heart Feb 13, 2020 $5.99N/A (N/A)0 .. 20,0000%00:00 (00:00)Heart's ChoiceHeart's Choice
1381 Naked News Feb 7, 2020 $0.99N/A (N/A)0 .. 20,0000%00:00 (00:00)Randumb StudiosRandumb Studios
1382 The Shadow Society Feb 6, 2020 $8.99N/A (N/A)0 .. 20,0000%00:00 (00:00)Hosted GamesHosted Games
1383 Alpacapaca Double Dash Jan 28, 2020 $5.99N/A (N/A)0 .. 20,0000%00:00 (00:00)Synnergy Circle GamesSynnergy Circle Games
1384 Sky Pirates of Actorius Jan 23, 2020 $4.99N/A (N/A)0 .. 20,0000%00:00 (00:00)Choice of GamesChoice of Games
1385 Little One - A Visual Novel Jan 14, 2020 $9.99N/A (N/A)0 .. 20,0000%00:00 (00:00)Dim Sum OneGiiku Games
1386 Street Jam: The Rise Jan 9, 2020 $6.99N/A (N/A)0 .. 20,0000%00:00 (00:00)Hosted GamesHosted Games
1387 Em-A-Li Jan 1, 2020 $1.99N/A (N/A)0 .. 20,0000%00:00 (00:00)YobobYobob Games
1388 Medieval Monarch Jan 1, 2020 $9.99N/A (N/A)50,000 .. 100,0000%00:00 (00:00)Mr.LordyMr.Lordy
1389 An Odyssey: Echoes of War Dec 26, 2019 $6.99N/A (N/A)0 .. 20,0000%00:00 (00:00)Choice of GamesChoice of Games
1390 The Magician's Workshop Dec 19, 2019 $5.99N/A (N/A)0 .. 20,0000%00:00 (00:00)Choice of GamesChoice of Games
1391 Rocwood Academy Dec 13, 2019 $2.99N/A (N/A)0 .. 20,0000%00:00 (00:00)DigiLab InteractionDigiLab Interaction
1392 Photo Quiz - Animals Dec 13, 2019 $0.49N/A (N/A)0 .. 20,0000%00:00 (00:00)Boogygames StudiosBoogygames Studios
1393 Winter Polaris Dec 12, 2019 $14.99N/A (N/A)0 .. 20,0000%00:00 (00:00)stage-nanaSekai Project
1394 In the Service of Mrs. Claus Dec 12, 2019 $5.99N/A (N/A)0 .. 20,0000%00:00 (00:00)Choice of GamesChoice of Games
1395 DIVINATION Dec 12, 2019 $1.99N/A (N/A)100,000 .. 200,0000%00:00 (00:00)MojikenMojiken
1396 Murder On The Island Dec 10, 2019 $1.49N/A (N/A)0 .. 20,0000%00:00 (00:00)Forever Young GamesForever Young Games
1397 A Pirate's Pleasure Dec 2, 2019 $6.99N/A (N/A)0 .. 20,0000%00:00 (00:00)Heart's ChoiceHeart's Choice
1398 Adventureland XL Dec 2, 2019 $4.99N/A (N/A)0 .. 20,0000%00:00 (00:00)Clopas LLCClopas LLC
1399 Jazz Age Dec 2, 2019 $4.99N/A (N/A)0 .. 20,0000%00:00 (00:00)Heart's ChoiceHeart's Choice
1400 Dawnfall Dec 2, 2019 $5.99N/A (N/A)0 .. 20,0000%00:00 (00:00)Heart's ChoiceHeart's Choice
1401 Réussir : Code de la Route - Nouvelle Édition (French Highway Code) Nov 29, 2019 $14.99N/A (N/A)0 .. 20,0000%00:00 (00:00)Smart Tale GamesMicroids
1402 Creme de la Creme Nov 27, 2019 $7.99N/A (N/A)0 .. 20,0000%00:00 (00:00)Choice of GamesChoice of Games
1403 Markov Alg Nov 26, 2019 $2.99N/A (N/A)0 .. 20,0000%00:00 (00:00)FewjixFewjix
1404 A Familiar Fairytale Dyslexic Text Based Adventure Nov 18, 2019 $0.99N/A (N/A)0 .. 20,0000%00:00 (00:00)Alastair LowLowtek Games
1405 Kyle is Famous: Complete Edition Nov 18, 2019 $9.99N/A (N/A)100,000 .. 200,0000%00:00 (00:00)John SzymanskiJohn Szymanski
1406 The War for the West Nov 14, 2019 $7.99N/A (N/A)0 .. 20,0000%00:00 (00:00)Hosted GamesHosted Games
1407 Breach: The Archangel Job Nov 14, 2019 $8.99N/A (N/A)0 .. 20,0000%00:00 (00:00)Hosted GamesHosted Games
1408 Feels Nov 13, 2019 $3.99N/A (N/A)0 .. 20,0000%00:00 (00:00)Copper Heart FactoryCopper Heart Factory
1409 Grand Academy II: Attack of the Sequel Nov 7, 2019 $5.99N/A (N/A)0 .. 20,0000%00:00 (00:00)Choice of GamesChoice of Games
1410 [MISC] TIMELINES Nov 6, 2019 $0.99N/A (N/A)0 .. 20,0000%00:00 (00:00)Misc.261Misc.261
1411 Dimensionality 3.5 Nov 4, 2019 $0.99N/A (N/A)20,000 .. 50,0000%00:00 (00:00)NPC S StudioNPC S Studio
1412 The Hunter's Journals - Blissful Ignorance Oct 31, 2019 $5.99N/A (N/A)0 .. 20,0000%00:00 (00:00)Grindwheel GamesGrindwheel Games
1413 Detective Kobayashi - A Visual Novel Oct 24, 2019 $12.99N/A (N/A)0 .. 20,0000%00:00 (00:00)GenuineGiiku Games
1414 The Fog Knows Your Name Oct 24, 2019 $6.99N/A (N/A)0 .. 20,0000%00:00 (00:00)Choice of GamesChoice of Games
1415 Mini Words - minimalist puzzle Oct 24, 2019 $1.99N/A (N/A)20,000 .. 50,0000%00:00 (00:00)Mens Sana InteractiveMens Sana Interactive
1416 My Typing Skill Oct 18, 2019 $1.99N/A (N/A)0 .. 20,0000%00:00 (00:00)RewindAppRewindApp
1417 The Eye of Borrack Oct 17, 2019 $2.99N/A (N/A)0 .. 20,0000%00:00 (00:00)JimJams GamesJimJams Games
1418 R.U.B.Y.寻常交织的日常 Oct 15, 2019 $0.99N/A (N/A)0 .. 20,0000%00:00 (00:00)ShiinaYashiroShiinaYashiro
1419 Victoriana - Steampunk Text Adventure Oct 13, 2019 $2.99N/A (N/A)0 .. 20,0000%00:00 (00:00)Dr. Cyril SplutterworthDr. Cyril Splutterworth
1420 The Parenting Simulator Sep 30, 2019 $5.99N/A (N/A)0 .. 20,0000%00:00 (00:00)Hosted GamesHosted Games
1421 Nanairo Reincarnation Sep 27, 2019 $29.99N/A (N/A)20,000 .. 50,0000%00:00 (00:00)Silky's Plus Wasabi, Silky’s Plus AlphaSekai Project
1422 A Legionary's Life Sep 25, 2019 $7.99N/A (N/A)100,000 .. 200,00033.33%00:02 (00:01)Alessandro RobertiAlessandro Roberti
1423 Hero or Villain: Genesis Sep 19, 2019 $6.99N/A (N/A)0 .. 20,0000%00:00 (00:00)Hosted GamesHosted Games
1424 Sword of the Slayer Sep 12, 2019 $5.99N/A (N/A)0 .. 20,0000%00:00 (00:00)Choice of GamesChoice of Games
1425 Fit For a King Sep 5, 2019 $9.99N/A (N/A)0 .. 20,0000%00:00 (00:00)Brent Ellison, Tanya X. ShortKitfox Games
1426 Norman's Great Illusion Aug 29, 2019 $3.99N/A (N/A)0 .. 20,0000%00:00 (00:00)Civil SavagesCivil Savages
1427 Samurai of Hyuga Book 4 Aug 29, 2019 $6.99N/A (N/A)0 .. 20,0000%00:00 (00:00)Hosted GamesHosted Games
Overview

Text-Based

Games with this tag: 1427
Average userscore: N/A%
Average metascore: 78.32%
Average playtime: 06:24
Total copies owned: 40,090,000
Average price: $8.29
Help

Owners: Estimated number of people owning this game. The number might be way too small for new releases and sometimes way too big for games that had free weekend event recently. Read more on About page.

Playtime: Average hours played in total per person that have actually launched this game since March 2009. This time is calculated for the whole lifetime, not for the particular year.

Average score: Average users and metacritic score for all games with this score assigned.

Average playtime: Average lifetime playtime for all games where this data is available.

Games in this genre: Self-explaining - number of games with this tag. Only inculdes games with sales data available.

Total copies owned: Refers to total copies of games with this tag acquired by users for the lifetime. Includes copies sold, downloaded for free and given out.

This number might be too small for recently released games or too big for games that had a free weekend in the last couple of months.

Graphs

Login required.

Please register or log in to see this information.

Login required.

Please register or log in to see this information.